<?xml version="1.0" encoding="UTF-8" standalone="no" ?>
<gpx xmlns="http://www.topografix.com/GPX/1/1" xmlns:xsi="http://www.w3.org/2001/XMLSchema-instance" xsi:schemaLocation="http://www.topografix.com/GPX/1/1 http://www.topografix.com/GPX/1/1/gpx.xsd" version="1.1" creator="VisuGPX - https://www.visugpx.com">
  <metadata>
    <name>2021-06-26 SAINTE PAULE</name>
  </metadata>
  <trk>
    <name><![CDATA[2021-06-26 SAINTE PAULE]]></name>
    <trkseg>
      <trkpt lat="45.95988" lon="4.56653">
        <ele>503.87</ele>
        <time>2021-06-26T10:11:04Z</time>
      </trkpt>
      <trkpt lat="45.95995" lon="4.56645">
        <ele>503.87</ele>
        <time>2021-06-26T10:11:21Z</time>
      </trkpt>
      <trkpt lat="45.96001" lon="4.56636">
        <ele>504.35</ele>
        <time>2021-06-26T10:11:30Z</time>
      </trkpt>
      <trkpt lat="45.96013" lon="4.5662">
        <ele>504.35</ele>
        <time>2021-06-26T10:11:49Z</time>
      </trkpt>
      <trkpt lat="45.96024" lon="4.56603">
        <ele>504.83</ele>
        <time>2021-06-26T10:12:07Z</time>
      </trkpt>
      <trkpt lat="45.96033" lon="4.56588">
        <ele>505.79</ele>
        <time>2021-06-26T10:12:23Z</time>
      </trkpt>
      <trkpt lat="45.96044" lon="4.56573">
        <ele>505.79</ele>
        <time>2021-06-26T10:12:39Z</time>
      </trkpt>
      <trkpt lat="45.96056" lon="4.56563">
        <ele>506.27</ele>
        <time>2021-06-26T10:12:55Z</time>
      </trkpt>
      <trkpt lat="45.96069" lon="4.56551">
        <ele>507.23</ele>
        <time>2021-06-26T10:13:09Z</time>
      </trkpt>
      <trkpt lat="45.96083" lon="4.56544">
        <ele>508.19</ele>
        <time>2021-06-26T10:13:27Z</time>
      </trkpt>
      <trkpt lat="45.96088" lon="4.56547">
        <ele>508.19</ele>
        <time>2021-06-26T10:13:42Z</time>
      </trkpt>
      <trkpt lat="45.96097" lon="4.56541">
        <ele>508.67</ele>
        <time>2021-06-26T10:13:54Z</time>
      </trkpt>
      <trkpt lat="45.96109" lon="4.56531">
        <ele>509.64</ele>
        <time>2021-06-26T10:14:12Z</time>
      </trkpt>
      <trkpt lat="45.96117" lon="4.56527">
        <ele>510.6</ele>
        <time>2021-06-26T10:14:22Z</time>
      </trkpt>
      <trkpt lat="45.96131" lon="4.56521">
        <ele>511.56</ele>
        <time>2021-06-26T10:14:37Z</time>
      </trkpt>
      <trkpt lat="45.96146" lon="4.56516">
        <ele>513</ele>
        <time>2021-06-26T10:14:53Z</time>
      </trkpt>
      <trkpt lat="45.96152" lon="4.56516">
        <ele>513.96</ele>
        <time>2021-06-26T10:15:06Z</time>
      </trkpt>
      <trkpt lat="45.96162" lon="4.56507">
        <ele>514.92</ele>
        <time>2021-06-26T10:15:22Z</time>
      </trkpt>
      <trkpt lat="45.96183" lon="4.56504">
        <ele>516.37</ele>
        <time>2021-06-26T10:15:41Z</time>
      </trkpt>
      <trkpt lat="45.96186" lon="4.56497">
        <ele>517.33</ele>
        <time>2021-06-26T10:15:55Z</time>
      </trkpt>
      <trkpt lat="45.96193" lon="4.56495">
        <ele>518.29</ele>
        <time>2021-06-26T10:16:03Z</time>
      </trkpt>
      <trkpt lat="45.96199" lon="4.56484">
        <ele>519.25</ele>
        <time>2021-06-26T10:16:17Z</time>
      </trkpt>
      <trkpt lat="45.96204" lon="4.56481">
        <ele>519.73</ele>
        <time>2021-06-26T10:16:31Z</time>
      </trkpt>
      <trkpt lat="45.96209" lon="4.56488">
        <ele>520.69</ele>
        <time>2021-06-26T10:16:46Z</time>
      </trkpt>
      <trkpt lat="45.96215" lon="4.56488">
        <ele>521.65</ele>
        <time>2021-06-26T10:16:54Z</time>
      </trkpt>
      <trkpt lat="45.96223" lon="4.56489">
        <ele>522.61</ele>
        <time>2021-06-26T10:17:06Z</time>
      </trkpt>
      <trkpt lat="45.96235" lon="4.56494">
        <ele>524.54</ele>
        <time>2021-06-26T10:17:21Z</time>
      </trkpt>
      <trkpt lat="45.96242" lon="4.56501">
        <ele>526.46</ele>
        <time>2021-06-26T10:17:35Z</time>
      </trkpt>
      <trkpt lat="45.96252" lon="4.56511">
        <ele>528.38</ele>
        <time>2021-06-26T10:17:52Z</time>
      </trkpt>
      <trkpt lat="45.96263" lon="4.56519">
        <ele>529.82</ele>
        <time>2021-06-26T10:18:09Z</time>
      </trkpt>
      <trkpt lat="45.9627" lon="4.56522">
        <ele>530.79</ele>
        <time>2021-06-26T10:18:22Z</time>
      </trkpt>
      <trkpt lat="45.96271" lon="4.56521">
        <ele>530.79</ele>
        <time>2021-06-26T10:18:43Z</time>
      </trkpt>
      <trkpt lat="45.96276" lon="4.56521">
        <ele>531.75</ele>
        <time>2021-06-26T10:19:14Z</time>
      </trkpt>
      <trkpt lat="45.9628" lon="4.56513">
        <ele>533.19</ele>
        <time>2021-06-26T10:19:25Z</time>
      </trkpt>
      <trkpt lat="45.96281" lon="4.56499">
        <ele>534.15</ele>
        <time>2021-06-26T10:19:39Z</time>
      </trkpt>
      <trkpt lat="45.96282" lon="4.56488">
        <ele>534.63</ele>
        <time>2021-06-26T10:19:48Z</time>
      </trkpt>
      <trkpt lat="45.96282" lon="4.5648">
        <ele>535.11</ele>
        <time>2021-06-26T10:19:55Z</time>
      </trkpt>
      <trkpt lat="45.96284" lon="4.56457">
        <ele>536.07</ele>
        <time>2021-06-26T10:20:12Z</time>
      </trkpt>
      <trkpt lat="45.9629" lon="4.56439">
        <ele>537.03</ele>
        <time>2021-06-26T10:20:27Z</time>
      </trkpt>
      <trkpt lat="45.96295" lon="4.56423">
        <ele>537.99</ele>
        <time>2021-06-26T10:20:41Z</time>
      </trkpt>
      <trkpt lat="45.963" lon="4.56403">
        <ele>538.96</ele>
        <time>2021-06-26T10:20:58Z</time>
      </trkpt>
      <trkpt lat="45.96302" lon="4.56397">
        <ele>539.44</ele>
        <time>2021-06-26T10:21:03Z</time>
      </trkpt>
      <trkpt lat="45.96308" lon="4.56376">
        <ele>540.4</ele>
        <time>2021-06-26T10:21:21Z</time>
      </trkpt>
      <trkpt lat="45.96314" lon="4.56369">
        <ele>540.88</ele>
        <time>2021-06-26T10:21:35Z</time>
      </trkpt>
      <trkpt lat="45.96316" lon="4.56365">
        <ele>541.36</ele>
        <time>2021-06-26T10:21:40Z</time>
      </trkpt>
      <trkpt lat="45.96326" lon="4.56357">
        <ele>542.8</ele>
        <time>2021-06-26T10:21:55Z</time>
      </trkpt>
      <trkpt lat="45.96327" lon="4.56356">
        <ele>542.8</ele>
        <time>2021-06-26T10:21:56Z</time>
      </trkpt>
      <trkpt lat="45.96332" lon="4.5635">
        <ele>543.76</ele>
        <time>2021-06-26T10:22:14Z</time>
      </trkpt>
      <trkpt lat="45.96343" lon="4.5635">
        <ele>544.72</ele>
        <time>2021-06-26T10:22:26Z</time>
      </trkpt>
      <trkpt lat="45.96358" lon="4.56352">
        <ele>545.69</ele>
        <time>2021-06-26T10:22:41Z</time>
      </trkpt>
      <trkpt lat="45.96361" lon="4.5635">
        <ele>546.65</ele>
        <time>2021-06-26T10:22:46Z</time>
      </trkpt>
      <trkpt lat="45.96375" lon="4.56345">
        <ele>547.61</ele>
        <time>2021-06-26T10:23:02Z</time>
      </trkpt>
      <trkpt lat="45.96388" lon="4.56338">
        <ele>548.57</ele>
        <time>2021-06-26T10:23:18Z</time>
      </trkpt>
      <trkpt lat="45.96399" lon="4.56332">
        <ele>549.53</ele>
        <time>2021-06-26T10:23:34Z</time>
      </trkpt>
      <trkpt lat="45.96404" lon="4.5633">
        <ele>550.01</ele>
        <time>2021-06-26T10:23:45Z</time>
      </trkpt>
      <trkpt lat="45.96416" lon="4.56319">
        <ele>551.45</ele>
        <time>2021-06-26T10:24:01Z</time>
      </trkpt>
      <trkpt lat="45.9643" lon="4.5631">
        <ele>552.41</ele>
        <time>2021-06-26T10:24:18Z</time>
      </trkpt>
      <trkpt lat="45.96442" lon="4.563">
        <ele>553.86</ele>
        <time>2021-06-26T10:24:33Z</time>
      </trkpt>
      <trkpt lat="45.9645" lon="4.56296">
        <ele>554.34</ele>
        <time>2021-06-26T10:24:48Z</time>
      </trkpt>
      <trkpt lat="45.96463" lon="4.56287">
        <ele>555.3</ele>
        <time>2021-06-26T10:25:05Z</time>
      </trkpt>
      <trkpt lat="45.96477" lon="4.56277">
        <ele>556.74</ele>
        <time>2021-06-26T10:25:22Z</time>
      </trkpt>
      <trkpt lat="45.96492" lon="4.56273">
        <ele>558.18</ele>
        <time>2021-06-26T10:25:39Z</time>
      </trkpt>
      <trkpt lat="45.96505" lon="4.56273">
        <ele>559.62</ele>
        <time>2021-06-26T10:25:55Z</time>
      </trkpt>
      <trkpt lat="45.96517" lon="4.56274">
        <ele>560.59</ele>
        <time>2021-06-26T10:26:08Z</time>
      </trkpt>
      <trkpt lat="45.9653" lon="4.56279">
        <ele>561.55</ele>
        <time>2021-06-26T10:26:24Z</time>
      </trkpt>
      <trkpt lat="45.96536" lon="4.56282">
        <ele>561.55</ele>
        <time>2021-06-26T10:26:31Z</time>
      </trkpt>
      <trkpt lat="45.96538" lon="4.56286">
        <ele>561.07</ele>
        <time>2021-06-26T10:26:44Z</time>
      </trkpt>
      <trkpt lat="45.96543" lon="4.56286">
        <ele>562.03</ele>
        <time>2021-06-26T10:26:54Z</time>
      </trkpt>
      <trkpt lat="45.96558" lon="4.56297">
        <ele>562.03</ele>
        <time>2021-06-26T10:27:13Z</time>
      </trkpt>
      <trkpt lat="45.96574" lon="4.56309">
        <ele>562.51</ele>
        <time>2021-06-26T10:27:30Z</time>
      </trkpt>
      <trkpt lat="45.96588" lon="4.56324">
        <ele>562.99</ele>
        <time>2021-06-26T10:27:49Z</time>
      </trkpt>
      <trkpt lat="45.96594" lon="4.56329">
        <ele>563.95</ele>
        <time>2021-06-26T10:28:05Z</time>
      </trkpt>
      <trkpt lat="45.96607" lon="4.5634">
        <ele>564.91</ele>
        <time>2021-06-26T10:28:22Z</time>
      </trkpt>
      <trkpt lat="45.96612" lon="4.56346">
        <ele>564.91</ele>
        <time>2021-06-26T10:28:37Z</time>
      </trkpt>
      <trkpt lat="45.96621" lon="4.56352">
        <ele>564.91</ele>
        <time>2021-06-26T10:28:51Z</time>
      </trkpt>
      <trkpt lat="45.96626" lon="4.56355">
        <ele>564.91</ele>
        <time>2021-06-26T10:29:06Z</time>
      </trkpt>
      <trkpt lat="45.96623" lon="4.56358">
        <ele>564.91</ele>
        <time>2021-06-26T10:29:17Z</time>
      </trkpt>
      <trkpt lat="45.96614" lon="4.5636">
        <ele>564.91</ele>
        <time>2021-06-26T10:29:32Z</time>
      </trkpt>
      <trkpt lat="45.96613" lon="4.5636">
        <ele>564.43</ele>
        <time>2021-06-26T10:30:03Z</time>
      </trkpt>
      <trkpt lat="45.96612" lon="4.5636">
        <ele>564.43</ele>
        <time>2021-06-26T10:30:17Z</time>
      </trkpt>
      <trkpt lat="45.96611" lon="4.56363">
        <ele>563.95</ele>
        <time>2021-06-26T10:30:38Z</time>
      </trkpt>
      <trkpt lat="45.96611" lon="4.56363">
        <ele>560.11</ele>
        <time>2021-06-26T10:30:42Z</time>
      </trkpt>
      <trkpt lat="45.96611" lon="4.56363">
        <ele>560.11</ele>
        <time>2021-06-26T10:30:43Z</time>
      </trkpt>
      <trkpt lat="45.96611" lon="4.56365">
        <ele>564.43</ele>
        <time>2021-06-26T10:30:59Z</time>
      </trkpt>
      <trkpt lat="45.96611" lon="4.56365">
        <ele>564.43</ele>
        <time>2021-06-26T10:31:00Z</time>
      </trkpt>
      <trkpt lat="45.96611" lon="4.56365">
        <ele>563.47</ele>
        <time>2021-06-26T10:31:04Z</time>
      </trkpt>
      <trkpt lat="45.96613" lon="4.56361">
        <ele>558.66</ele>
        <time>2021-06-26T11:16:46Z</time>
      </trkpt>
      <trkpt lat="45.96614" lon="4.56359">
        <ele>568.28</ele>
        <time>2021-06-26T11:16:47Z</time>
      </trkpt>
      <trkpt lat="45.96615" lon="4.5636">
        <ele>566.83</ele>
        <time>2021-06-26T11:16:48Z</time>
      </trkpt>
      <trkpt lat="45.96614" lon="4.56359">
        <ele>566.35</ele>
        <time>2021-06-26T11:17:14Z</time>
      </trkpt>
      <trkpt lat="45.96615" lon="4.5636">
        <ele>567.32</ele>
        <time>2021-06-26T11:17:35Z</time>
      </trkpt>
      <trkpt lat="45.96614" lon="4.5636">
        <ele>563.47</ele>
        <time>2021-06-26T11:17:38Z</time>
      </trkpt>
      <trkpt lat="45.96615" lon="4.5636">
        <ele>571.16</ele>
        <time>2021-06-26T11:17:39Z</time>
      </trkpt>
      <trkpt lat="45.96615" lon="4.5636">
        <ele>567.32</ele>
        <time>2021-06-26T11:17:40Z</time>
      </trkpt>
      <trkpt lat="45.96614" lon="4.5636">
        <ele>566.83</ele>
        <time>2021-06-26T11:17:51Z</time>
      </trkpt>
      <trkpt lat="45.96615" lon="4.5636">
        <ele>567.8</ele>
        <time>2021-06-26T11:18:08Z</time>
      </trkpt>
      <trkpt lat="45.96615" lon="4.56363">
        <ele>567.32</ele>
        <time>2021-06-26T11:18:20Z</time>
      </trkpt>
      <trkpt lat="45.96618" lon="4.56357">
        <ele>568.28</ele>
        <time>2021-06-26T11:18:35Z</time>
      </trkpt>
      <trkpt lat="45.96626" lon="4.56348">
        <ele>568.28</ele>
        <time>2021-06-26T11:18:50Z</time>
      </trkpt>
      <trkpt lat="45.96633" lon="4.56347">
        <ele>568.28</ele>
        <time>2021-06-26T11:19:02Z</time>
      </trkpt>
      <trkpt lat="45.96638" lon="4.56345">
        <ele>568.28</ele>
        <time>2021-06-26T11:19:08Z</time>
      </trkpt>
      <trkpt lat="45.96651" lon="4.56348">
        <ele>567.8</ele>
        <time>2021-06-26T11:19:23Z</time>
      </trkpt>
      <trkpt lat="45.96661" lon="4.56348">
        <ele>567.32</ele>
        <time>2021-06-26T11:19:36Z</time>
      </trkpt>
      <trkpt lat="45.96675" lon="4.56346">
        <ele>566.83</ele>
        <time>2021-06-26T11:19:52Z</time>
      </trkpt>
      <trkpt lat="45.96688" lon="4.56342">
        <ele>566.83</ele>
        <time>2021-06-26T11:20:07Z</time>
      </trkpt>
      <trkpt lat="45.96694" lon="4.56341">
        <ele>566.83</ele>
        <time>2021-06-26T11:20:14Z</time>
      </trkpt>
      <trkpt lat="45.96714" lon="4.56338">
        <ele>566.35</ele>
        <time>2021-06-26T11:20:35Z</time>
      </trkpt>
      <trkpt lat="45.9673" lon="4.56334">
        <ele>566.35</ele>
        <time>2021-06-26T11:20:52Z</time>
      </trkpt>
      <trkpt lat="45.96747" lon="4.56333">
        <ele>566.35</ele>
        <time>2021-06-26T11:21:10Z</time>
      </trkpt>
      <trkpt lat="45.9675" lon="4.56335">
        <ele>565.87</ele>
        <time>2021-06-26T11:21:14Z</time>
      </trkpt>
      <trkpt lat="45.96758" lon="4.56337">
        <ele>565.87</ele>
        <time>2021-06-26T11:21:22Z</time>
      </trkpt>
      <trkpt lat="45.96767" lon="4.56339">
        <ele>565.87</ele>
        <time>2021-06-26T11:21:39Z</time>
      </trkpt>
      <trkpt lat="45.96773" lon="4.56338">
        <ele>565.87</ele>
        <time>2021-06-26T11:21:57Z</time>
      </trkpt>
      <trkpt lat="45.96792" lon="4.56342">
        <ele>565.39</ele>
        <time>2021-06-26T11:22:17Z</time>
      </trkpt>
      <trkpt lat="45.9681" lon="4.56345">
        <ele>564.91</ele>
        <time>2021-06-26T11:22:35Z</time>
      </trkpt>
      <trkpt lat="45.96814" lon="4.56347">
        <ele>564.91</ele>
        <time>2021-06-26T11:22:48Z</time>
      </trkpt>
      <trkpt lat="45.96813" lon="4.56348">
        <ele>565.39</ele>
        <time>2021-06-26T11:23:11Z</time>
      </trkpt>
      <trkpt lat="45.96814" lon="4.56348">
        <ele>564.91</ele>
        <time>2021-06-26T11:23:13Z</time>
      </trkpt>
      <trkpt lat="45.96819" lon="4.56347">
        <ele>564.91</ele>
        <time>2021-06-26T11:23:28Z</time>
      </trkpt>
      <trkpt lat="45.96819" lon="4.56345">
        <ele>565.39</ele>
        <time>2021-06-26T11:23:38Z</time>
      </trkpt>
      <trkpt lat="45.96824" lon="4.56346">
        <ele>564.91</ele>
        <time>2021-06-26T11:24:00Z</time>
      </trkpt>
      <trkpt lat="45.96825" lon="4.56346">
        <ele>564.91</ele>
        <time>2021-06-26T11:24:01Z</time>
      </trkpt>
      <trkpt lat="45.96829" lon="4.56349">
        <ele>564.91</ele>
        <time>2021-06-26T11:24:11Z</time>
      </trkpt>
      <trkpt lat="45.96835" lon="4.56352">
        <ele>563.95</ele>
        <time>2021-06-26T11:24:23Z</time>
      </trkpt>
      <trkpt lat="45.96846" lon="4.56357">
        <ele>563.47</ele>
        <time>2021-06-26T11:24:39Z</time>
      </trkpt>
      <trkpt lat="45.96852" lon="4.56359">
        <ele>563.47</ele>
        <time>2021-06-26T11:24:54Z</time>
      </trkpt>
      <trkpt lat="45.96868" lon="4.56364">
        <ele>563.47</ele>
        <time>2021-06-26T11:25:11Z</time>
      </trkpt>
      <trkpt lat="45.96869" lon="4.56365">
        <ele>563.47</ele>
        <time>2021-06-26T11:25:12Z</time>
      </trkpt>
      <trkpt lat="45.96879" lon="4.56367">
        <ele>562.99</ele>
        <time>2021-06-26T11:25:23Z</time>
      </trkpt>
      <trkpt lat="45.96896" lon="4.56373">
        <ele>562.99</ele>
        <time>2021-06-26T11:25:40Z</time>
      </trkpt>
      <trkpt lat="45.9691" lon="4.56378">
        <ele>562.99</ele>
        <time>2021-06-26T11:25:57Z</time>
      </trkpt>
      <trkpt lat="45.96919" lon="4.56382">
        <ele>562.51</ele>
        <time>2021-06-26T11:26:11Z</time>
      </trkpt>
      <trkpt lat="45.96932" lon="4.56393">
        <ele>562.99</ele>
        <time>2021-06-26T11:26:28Z</time>
      </trkpt>
      <trkpt lat="45.96942" lon="4.56401">
        <ele>562.51</ele>
        <time>2021-06-26T11:26:46Z</time>
      </trkpt>
      <trkpt lat="45.96953" lon="4.56413">
        <ele>563.47</ele>
        <time>2021-06-26T11:27:03Z</time>
      </trkpt>
      <trkpt lat="45.9696" lon="4.56419">
        <ele>563.47</ele>
        <time>2021-06-26T11:27:12Z</time>
      </trkpt>
      <trkpt lat="45.96963" lon="4.56421">
        <ele>563.47</ele>
        <time>2021-06-26T11:27:15Z</time>
      </trkpt>
      <trkpt lat="45.96976" lon="4.56433">
        <ele>564.43</ele>
        <time>2021-06-26T11:27:32Z</time>
      </trkpt>
      <trkpt lat="45.96979" lon="4.56437">
        <ele>564.43</ele>
        <time>2021-06-26T11:27:49Z</time>
      </trkpt>
      <trkpt lat="45.96991" lon="4.56445">
        <ele>565.87</ele>
        <time>2021-06-26T11:28:06Z</time>
      </trkpt>
      <trkpt lat="45.97007" lon="4.56453">
        <ele>566.83</ele>
        <time>2021-06-26T11:28:25Z</time>
      </trkpt>
      <trkpt lat="45.97011" lon="4.56456">
        <ele>566.83</ele>
        <time>2021-06-26T11:28:30Z</time>
      </trkpt>
      <trkpt lat="45.97013" lon="4.56456">
        <ele>567.32</ele>
        <time>2021-06-26T11:28:32Z</time>
      </trkpt>
      <trkpt lat="45.97015" lon="4.56458">
        <ele>567.32</ele>
        <time>2021-06-26T11:28:35Z</time>
      </trkpt>
      <trkpt lat="45.97024" lon="4.56461">
        <ele>567.8</ele>
        <time>2021-06-26T11:28:45Z</time>
      </trkpt>
      <trkpt lat="45.9703" lon="4.56462">
        <ele>567.8</ele>
        <time>2021-06-26T11:28:51Z</time>
      </trkpt>
      <trkpt lat="45.9704" lon="4.56463">
        <ele>567.8</ele>
        <time>2021-06-26T11:29:02Z</time>
      </trkpt>
      <trkpt lat="45.97059" lon="4.56463">
        <ele>567.8</ele>
        <time>2021-06-26T11:29:20Z</time>
      </trkpt>
      <trkpt lat="45.97078" lon="4.56462">
        <ele>567.8</ele>
        <time>2021-06-26T11:29:40Z</time>
      </trkpt>
      <trkpt lat="45.97087" lon="4.56461">
        <ele>568.28</ele>
        <time>2021-06-26T11:29:52Z</time>
      </trkpt>
      <trkpt lat="45.97103" lon="4.56458">
        <ele>568.76</ele>
        <time>2021-06-26T11:30:09Z</time>
      </trkpt>
      <trkpt lat="45.97123" lon="4.56455">
        <ele>568.76</ele>
        <time>2021-06-26T11:30:29Z</time>
      </trkpt>
      <trkpt lat="45.97141" lon="4.5645">
        <ele>569.24</ele>
        <time>2021-06-26T11:30:48Z</time>
      </trkpt>
      <trkpt lat="45.97158" lon="4.56444">
        <ele>570.2</ele>
        <time>2021-06-26T11:31:07Z</time>
      </trkpt>
      <trkpt lat="45.97166" lon="4.56442">
        <ele>570.2</ele>
        <time>2021-06-26T11:31:21Z</time>
      </trkpt>
      <trkpt lat="45.97181" lon="4.56436">
        <ele>571.16</ele>
        <time>2021-06-26T11:31:38Z</time>
      </trkpt>
      <trkpt lat="45.97197" lon="4.56429">
        <ele>572.12</ele>
        <time>2021-06-26T11:31:56Z</time>
      </trkpt>
      <trkpt lat="45.97206" lon="4.56424">
        <ele>573.08</ele>
        <time>2021-06-26T11:32:07Z</time>
      </trkpt>
      <trkpt lat="45.97221" lon="4.56418">
        <ele>574.04</ele>
        <time>2021-06-26T11:32:25Z</time>
      </trkpt>
      <trkpt lat="45.97229" lon="4.56415">
        <ele>575.01</ele>
        <time>2021-06-26T11:32:39Z</time>
      </trkpt>
      <trkpt lat="45.97245" lon="4.56408">
        <ele>575.97</ele>
        <time>2021-06-26T11:32:59Z</time>
      </trkpt>
      <trkpt lat="45.97257" lon="4.56403">
        <ele>577.41</ele>
        <time>2021-06-26T11:33:14Z</time>
      </trkpt>
      <trkpt lat="45.97268" lon="4.56395">
        <ele>578.85</ele>
        <time>2021-06-26T11:33:29Z</time>
      </trkpt>
      <trkpt lat="45.97283" lon="4.56387">
        <ele>579.81</ele>
        <time>2021-06-26T11:33:46Z</time>
      </trkpt>
      <trkpt lat="45.97289" lon="4.56382">
        <ele>580.29</ele>
        <time>2021-06-26T11:34:00Z</time>
      </trkpt>
      <trkpt lat="45.973" lon="4.56378">
        <ele>581.25</ele>
        <time>2021-06-26T11:34:14Z</time>
      </trkpt>
      <trkpt lat="45.97312" lon="4.56371">
        <ele>582.7</ele>
        <time>2021-06-26T11:34:29Z</time>
      </trkpt>
      <trkpt lat="45.97326" lon="4.56365">
        <ele>584.14</ele>
        <time>2021-06-26T11:34:46Z</time>
      </trkpt>
      <trkpt lat="45.9734" lon="4.56358">
        <ele>585.1</ele>
        <time>2021-06-26T11:35:03Z</time>
      </trkpt>
      <trkpt lat="45.97353" lon="4.56352">
        <ele>586.54</ele>
        <time>2021-06-26T11:35:19Z</time>
      </trkpt>
      <trkpt lat="45.97366" lon="4.56346">
        <ele>587.5</ele>
        <time>2021-06-26T11:35:36Z</time>
      </trkpt>
      <trkpt lat="45.97381" lon="4.56342">
        <ele>587.98</ele>
        <time>2021-06-26T11:35:52Z</time>
      </trkpt>
      <trkpt lat="45.97396" lon="4.56339">
        <ele>588.95</ele>
        <time>2021-06-26T11:36:09Z</time>
      </trkpt>
      <trkpt lat="45.97414" lon="4.56336">
        <ele>589.43</ele>
        <time>2021-06-26T11:36:28Z</time>
      </trkpt>
      <trkpt lat="45.97423" lon="4.56336">
        <ele>589.43</ele>
        <time>2021-06-26T11:36:38Z</time>
      </trkpt>
      <trkpt lat="45.97439" lon="4.56338">
        <ele>589.43</ele>
        <time>2021-06-26T11:36:56Z</time>
      </trkpt>
      <trkpt lat="45.97455" lon="4.56334">
        <ele>589.91</ele>
        <time>2021-06-26T11:37:14Z</time>
      </trkpt>
      <trkpt lat="45.97457" lon="4.56334">
        <ele>589.91</ele>
        <time>2021-06-26T11:37:16Z</time>
      </trkpt>
      <trkpt lat="45.97469" lon="4.56329">
        <ele>588.46</ele>
        <time>2021-06-26T11:37:31Z</time>
      </trkpt>
      <trkpt lat="45.97485" lon="4.56323">
        <ele>588.46</ele>
        <time>2021-06-26T11:37:49Z</time>
      </trkpt>
      <trkpt lat="45.97501" lon="4.56314">
        <ele>587.98</ele>
        <time>2021-06-26T11:38:07Z</time>
      </trkpt>
      <trkpt lat="45.97513" lon="4.56309">
        <ele>587.98</ele>
        <time>2021-06-26T11:38:20Z</time>
      </trkpt>
      <trkpt lat="45.97529" lon="4.56297">
        <ele>587.98</ele>
        <time>2021-06-26T11:38:39Z</time>
      </trkpt>
      <trkpt lat="45.97544" lon="4.56291">
        <ele>587.5</ele>
        <time>2021-06-26T11:38:56Z</time>
      </trkpt>
      <trkpt lat="45.97546" lon="4.56291">
        <ele>587.5</ele>
        <time>2021-06-26T11:39:16Z</time>
      </trkpt>
      <trkpt lat="45.97554" lon="4.56288">
        <ele>587.98</ele>
        <time>2021-06-26T11:39:32Z</time>
      </trkpt>
      <trkpt lat="45.97565" lon="4.56284">
        <ele>587.98</ele>
        <time>2021-06-26T11:39:47Z</time>
      </trkpt>
      <trkpt lat="45.97577" lon="4.56278">
        <ele>587.98</ele>
        <time>2021-06-26T11:40:01Z</time>
      </trkpt>
      <trkpt lat="45.9759" lon="4.56273">
        <ele>587.98</ele>
        <time>2021-06-26T11:40:16Z</time>
      </trkpt>
      <trkpt lat="45.97603" lon="4.56265">
        <ele>587.98</ele>
        <time>2021-06-26T11:40:31Z</time>
      </trkpt>
      <trkpt lat="45.97615" lon="4.56261">
        <ele>587.5</ele>
        <time>2021-06-26T11:40:45Z</time>
      </trkpt>
      <trkpt lat="45.9763" lon="4.56254">
        <ele>587.5</ele>
        <time>2021-06-26T11:41:02Z</time>
      </trkpt>
      <trkpt lat="45.97645" lon="4.56256">
        <ele>587.02</ele>
        <time>2021-06-26T11:41:18Z</time>
      </trkpt>
      <trkpt lat="45.9766" lon="4.56264">
        <ele>587.5</ele>
        <time>2021-06-26T11:41:35Z</time>
      </trkpt>
      <trkpt lat="45.97676" lon="4.56271">
        <ele>587.98</ele>
        <time>2021-06-26T11:41:53Z</time>
      </trkpt>
      <trkpt lat="45.9769" lon="4.56278">
        <ele>587.98</ele>
        <time>2021-06-26T11:42:08Z</time>
      </trkpt>
      <trkpt lat="45.97701" lon="4.56288">
        <ele>587.98</ele>
        <time>2021-06-26T11:42:22Z</time>
      </trkpt>
      <trkpt lat="45.97714" lon="4.56299">
        <ele>587.98</ele>
        <time>2021-06-26T11:42:38Z</time>
      </trkpt>
      <trkpt lat="45.97726" lon="4.56307">
        <ele>587.98</ele>
        <time>2021-06-26T11:42:53Z</time>
      </trkpt>
      <trkpt lat="45.97742" lon="4.56318">
        <ele>588.46</ele>
        <time>2021-06-26T11:43:13Z</time>
      </trkpt>
      <trkpt lat="45.97755" lon="4.56323">
        <ele>588.95</ele>
        <time>2021-06-26T11:43:28Z</time>
      </trkpt>
      <trkpt lat="45.97768" lon="4.56325">
        <ele>589.43</ele>
        <time>2021-06-26T11:43:44Z</time>
      </trkpt>
      <trkpt lat="45.97781" lon="4.56325">
        <ele>589.91</ele>
        <time>2021-06-26T11:44:02Z</time>
      </trkpt>
      <trkpt lat="45.97794" lon="4.56323">
        <ele>591.35</ele>
        <time>2021-06-26T11:44:19Z</time>
      </trkpt>
      <trkpt lat="45.97808" lon="4.56318">
        <ele>591.83</ele>
        <time>2021-06-26T11:44:36Z</time>
      </trkpt>
      <trkpt lat="45.9782" lon="4.56312">
        <ele>592.31</ele>
        <time>2021-06-26T11:44:51Z</time>
      </trkpt>
      <trkpt lat="45.97833" lon="4.56298">
        <ele>592.31</ele>
        <time>2021-06-26T11:45:08Z</time>
      </trkpt>
      <trkpt lat="45.97836" lon="4.56292">
        <ele>591.83</ele>
        <time>2021-06-26T11:45:13Z</time>
      </trkpt>
      <trkpt lat="45.97841" lon="4.56287">
        <ele>591.83</ele>
        <time>2021-06-26T11:45:20Z</time>
      </trkpt>
      <trkpt lat="45.97852" lon="4.56273">
        <ele>590.87</ele>
        <time>2021-06-26T11:45:35Z</time>
      </trkpt>
      <trkpt lat="45.97864" lon="4.56259">
        <ele>590.39</ele>
        <time>2021-06-26T11:45:52Z</time>
      </trkpt>
      <trkpt lat="45.97875" lon="4.56247">
        <ele>589.91</ele>
        <time>2021-06-26T11:46:06Z</time>
      </trkpt>
      <trkpt lat="45.97884" lon="4.56239">
        <ele>589.43</ele>
        <time>2021-06-26T11:46:17Z</time>
      </trkpt>
      <trkpt lat="45.97893" lon="4.56226">
        <ele>588.95</ele>
        <time>2021-06-26T11:46:31Z</time>
      </trkpt>
      <trkpt lat="45.979" lon="4.56224">
        <ele>588.95</ele>
        <time>2021-06-26T11:46:48Z</time>
      </trkpt>
      <trkpt lat="45.97909" lon="4.56213">
        <ele>587.98</ele>
        <time>2021-06-26T11:47:01Z</time>
      </trkpt>
      <trkpt lat="45.97922" lon="4.56205">
        <ele>587.5</ele>
        <time>2021-06-26T11:47:17Z</time>
      </trkpt>
      <trkpt lat="45.97933" lon="4.56199">
        <ele>586.54</ele>
        <time>2021-06-26T11:47:30Z</time>
      </trkpt>
      <trkpt lat="45.97946" lon="4.56196">
        <ele>586.54</ele>
        <time>2021-06-26T11:47:44Z</time>
      </trkpt>
      <trkpt lat="45.97958" lon="4.56194">
        <ele>586.06</ele>
        <time>2021-06-26T11:47:57Z</time>
      </trkpt>
      <trkpt lat="45.97972" lon="4.56192">
        <ele>586.06</ele>
        <time>2021-06-26T11:48:14Z</time>
      </trkpt>
      <trkpt lat="45.97981" lon="4.56181">
        <ele>586.54</ele>
        <time>2021-06-26T11:48:30Z</time>
      </trkpt>
      <trkpt lat="45.97987" lon="4.56171">
        <ele>587.02</ele>
        <time>2021-06-26T11:48:45Z</time>
      </trkpt>
      <trkpt lat="45.97999" lon="4.56161">
        <ele>588.46</ele>
        <time>2021-06-26T11:49:04Z</time>
      </trkpt>
      <trkpt lat="45.98008" lon="4.5615">
        <ele>589.91</ele>
        <time>2021-06-26T11:49:20Z</time>
      </trkpt>
      <trkpt lat="45.98013" lon="4.56142">
        <ele>590.39</ele>
        <time>2021-06-26T11:49:33Z</time>
      </trkpt>
      <trkpt lat="45.98019" lon="4.56133">
        <ele>591.83</ele>
        <time>2021-06-26T11:49:48Z</time>
      </trkpt>
      <trkpt lat="45.98024" lon="4.56121">
        <ele>593.27</ele>
        <time>2021-06-26T11:50:06Z</time>
      </trkpt>
      <trkpt lat="45.98027" lon="4.56111">
        <ele>594.23</ele>
        <time>2021-06-26T11:50:20Z</time>
      </trkpt>
      <trkpt lat="45.98029" lon="4.56104">
        <ele>595.67</ele>
        <time>2021-06-26T11:50:35Z</time>
      </trkpt>
      <trkpt lat="45.98029" lon="4.56093">
        <ele>597.12</ele>
        <time>2021-06-26T11:50:51Z</time>
      </trkpt>
      <trkpt lat="45.98032" lon="4.5608">
        <ele>598.56</ele>
        <time>2021-06-26T11:51:05Z</time>
      </trkpt>
      <trkpt lat="45.98035" lon="4.56068">
        <ele>599.04</ele>
        <time>2021-06-26T11:51:18Z</time>
      </trkpt>
      <trkpt lat="45.98035" lon="4.56064">
        <ele>599.04</ele>
        <time>2021-06-26T11:51:21Z</time>
      </trkpt>
      <trkpt lat="45.98037" lon="4.56047">
        <ele>599.04</ele>
        <time>2021-06-26T11:51:35Z</time>
      </trkpt>
      <trkpt lat="45.9804" lon="4.56039">
        <ele>599.04</ele>
        <time>2021-06-26T11:51:42Z</time>
      </trkpt>
      <trkpt lat="45.98048" lon="4.56021">
        <ele>599.52</ele>
        <time>2021-06-26T11:51:59Z</time>
      </trkpt>
      <trkpt lat="45.98055" lon="4.56009">
        <ele>600</ele>
        <time>2021-06-26T11:52:14Z</time>
      </trkpt>
      <trkpt lat="45.9806" lon="4.56">
        <ele>600.48</ele>
        <time>2021-06-26T11:52:33Z</time>
      </trkpt>
      <trkpt lat="45.98066" lon="4.55993">
        <ele>600.96</ele>
        <time>2021-06-26T11:52:44Z</time>
      </trkpt>
      <trkpt lat="45.98076" lon="4.5598">
        <ele>601.92</ele>
        <time>2021-06-26T11:52:59Z</time>
      </trkpt>
      <trkpt lat="45.98087" lon="4.55969">
        <ele>602.4</ele>
        <time>2021-06-26T11:53:15Z</time>
      </trkpt>
      <trkpt lat="45.98094" lon="4.55963">
        <ele>602.4</ele>
        <time>2021-06-26T11:53:28Z</time>
      </trkpt>
      <trkpt lat="45.98102" lon="4.55957">
        <ele>603.36</ele>
        <time>2021-06-26T11:53:42Z</time>
      </trkpt>
      <trkpt lat="45.98115" lon="4.55949">
        <ele>603.36</ele>
        <time>2021-06-26T11:53:57Z</time>
      </trkpt>
      <trkpt lat="45.98117" lon="4.55948">
        <ele>603.36</ele>
        <time>2021-06-26T11:53:59Z</time>
      </trkpt>
      <trkpt lat="45.9813" lon="4.55938">
        <ele>603.36</ele>
        <time>2021-06-26T11:54:16Z</time>
      </trkpt>
      <trkpt lat="45.98141" lon="4.55934">
        <ele>602.4</ele>
        <time>2021-06-26T11:54:29Z</time>
      </trkpt>
      <trkpt lat="45.98148" lon="4.55932">
        <ele>602.4</ele>
        <time>2021-06-26T11:54:36Z</time>
      </trkpt>
      <trkpt lat="45.98166" lon="4.55931">
        <ele>601.92</ele>
        <time>2021-06-26T11:54:54Z</time>
      </trkpt>
      <trkpt lat="45.98184" lon="4.55932">
        <ele>601.92</ele>
        <time>2021-06-26T11:55:13Z</time>
      </trkpt>
      <trkpt lat="45.98194" lon="4.55935">
        <ele>601.92</ele>
        <time>2021-06-26T11:55:27Z</time>
      </trkpt>
      <trkpt lat="45.98209" lon="4.55937">
        <ele>601.92</ele>
        <time>2021-06-26T11:55:44Z</time>
      </trkpt>
      <trkpt lat="45.98224" lon="4.55942">
        <ele>601.92</ele>
        <time>2021-06-26T11:56:01Z</time>
      </trkpt>
      <trkpt lat="45.9824" lon="4.55946">
        <ele>600.96</ele>
        <time>2021-06-26T11:56:18Z</time>
      </trkpt>
      <trkpt lat="45.98254" lon="4.5595">
        <ele>600</ele>
        <time>2021-06-26T11:56:34Z</time>
      </trkpt>
      <trkpt lat="45.98267" lon="4.55957">
        <ele>598.56</ele>
        <time>2021-06-26T11:56:50Z</time>
      </trkpt>
      <trkpt lat="45.9828" lon="4.55958">
        <ele>597.6</ele>
        <time>2021-06-26T11:57:04Z</time>
      </trkpt>
      <trkpt lat="45.98297" lon="4.55963">
        <ele>596.64</ele>
        <time>2021-06-26T11:57:20Z</time>
      </trkpt>
      <trkpt lat="45.98313" lon="4.55968">
        <ele>596.64</ele>
        <time>2021-06-26T11:57:38Z</time>
      </trkpt>
      <trkpt lat="45.98329" lon="4.55976">
        <ele>596.15</ele>
        <time>2021-06-26T11:57:55Z</time>
      </trkpt>
      <trkpt lat="45.98342" lon="4.5598">
        <ele>596.64</ele>
        <time>2021-06-26T11:58:12Z</time>
      </trkpt>
      <trkpt lat="45.98351" lon="4.55972">
        <ele>597.12</ele>
        <time>2021-06-26T11:58:27Z</time>
      </trkpt>
      <trkpt lat="45.98356" lon="4.55963">
        <ele>597.6</ele>
        <time>2021-06-26T11:58:40Z</time>
      </trkpt>
      <trkpt lat="45.98368" lon="4.55949">
        <ele>598.56</ele>
        <time>2021-06-26T11:58:56Z</time>
      </trkpt>
      <trkpt lat="45.98378" lon="4.55934">
        <ele>599.52</ele>
        <time>2021-06-26T11:59:10Z</time>
      </trkpt>
      <trkpt lat="45.9839" lon="4.55928">
        <ele>601.44</ele>
        <time>2021-06-26T11:59:27Z</time>
      </trkpt>
      <trkpt lat="45.984" lon="4.55922">
        <ele>602.88</ele>
        <time>2021-06-26T11:59:43Z</time>
      </trkpt>
      <trkpt lat="45.98405" lon="4.55922">
        <ele>603.36</ele>
        <time>2021-06-26T11:59:58Z</time>
      </trkpt>
      <trkpt lat="45.98407" lon="4.5592">
        <ele>603.36</ele>
        <time>2021-06-26T12:00:14Z</time>
      </trkpt>
      <trkpt lat="45.98407" lon="4.55914">
        <ele>602.88</ele>
        <time>2021-06-26T12:00:25Z</time>
      </trkpt>
      <trkpt lat="45.98409" lon="4.55912">
        <ele>602.4</ele>
        <time>2021-06-26T12:00:28Z</time>
      </trkpt>
      <trkpt lat="45.98414" lon="4.55909">
        <ele>602.4</ele>
        <time>2021-06-26T12:00:37Z</time>
      </trkpt>
      <trkpt lat="45.98424" lon="4.55901">
        <ele>601.92</ele>
        <time>2021-06-26T12:00:51Z</time>
      </trkpt>
      <trkpt lat="45.98433" lon="4.55903">
        <ele>601.44</ele>
        <time>2021-06-26T12:01:04Z</time>
      </trkpt>
      <trkpt lat="45.98437" lon="4.55906">
        <ele>601.44</ele>
        <time>2021-06-26T12:01:20Z</time>
      </trkpt>
      <trkpt lat="45.98452" lon="4.55913">
        <ele>600.96</ele>
        <time>2021-06-26T12:01:38Z</time>
      </trkpt>
      <trkpt lat="45.98465" lon="4.55923">
        <ele>600.96</ele>
        <time>2021-06-26T12:01:54Z</time>
      </trkpt>
      <trkpt lat="45.98477" lon="4.55938">
        <ele>600.48</ele>
        <time>2021-06-26T12:02:09Z</time>
      </trkpt>
      <trkpt lat="45.9849" lon="4.55957">
        <ele>600.48</ele>
        <time>2021-06-26T12:02:27Z</time>
      </trkpt>
      <trkpt lat="45.98497" lon="4.55966">
        <ele>600</ele>
        <time>2021-06-26T12:02:38Z</time>
      </trkpt>
      <trkpt lat="45.98499" lon="4.55967">
        <ele>600</ele>
        <time>2021-06-26T12:02:41Z</time>
      </trkpt>
      <trkpt lat="45.98509" lon="4.55965">
        <ele>600</ele>
        <time>2021-06-26T12:02:57Z</time>
      </trkpt>
      <trkpt lat="45.98509" lon="4.55964">
        <ele>600</ele>
        <time>2021-06-26T12:02:59Z</time>
      </trkpt>
      <trkpt lat="45.98508" lon="4.55961">
        <ele>599.52</ele>
        <time>2021-06-26T12:03:17Z</time>
      </trkpt>
      <trkpt lat="45.98511" lon="4.55951">
        <ele>599.52</ele>
        <time>2021-06-26T12:03:33Z</time>
      </trkpt>
      <trkpt lat="45.98514" lon="4.55934">
        <ele>599.04</ele>
        <time>2021-06-26T12:03:47Z</time>
      </trkpt>
      <trkpt lat="45.98518" lon="4.5591">
        <ele>598.56</ele>
        <time>2021-06-26T12:04:06Z</time>
      </trkpt>
      <trkpt lat="45.98521" lon="4.55901">
        <ele>599.04</ele>
        <time>2021-06-26T12:04:16Z</time>
      </trkpt>
      <trkpt lat="45.98524" lon="4.55885">
        <ele>599.04</ele>
        <time>2021-06-26T12:04:29Z</time>
      </trkpt>
      <trkpt lat="45.98528" lon="4.55876">
        <ele>598.08</ele>
        <time>2021-06-26T12:04:39Z</time>
      </trkpt>
      <trkpt lat="45.98533" lon="4.55857">
        <ele>597.12</ele>
        <time>2021-06-26T12:04:54Z</time>
      </trkpt>
      <trkpt lat="45.98536" lon="4.55842">
        <ele>596.64</ele>
        <time>2021-06-26T12:05:06Z</time>
      </trkpt>
      <trkpt lat="45.98543" lon="4.55823">
        <ele>595.67</ele>
        <time>2021-06-26T12:05:22Z</time>
      </trkpt>
      <trkpt lat="45.9855" lon="4.55807">
        <ele>595.19</ele>
        <time>2021-06-26T12:05:36Z</time>
      </trkpt>
      <trkpt lat="45.98556" lon="4.55793">
        <ele>595.19</ele>
        <time>2021-06-26T12:05:48Z</time>
      </trkpt>
      <trkpt lat="45.98556" lon="4.55788">
        <ele>595.19</ele>
        <time>2021-06-26T12:05:51Z</time>
      </trkpt>
      <trkpt lat="45.98561" lon="4.55769">
        <ele>594.71</ele>
        <time>2021-06-26T12:06:07Z</time>
      </trkpt>
      <trkpt lat="45.98566" lon="4.55751">
        <ele>594.23</ele>
        <time>2021-06-26T12:06:22Z</time>
      </trkpt>
      <trkpt lat="45.98569" lon="4.55744">
        <ele>593.75</ele>
        <time>2021-06-26T12:06:28Z</time>
      </trkpt>
      <trkpt lat="45.98574" lon="4.55729">
        <ele>593.27</ele>
        <time>2021-06-26T12:06:42Z</time>
      </trkpt>
      <trkpt lat="45.98578" lon="4.55715">
        <ele>593.27</ele>
        <time>2021-06-26T12:06:55Z</time>
      </trkpt>
      <trkpt lat="45.98589" lon="4.55696">
        <ele>591.83</ele>
        <time>2021-06-26T12:07:12Z</time>
      </trkpt>
      <trkpt lat="45.98599" lon="4.5569">
        <ele>591.35</ele>
        <time>2021-06-26T12:07:25Z</time>
      </trkpt>
      <trkpt lat="45.98601" lon="4.55687">
        <ele>591.35</ele>
        <time>2021-06-26T12:07:56Z</time>
      </trkpt>
      <trkpt lat="45.98597" lon="4.55689">
        <ele>590.87</ele>
        <time>2021-06-26T12:08:08Z</time>
      </trkpt>
      <trkpt lat="45.98594" lon="4.55689">
        <ele>590.87</ele>
        <time>2021-06-26T12:08:28Z</time>
      </trkpt>
      <trkpt lat="45.98594" lon="4.55681">
        <ele>590.39</ele>
        <time>2021-06-26T12:08:53Z</time>
      </trkpt>
      <trkpt lat="45.98591" lon="4.55676">
        <ele>587.98</ele>
        <time>2021-06-26T12:09:07Z</time>
      </trkpt>
      <trkpt lat="45.98587" lon="4.55667">
        <ele>586.06</ele>
        <time>2021-06-26T12:09:21Z</time>
      </trkpt>
      <trkpt lat="45.98586" lon="4.55663">
        <ele>585.58</ele>
        <time>2021-06-26T12:09:34Z</time>
      </trkpt>
      <trkpt lat="45.98587" lon="4.5565">
        <ele>583.18</ele>
        <time>2021-06-26T12:09:47Z</time>
      </trkpt>
      <trkpt lat="45.98585" lon="4.55643">
        <ele>581.73</ele>
        <time>2021-06-26T12:09:58Z</time>
      </trkpt>
      <trkpt lat="45.98583" lon="4.55631">
        <ele>579.33</ele>
        <time>2021-06-26T12:10:13Z</time>
      </trkpt>
      <trkpt lat="45.98582" lon="4.55622">
        <ele>578.37</ele>
        <time>2021-06-26T12:10:43Z</time>
      </trkpt>
      <trkpt lat="45.9858" lon="4.55613">
        <ele>576.45</ele>
        <time>2021-06-26T12:10:57Z</time>
      </trkpt>
      <trkpt lat="45.98581" lon="4.556">
        <ele>574.53</ele>
        <time>2021-06-26T12:11:12Z</time>
      </trkpt>
      <trkpt lat="45.98579" lon="4.55588">
        <ele>572.12</ele>
        <time>2021-06-26T12:11:27Z</time>
      </trkpt>
      <trkpt lat="45.98575" lon="4.55576">
        <ele>570.2</ele>
        <time>2021-06-26T12:11:40Z</time>
      </trkpt>
      <trkpt lat="45.98572" lon="4.5557">
        <ele>568.28</ele>
        <time>2021-06-26T12:11:51Z</time>
      </trkpt>
      <trkpt lat="45.98568" lon="4.5556">
        <ele>566.35</ele>
        <time>2021-06-26T12:12:05Z</time>
      </trkpt>
      <trkpt lat="45.98564" lon="4.55545">
        <ele>564.43</ele>
        <time>2021-06-26T12:12:21Z</time>
      </trkpt>
      <trkpt lat="45.98561" lon="4.55536">
        <ele>562.99</ele>
        <time>2021-06-26T12:12:33Z</time>
      </trkpt>
      <trkpt lat="45.98557" lon="4.55524">
        <ele>561.07</ele>
        <time>2021-06-26T12:12:47Z</time>
      </trkpt>
      <trkpt lat="45.98553" lon="4.55514">
        <ele>560.11</ele>
        <time>2021-06-26T12:12:59Z</time>
      </trkpt>
      <trkpt lat="45.98547" lon="4.55502">
        <ele>558.66</ele>
        <time>2021-06-26T12:13:12Z</time>
      </trkpt>
      <trkpt lat="45.98547" lon="4.55499">
        <ele>558.18</ele>
        <time>2021-06-26T12:13:15Z</time>
      </trkpt>
      <trkpt lat="45.98544" lon="4.55486">
        <ele>556.74</ele>
        <time>2021-06-26T12:13:28Z</time>
      </trkpt>
      <trkpt lat="45.9854" lon="4.55473">
        <ele>554.82</ele>
        <time>2021-06-26T12:13:42Z</time>
      </trkpt>
      <trkpt lat="45.98539" lon="4.55458">
        <ele>553.38</ele>
        <time>2021-06-26T12:13:56Z</time>
      </trkpt>
      <trkpt lat="45.98539" lon="4.55443">
        <ele>551.45</ele>
        <time>2021-06-26T12:14:08Z</time>
      </trkpt>
      <trkpt lat="45.98538" lon="4.55435">
        <ele>550.01</ele>
        <time>2021-06-26T12:14:21Z</time>
      </trkpt>
      <trkpt lat="45.98534" lon="4.55427">
        <ele>549.05</ele>
        <time>2021-06-26T12:14:34Z</time>
      </trkpt>
      <trkpt lat="45.98528" lon="4.5542">
        <ele>547.13</ele>
        <time>2021-06-26T12:14:48Z</time>
      </trkpt>
      <trkpt lat="45.98523" lon="4.55415">
        <ele>546.17</ele>
        <time>2021-06-26T12:15:00Z</time>
      </trkpt>
      <trkpt lat="45.98522" lon="4.55411">
        <ele>544.24</ele>
        <time>2021-06-26T12:15:16Z</time>
      </trkpt>
      <trkpt lat="45.98513" lon="4.55404">
        <ele>542.32</ele>
        <time>2021-06-26T12:15:30Z</time>
      </trkpt>
      <trkpt lat="45.98505" lon="4.55391">
        <ele>540.4</ele>
        <time>2021-06-26T12:15:44Z</time>
      </trkpt>
      <trkpt lat="45.98498" lon="4.55384">
        <ele>538.96</ele>
        <time>2021-06-26T12:15:59Z</time>
      </trkpt>
      <trkpt lat="45.98486" lon="4.55367">
        <ele>537.51</ele>
        <time>2021-06-26T12:16:12Z</time>
      </trkpt>
      <trkpt lat="45.98486" lon="4.55352">
        <ele>535.59</ele>
        <time>2021-06-26T12:16:25Z</time>
      </trkpt>
      <trkpt lat="45.98491" lon="4.5534">
        <ele>534.63</ele>
        <time>2021-06-26T12:16:37Z</time>
      </trkpt>
      <trkpt lat="45.985" lon="4.55328">
        <ele>533.19</ele>
        <time>2021-06-26T12:16:51Z</time>
      </trkpt>
      <trkpt lat="45.98508" lon="4.55322">
        <ele>531.75</ele>
        <time>2021-06-26T12:17:04Z</time>
      </trkpt>
      <trkpt lat="45.98515" lon="4.55316">
        <ele>530.3</ele>
        <time>2021-06-26T12:17:17Z</time>
      </trkpt>
      <trkpt lat="45.98522" lon="4.55309">
        <ele>527.9</ele>
        <time>2021-06-26T12:17:33Z</time>
      </trkpt>
      <trkpt lat="45.98532" lon="4.55304">
        <ele>526.46</ele>
        <time>2021-06-26T12:17:47Z</time>
      </trkpt>
      <trkpt lat="45.98542" lon="4.55303">
        <ele>524.54</ele>
        <time>2021-06-26T12:18:02Z</time>
      </trkpt>
      <trkpt lat="45.98553" lon="4.553">
        <ele>522.61</ele>
        <time>2021-06-26T12:18:17Z</time>
      </trkpt>
      <trkpt lat="45.98564" lon="4.55298">
        <ele>520.69</ele>
        <time>2021-06-26T12:18:35Z</time>
      </trkpt>
      <trkpt lat="45.98573" lon="4.55301">
        <ele>519.25</ele>
        <time>2021-06-26T12:18:50Z</time>
      </trkpt>
      <trkpt lat="45.9858" lon="4.55305">
        <ele>517.81</ele>
        <time>2021-06-26T12:19:05Z</time>
      </trkpt>
      <trkpt lat="45.98586" lon="4.55308">
        <ele>515.88</ele>
        <time>2021-06-26T12:19:18Z</time>
      </trkpt>
      <trkpt lat="45.98593" lon="4.55315">
        <ele>513.96</ele>
        <time>2021-06-26T12:19:32Z</time>
      </trkpt>
      <trkpt lat="45.98601" lon="4.55324">
        <ele>513</ele>
        <time>2021-06-26T12:19:48Z</time>
      </trkpt>
      <trkpt lat="45.98604" lon="4.55326">
        <ele>512.04</ele>
        <time>2021-06-26T12:20:01Z</time>
      </trkpt>
      <trkpt lat="45.98608" lon="4.55344">
        <ele>512.52</ele>
        <time>2021-06-26T12:20:18Z</time>
      </trkpt>
      <trkpt lat="45.98613" lon="4.5534">
        <ele>512.52</ele>
        <time>2021-06-26T12:20:33Z</time>
      </trkpt>
      <trkpt lat="45.98615" lon="4.55339">
        <ele>512.52</ele>
        <time>2021-06-26T12:20:46Z</time>
      </trkpt>
      <trkpt lat="45.98614" lon="4.55331">
        <ele>511.56</ele>
        <time>2021-06-26T12:20:58Z</time>
      </trkpt>
      <trkpt lat="45.98614" lon="4.55326">
        <ele>510.6</ele>
        <time>2021-06-26T12:21:04Z</time>
      </trkpt>
      <trkpt lat="45.98612" lon="4.55309">
        <ele>509.64</ele>
        <time>2021-06-26T12:21:18Z</time>
      </trkpt>
      <trkpt lat="45.98613" lon="4.55298">
        <ele>509.64</ele>
        <time>2021-06-26T12:21:30Z</time>
      </trkpt>
      <trkpt lat="45.98617" lon="4.55276">
        <ele>508.67</ele>
        <time>2021-06-26T12:21:45Z</time>
      </trkpt>
      <trkpt lat="45.98623" lon="4.55263">
        <ele>508.67</ele>
        <time>2021-06-26T12:22:00Z</time>
      </trkpt>
      <trkpt lat="45.98629" lon="4.55254">
        <ele>507.71</ele>
        <time>2021-06-26T12:22:13Z</time>
      </trkpt>
      <trkpt lat="45.98635" lon="4.55249">
        <ele>506.75</ele>
        <time>2021-06-26T12:22:24Z</time>
      </trkpt>
      <trkpt lat="45.98643" lon="4.55237">
        <ele>506.75</ele>
        <time>2021-06-26T12:22:37Z</time>
      </trkpt>
      <trkpt lat="45.98653" lon="4.55223">
        <ele>506.75</ele>
        <time>2021-06-26T12:22:53Z</time>
      </trkpt>
      <trkpt lat="45.98659" lon="4.55211">
        <ele>505.79</ele>
        <time>2021-06-26T12:23:06Z</time>
      </trkpt>
      <trkpt lat="45.98665" lon="4.55198">
        <ele>504.35</ele>
        <time>2021-06-26T12:23:21Z</time>
      </trkpt>
      <trkpt lat="45.98665" lon="4.55184">
        <ele>504.83</ele>
        <time>2021-06-26T12:23:37Z</time>
      </trkpt>
      <trkpt lat="45.98667" lon="4.5516">
        <ele>506.27</ele>
        <time>2021-06-26T12:23:59Z</time>
      </trkpt>
      <trkpt lat="45.98667" lon="4.55147">
        <ele>506.27</ele>
        <time>2021-06-26T12:24:26Z</time>
      </trkpt>
      <trkpt lat="45.98667" lon="4.55148">
        <ele>507.23</ele>
        <time>2021-06-26T12:24:58Z</time>
      </trkpt>
      <trkpt lat="45.98674" lon="4.55168">
        <ele>508.67</ele>
        <time>2021-06-26T12:25:24Z</time>
      </trkpt>
      <trkpt lat="45.98669" lon="4.55162">
        <ele>509.16</ele>
        <time>2021-06-26T12:25:57Z</time>
      </trkpt>
      <trkpt lat="45.98668" lon="4.55161">
        <ele>510.12</ele>
        <time>2021-06-26T12:26:20Z</time>
      </trkpt>
      <trkpt lat="45.98674" lon="4.55158">
        <ele>510.6</ele>
        <time>2021-06-26T12:26:33Z</time>
      </trkpt>
      <trkpt lat="45.98686" lon="4.55155">
        <ele>512.04</ele>
        <time>2021-06-26T12:26:49Z</time>
      </trkpt>
      <trkpt lat="45.98695" lon="4.55154">
        <ele>512.52</ele>
        <time>2021-06-26T12:27:03Z</time>
      </trkpt>
      <trkpt lat="45.98702" lon="4.55145">
        <ele>513.96</ele>
        <time>2021-06-26T12:27:17Z</time>
      </trkpt>
      <trkpt lat="45.98704" lon="4.55142">
        <ele>515.88</ele>
        <time>2021-06-26T12:27:32Z</time>
      </trkpt>
      <trkpt lat="45.98716" lon="4.55138">
        <ele>517.33</ele>
        <time>2021-06-26T12:27:47Z</time>
      </trkpt>
      <trkpt lat="45.98725" lon="4.55134">
        <ele>518.29</ele>
        <time>2021-06-26T12:28:02Z</time>
      </trkpt>
      <trkpt lat="45.98735" lon="4.55127">
        <ele>519.25</ele>
        <time>2021-06-26T12:28:19Z</time>
      </trkpt>
      <trkpt lat="45.98744" lon="4.55121">
        <ele>520.69</ele>
        <time>2021-06-26T12:28:35Z</time>
      </trkpt>
      <trkpt lat="45.9875" lon="4.55113">
        <ele>522.61</ele>
        <time>2021-06-26T12:28:49Z</time>
      </trkpt>
      <trkpt lat="45.98752" lon="4.55117">
        <ele>523.58</ele>
        <time>2021-06-26T12:29:07Z</time>
      </trkpt>
      <trkpt lat="45.98757" lon="4.5511">
        <ele>525.02</ele>
        <time>2021-06-26T12:29:20Z</time>
      </trkpt>
      <trkpt lat="45.98764" lon="4.55103">
        <ele>526.46</ele>
        <time>2021-06-26T12:29:35Z</time>
      </trkpt>
      <trkpt lat="45.98767" lon="4.55103">
        <ele>528.38</ele>
        <time>2021-06-26T12:29:49Z</time>
      </trkpt>
      <trkpt lat="45.9878" lon="4.55095">
        <ele>529.82</ele>
        <time>2021-06-26T12:30:06Z</time>
      </trkpt>
      <trkpt lat="45.98794" lon="4.55082">
        <ele>530.79</ele>
        <time>2021-06-26T12:30:22Z</time>
      </trkpt>
      <trkpt lat="45.98805" lon="4.55079">
        <ele>532.23</ele>
        <time>2021-06-26T12:30:38Z</time>
      </trkpt>
      <trkpt lat="45.98816" lon="4.55072">
        <ele>533.19</ele>
        <time>2021-06-26T12:30:54Z</time>
      </trkpt>
      <trkpt lat="45.98827" lon="4.55058">
        <ele>534.15</ele>
        <time>2021-06-26T12:31:09Z</time>
      </trkpt>
      <trkpt lat="45.98836" lon="4.55056">
        <ele>535.11</ele>
        <time>2021-06-26T12:31:22Z</time>
      </trkpt>
      <trkpt lat="45.98843" lon="4.55048">
        <ele>536.07</ele>
        <time>2021-06-26T12:31:36Z</time>
      </trkpt>
      <trkpt lat="45.98853" lon="4.5505">
        <ele>537.51</ele>
        <time>2021-06-26T12:31:49Z</time>
      </trkpt>
      <trkpt lat="45.98863" lon="4.55051">
        <ele>538.96</ele>
        <time>2021-06-26T12:32:04Z</time>
      </trkpt>
      <trkpt lat="45.98877" lon="4.55044">
        <ele>539.92</ele>
        <time>2021-06-26T12:32:18Z</time>
      </trkpt>
      <trkpt lat="45.98887" lon="4.55043">
        <ele>540.88</ele>
        <time>2021-06-26T12:32:32Z</time>
      </trkpt>
      <trkpt lat="45.98892" lon="4.55036">
        <ele>543.28</ele>
        <time>2021-06-26T12:32:49Z</time>
      </trkpt>
      <trkpt lat="45.98895" lon="4.55033">
        <ele>544.72</ele>
        <time>2021-06-26T12:33:02Z</time>
      </trkpt>
      <trkpt lat="45.989" lon="4.55024">
        <ele>546.17</ele>
        <time>2021-06-26T12:33:18Z</time>
      </trkpt>
      <trkpt lat="45.98906" lon="4.55012">
        <ele>547.61</ele>
        <time>2021-06-26T12:33:34Z</time>
      </trkpt>
      <trkpt lat="45.98912" lon="4.55007">
        <ele>548.57</ele>
        <time>2021-06-26T12:33:53Z</time>
      </trkpt>
      <trkpt lat="45.98915" lon="4.54997">
        <ele>550.01</ele>
        <time>2021-06-26T12:34:08Z</time>
      </trkpt>
      <trkpt lat="45.9892" lon="4.54992">
        <ele>550.01</ele>
        <time>2021-06-26T12:34:26Z</time>
      </trkpt>
      <trkpt lat="45.98925" lon="4.5499">
        <ele>550.01</ele>
        <time>2021-06-26T12:34:39Z</time>
      </trkpt>
      <trkpt lat="45.98931" lon="4.54987">
        <ele>550.01</ele>
        <time>2021-06-26T12:34:52Z</time>
      </trkpt>
      <trkpt lat="45.98935" lon="4.54985">
        <ele>550.49</ele>
        <time>2021-06-26T12:35:07Z</time>
      </trkpt>
      <trkpt lat="45.98938" lon="4.54994">
        <ele>550.97</ele>
        <time>2021-06-26T12:35:20Z</time>
      </trkpt>
      <trkpt lat="45.98935" lon="4.54995">
        <ele>551.45</ele>
        <time>2021-06-26T12:35:35Z</time>
      </trkpt>
      <trkpt lat="45.98933" lon="4.54995">
        <ele>551.93</ele>
        <time>2021-06-26T12:35:51Z</time>
      </trkpt>
      <trkpt lat="45.98935" lon="4.54997">
        <ele>552.41</ele>
        <time>2021-06-26T12:36:06Z</time>
      </trkpt>
      <trkpt lat="45.98934" lon="4.55005">
        <ele>553.86</ele>
        <time>2021-06-26T12:36:21Z</time>
      </trkpt>
      <trkpt lat="45.98934" lon="4.5501">
        <ele>554.82</ele>
        <time>2021-06-26T12:36:35Z</time>
      </trkpt>
      <trkpt lat="45.9894" lon="4.55021">
        <ele>555.3</ele>
        <time>2021-06-26T12:36:49Z</time>
      </trkpt>
      <trkpt lat="45.9894" lon="4.55032">
        <ele>554.82</ele>
        <time>2021-06-26T12:37:04Z</time>
      </trkpt>
      <trkpt lat="45.98948" lon="4.55032">
        <ele>554.82</ele>
        <time>2021-06-26T12:37:25Z</time>
      </trkpt>
      <trkpt lat="45.98943" lon="4.55032">
        <ele>555.78</ele>
        <time>2021-06-26T12:37:39Z</time>
      </trkpt>
      <trkpt lat="45.98944" lon="4.55033">
        <ele>546.65</ele>
        <time>2021-06-26T12:37:41Z</time>
      </trkpt>
      <trkpt lat="45.98944" lon="4.55033">
        <ele>546.65</ele>
        <time>2021-06-26T12:37:42Z</time>
      </trkpt>
      <trkpt lat="45.98944" lon="4.55033">
        <ele>552.9</ele>
        <time>2021-06-26T12:37:43Z</time>
      </trkpt>
      <trkpt lat="45.98945" lon="4.55032">
        <ele>556.74</ele>
        <time>2021-06-26T12:37:44Z</time>
      </trkpt>
      <trkpt lat="45.98945" lon="4.55032">
        <ele>558.66</ele>
        <time>2021-06-26T12:37:45Z</time>
      </trkpt>
      <trkpt lat="45.98945" lon="4.55032">
        <ele>547.61</ele>
        <time>2021-06-26T12:37:46Z</time>
      </trkpt>
      <trkpt lat="45.98945" lon="4.55031">
        <ele>553.38</ele>
        <time>2021-06-26T12:37:47Z</time>
      </trkpt>
      <trkpt lat="45.98946" lon="4.55033">
        <ele>555.78</ele>
        <time>2021-06-26T12:37:48Z</time>
      </trkpt>
      <trkpt lat="45.98951" lon="4.5504">
        <ele>555.3</ele>
        <time>2021-06-26T12:38:08Z</time>
      </trkpt>
      <trkpt lat="45.9895" lon="4.55039">
        <ele>554.34</ele>
        <time>2021-06-26T12:38:15Z</time>
      </trkpt>
      <trkpt lat="45.98958" lon="4.55044">
        <ele>554.82</ele>
        <time>2021-06-26T12:38:41Z</time>
      </trkpt>
      <trkpt lat="45.98964" lon="4.55038">
        <ele>555.3</ele>
        <time>2021-06-26T12:39:09Z</time>
      </trkpt>
      <trkpt lat="45.98961" lon="4.55043">
        <ele>554.82</ele>
        <time>2021-06-26T12:39:41Z</time>
      </trkpt>
      <trkpt lat="45.98966" lon="4.55041">
        <ele>546.65</ele>
        <time>2021-06-26T12:40:11Z</time>
      </trkpt>
      <trkpt lat="45.98966" lon="4.55041">
        <ele>546.65</ele>
        <time>2021-06-26T12:40:12Z</time>
      </trkpt>
      <trkpt lat="45.98966" lon="4.55041">
        <ele>554.34</ele>
        <time>2021-06-26T12:40:17Z</time>
      </trkpt>
      <trkpt lat="45.98966" lon="4.55041">
        <ele>554.34</ele>
        <time>2021-06-26T12:40:18Z</time>
      </trkpt>
      <trkpt lat="45.98971" lon="4.55038">
        <ele>554.34</ele>
        <time>2021-06-26T12:40:48Z</time>
      </trkpt>
      <trkpt lat="45.9898" lon="4.55036">
        <ele>553.86</ele>
        <time>2021-06-26T12:41:14Z</time>
      </trkpt>
      <trkpt lat="45.98973" lon="4.55036">
        <ele>554.34</ele>
        <time>2021-06-26T12:41:43Z</time>
      </trkpt>
      <trkpt lat="45.9897" lon="4.55041">
        <ele>553.38</ele>
        <time>2021-06-26T12:42:07Z</time>
      </trkpt>
      <trkpt lat="45.98975" lon="4.55043">
        <ele>553.38</ele>
        <time>2021-06-26T12:42:40Z</time>
      </trkpt>
      <trkpt lat="45.98989" lon="4.55029">
        <ele>552.9</ele>
        <time>2021-06-26T12:43:07Z</time>
      </trkpt>
      <trkpt lat="45.98957" lon="4.55048">
        <ele>545.69</ele>
        <time>2021-06-26T12:47:45Z</time>
      </trkpt>
      <trkpt lat="45.98955" lon="4.5505">
        <ele>552.41</ele>
        <time>2021-06-26T12:48:00Z</time>
      </trkpt>
      <trkpt lat="45.98961" lon="4.55046">
        <ele>551.93</ele>
        <time>2021-06-26T12:48:33Z</time>
      </trkpt>
      <trkpt lat="45.98959" lon="4.55045">
        <ele>548.09</ele>
        <time>2021-06-26T12:49:06Z</time>
      </trkpt>
      <trkpt lat="45.98959" lon="4.55046">
        <ele>551.93</ele>
        <time>2021-06-26T12:49:07Z</time>
      </trkpt>
      <trkpt lat="45.9896" lon="4.55049">
        <ele>552.41</ele>
        <time>2021-06-26T12:49:21Z</time>
      </trkpt>
      <trkpt lat="45.98955" lon="4.55047">
        <ele>552.41</ele>
        <time>2021-06-26T12:49:34Z</time>
      </trkpt>
      <trkpt lat="45.98953" lon="4.55046">
        <ele>550.49</ele>
        <time>2021-06-26T12:49:39Z</time>
      </trkpt>
      <trkpt lat="45.98948" lon="4.55037">
        <ele>551.93</ele>
        <time>2021-06-26T12:49:52Z</time>
      </trkpt>
      <trkpt lat="45.98946" lon="4.55031">
        <ele>550.97</ele>
        <time>2021-06-26T12:50:08Z</time>
      </trkpt>
      <trkpt lat="45.98942" lon="4.55024">
        <ele>549.53</ele>
        <time>2021-06-26T12:50:24Z</time>
      </trkpt>
      <trkpt lat="45.9894" lon="4.55007">
        <ele>548.09</ele>
        <time>2021-06-26T12:50:40Z</time>
      </trkpt>
      <trkpt lat="45.98939" lon="4.55004">
        <ele>547.61</ele>
        <time>2021-06-26T12:50:55Z</time>
      </trkpt>
      <trkpt lat="45.98938" lon="4.55004">
        <ele>547.61</ele>
        <time>2021-06-26T12:51:08Z</time>
      </trkpt>
      <trkpt lat="45.98938" lon="4.55004">
        <ele>548.09</ele>
        <time>2021-06-26T12:51:20Z</time>
      </trkpt>
      <trkpt lat="45.98937" lon="4.55003">
        <ele>548.57</ele>
        <time>2021-06-26T12:51:39Z</time>
      </trkpt>
      <trkpt lat="45.9893" lon="4.55006">
        <ele>550.01</ele>
        <time>2021-06-26T12:51:59Z</time>
      </trkpt>
      <trkpt lat="45.98923" lon="4.55008">
        <ele>551.45</ele>
        <time>2021-06-26T12:52:15Z</time>
      </trkpt>
      <trkpt lat="45.9892" lon="4.5501">
        <ele>552.41</ele>
        <time>2021-06-26T12:52:28Z</time>
      </trkpt>
      <trkpt lat="45.98911" lon="4.55012">
        <ele>553.86</ele>
        <time>2021-06-26T12:52:44Z</time>
      </trkpt>
      <trkpt lat="45.98891" lon="4.55005">
        <ele>554.34</ele>
        <time>2021-06-26T12:52:58Z</time>
      </trkpt>
      <trkpt lat="45.98884" lon="4.55007">
        <ele>554.82</ele>
        <time>2021-06-26T12:53:13Z</time>
      </trkpt>
      <trkpt lat="45.98872" lon="4.55006">
        <ele>555.78</ele>
        <time>2021-06-26T12:53:29Z</time>
      </trkpt>
      <trkpt lat="45.98865" lon="4.55002">
        <ele>556.74</ele>
        <time>2021-06-26T12:53:42Z</time>
      </trkpt>
      <trkpt lat="45.98855" lon="4.55001">
        <ele>557.7</ele>
        <time>2021-06-26T12:53:57Z</time>
      </trkpt>
      <trkpt lat="45.98849" lon="4.54998">
        <ele>558.66</ele>
        <time>2021-06-26T12:54:11Z</time>
      </trkpt>
      <trkpt lat="45.98837" lon="4.54996">
        <ele>560.59</ele>
        <time>2021-06-26T12:54:29Z</time>
      </trkpt>
      <trkpt lat="45.9883" lon="4.54992">
        <ele>562.03</ele>
        <time>2021-06-26T12:54:46Z</time>
      </trkpt>
      <trkpt lat="45.98822" lon="4.54992">
        <ele>563.47</ele>
        <time>2021-06-26T12:55:01Z</time>
      </trkpt>
      <trkpt lat="45.98817" lon="4.54994">
        <ele>564.43</ele>
        <time>2021-06-26T12:55:14Z</time>
      </trkpt>
      <trkpt lat="45.98809" lon="4.54993">
        <ele>565.87</ele>
        <time>2021-06-26T12:55:28Z</time>
      </trkpt>
      <trkpt lat="45.98805" lon="4.54989">
        <ele>567.8</ele>
        <time>2021-06-26T12:55:44Z</time>
      </trkpt>
      <trkpt lat="45.98801" lon="4.54988">
        <ele>569.24</ele>
        <time>2021-06-26T12:55:58Z</time>
      </trkpt>
      <trkpt lat="45.98795" lon="4.54985">
        <ele>570.68</ele>
        <time>2021-06-26T12:56:14Z</time>
      </trkpt>
      <trkpt lat="45.98788" lon="4.54989">
        <ele>572.12</ele>
        <time>2021-06-26T12:56:29Z</time>
      </trkpt>
      <trkpt lat="45.98781" lon="4.54987">
        <ele>573.56</ele>
        <time>2021-06-26T12:56:43Z</time>
      </trkpt>
      <trkpt lat="45.98772" lon="4.5499">
        <ele>574.04</ele>
        <time>2021-06-26T12:57:02Z</time>
      </trkpt>
      <trkpt lat="45.98769" lon="4.54986">
        <ele>575.49</ele>
        <time>2021-06-26T12:57:17Z</time>
      </trkpt>
      <trkpt lat="45.98763" lon="4.54983">
        <ele>576.45</ele>
        <time>2021-06-26T12:57:31Z</time>
      </trkpt>
      <trkpt lat="45.98756" lon="4.54977">
        <ele>578.37</ele>
        <time>2021-06-26T12:57:46Z</time>
      </trkpt>
      <trkpt lat="45.98751" lon="4.54972">
        <ele>579.33</ele>
        <time>2021-06-26T12:57:59Z</time>
      </trkpt>
      <trkpt lat="45.98747" lon="4.54965">
        <ele>580.29</ele>
        <time>2021-06-26T12:58:17Z</time>
      </trkpt>
      <trkpt lat="45.98742" lon="4.54958">
        <ele>582.22</ele>
        <time>2021-06-26T12:58:31Z</time>
      </trkpt>
      <trkpt lat="45.9874" lon="4.54956">
        <ele>582.22</ele>
        <time>2021-06-26T12:58:50Z</time>
      </trkpt>
      <trkpt lat="45.98737" lon="4.54943">
        <ele>584.14</ele>
        <time>2021-06-26T12:59:06Z</time>
      </trkpt>
      <trkpt lat="45.98734" lon="4.54931">
        <ele>585.58</ele>
        <time>2021-06-26T12:59:21Z</time>
      </trkpt>
      <trkpt lat="45.9873" lon="4.5492">
        <ele>587.02</ele>
        <time>2021-06-26T12:59:37Z</time>
      </trkpt>
      <trkpt lat="45.98728" lon="4.54909">
        <ele>588.46</ele>
        <time>2021-06-26T12:59:53Z</time>
      </trkpt>
      <trkpt lat="45.98729" lon="4.54902">
        <ele>589.43</ele>
        <time>2021-06-26T13:00:08Z</time>
      </trkpt>
      <trkpt lat="45.98727" lon="4.54894">
        <ele>590.87</ele>
        <time>2021-06-26T13:00:26Z</time>
      </trkpt>
      <trkpt lat="45.98734" lon="4.54892">
        <ele>590.87</ele>
        <time>2021-06-26T13:00:40Z</time>
      </trkpt>
      <trkpt lat="45.98734" lon="4.5489">
        <ele>590.39</ele>
        <time>2021-06-26T13:00:57Z</time>
      </trkpt>
      <trkpt lat="45.98733" lon="4.54885">
        <ele>590.87</ele>
        <time>2021-06-26T13:01:18Z</time>
      </trkpt>
      <trkpt lat="45.98726" lon="4.54871">
        <ele>591.35</ele>
        <time>2021-06-26T13:01:33Z</time>
      </trkpt>
      <trkpt lat="45.9873" lon="4.54871">
        <ele>591.35</ele>
        <time>2021-06-26T13:01:47Z</time>
      </trkpt>
      <trkpt lat="45.98727" lon="4.5487">
        <ele>591.83</ele>
        <time>2021-06-26T13:02:01Z</time>
      </trkpt>
      <trkpt lat="45.98718" lon="4.54858">
        <ele>592.79</ele>
        <time>2021-06-26T13:02:16Z</time>
      </trkpt>
      <trkpt lat="45.98714" lon="4.54845">
        <ele>593.27</ele>
        <time>2021-06-26T13:02:31Z</time>
      </trkpt>
      <trkpt lat="45.9871" lon="4.54835">
        <ele>594.23</ele>
        <time>2021-06-26T13:02:44Z</time>
      </trkpt>
      <trkpt lat="45.98706" lon="4.5482">
        <ele>595.19</ele>
        <time>2021-06-26T13:03:00Z</time>
      </trkpt>
      <trkpt lat="45.98703" lon="4.54807">
        <ele>596.15</ele>
        <time>2021-06-26T13:03:14Z</time>
      </trkpt>
      <trkpt lat="45.98701" lon="4.54797">
        <ele>597.12</ele>
        <time>2021-06-26T13:03:26Z</time>
      </trkpt>
      <trkpt lat="45.987" lon="4.54788">
        <ele>598.08</ele>
        <time>2021-06-26T13:03:40Z</time>
      </trkpt>
      <trkpt lat="45.98699" lon="4.5478">
        <ele>599.04</ele>
        <time>2021-06-26T13:03:53Z</time>
      </trkpt>
      <trkpt lat="45.98695" lon="4.54771">
        <ele>600.48</ele>
        <time>2021-06-26T13:04:06Z</time>
      </trkpt>
      <trkpt lat="45.98693" lon="4.54764">
        <ele>601.44</ele>
        <time>2021-06-26T13:04:21Z</time>
      </trkpt>
      <trkpt lat="45.98685" lon="4.54765">
        <ele>602.88</ele>
        <time>2021-06-26T13:04:38Z</time>
      </trkpt>
      <trkpt lat="45.98676" lon="4.54765">
        <ele>603.85</ele>
        <time>2021-06-26T13:04:54Z</time>
      </trkpt>
      <trkpt lat="45.98669" lon="4.54765">
        <ele>604.33</ele>
        <time>2021-06-26T13:05:10Z</time>
      </trkpt>
      <trkpt lat="45.98662" lon="4.54761">
        <ele>605.29</ele>
        <time>2021-06-26T13:05:22Z</time>
      </trkpt>
      <trkpt lat="45.98659" lon="4.54764">
        <ele>605.77</ele>
        <time>2021-06-26T13:05:38Z</time>
      </trkpt>
      <trkpt lat="45.98656" lon="4.54764">
        <ele>605.77</ele>
        <time>2021-06-26T13:05:47Z</time>
      </trkpt>
      <trkpt lat="45.98652" lon="4.54754">
        <ele>606.73</ele>
        <time>2021-06-26T13:05:59Z</time>
      </trkpt>
      <trkpt lat="45.9865" lon="4.54754">
        <ele>606.25</ele>
        <time>2021-06-26T13:06:17Z</time>
      </trkpt>
      <trkpt lat="45.98649" lon="4.54764">
        <ele>606.73</ele>
        <time>2021-06-26T13:06:32Z</time>
      </trkpt>
      <trkpt lat="45.98653" lon="4.54762">
        <ele>605.77</ele>
        <time>2021-06-26T13:06:46Z</time>
      </trkpt>
      <trkpt lat="45.98653" lon="4.54755">
        <ele>605.77</ele>
        <time>2021-06-26T13:07:15Z</time>
      </trkpt>
      <trkpt lat="45.98653" lon="4.54758">
        <ele>605.29</ele>
        <time>2021-06-26T13:07:44Z</time>
      </trkpt>
      <trkpt lat="45.98651" lon="4.54751">
        <ele>605.29</ele>
        <time>2021-06-26T13:08:03Z</time>
      </trkpt>
      <trkpt lat="45.9865" lon="4.54748">
        <ele>605.29</ele>
        <time>2021-06-26T13:08:21Z</time>
      </trkpt>
      <trkpt lat="45.9865" lon="4.54747">
        <ele>605.29</ele>
        <time>2021-06-26T13:08:24Z</time>
      </trkpt>
      <trkpt lat="45.98667" lon="4.5475">
        <ele>605.29</ele>
        <time>2021-06-26T13:08:53Z</time>
      </trkpt>
      <trkpt lat="45.98671" lon="4.54744">
        <ele>604.81</ele>
        <time>2021-06-26T13:09:21Z</time>
      </trkpt>
      <trkpt lat="45.98674" lon="4.54747">
        <ele>604.81</ele>
        <time>2021-06-26T13:09:46Z</time>
      </trkpt>
      <trkpt lat="45.98666" lon="4.54756">
        <ele>604.81</ele>
        <time>2021-06-26T13:10:16Z</time>
      </trkpt>
      <trkpt lat="45.98667" lon="4.54757">
        <ele>604.81</ele>
        <time>2021-06-26T13:10:43Z</time>
      </trkpt>
      <trkpt lat="45.9866" lon="4.54764">
        <ele>604.81</ele>
        <time>2021-06-26T13:11:07Z</time>
      </trkpt>
      <trkpt lat="45.9866" lon="4.54756">
        <ele>604.81</ele>
        <time>2021-06-26T13:11:33Z</time>
      </trkpt>
      <trkpt lat="45.9866" lon="4.54761">
        <ele>604.81</ele>
        <time>2021-06-26T13:12:01Z</time>
      </trkpt>
      <trkpt lat="45.9868" lon="4.5476">
        <ele>604.81</ele>
        <time>2021-06-26T13:12:19Z</time>
      </trkpt>
      <trkpt lat="45.98707" lon="4.54745">
        <ele>604.81</ele>
        <time>2021-06-26T13:12:44Z</time>
      </trkpt>
      <trkpt lat="45.98712" lon="4.54744">
        <ele>604.81</ele>
        <time>2021-06-26T13:13:11Z</time>
      </trkpt>
      <trkpt lat="45.98656" lon="4.54754">
        <ele>604.81</ele>
        <time>2021-06-26T13:17:39Z</time>
      </trkpt>
      <trkpt lat="45.98659" lon="4.54753">
        <ele>604.81</ele>
        <time>2021-06-26T13:18:12Z</time>
      </trkpt>
      <trkpt lat="45.98661" lon="4.54753">
        <ele>606.25</ele>
        <time>2021-06-26T13:18:17Z</time>
      </trkpt>
      <trkpt lat="45.98648" lon="4.54743">
        <ele>607.21</ele>
        <time>2021-06-26T13:18:45Z</time>
      </trkpt>
      <trkpt lat="45.98639" lon="4.54744">
        <ele>607.21</ele>
        <time>2021-06-26T13:19:12Z</time>
      </trkpt>
      <trkpt lat="45.98642" lon="4.54749">
        <ele>607.21</ele>
        <time>2021-06-26T13:19:38Z</time>
      </trkpt>
      <trkpt lat="45.9867" lon="4.54738">
        <ele>607.21</ele>
        <time>2021-06-26T13:21:23Z</time>
      </trkpt>
      <trkpt lat="45.98655" lon="4.54758">
        <ele>606.73</ele>
        <time>2021-06-26T13:21:54Z</time>
      </trkpt>
      <trkpt lat="45.9865" lon="4.54758">
        <ele>606.73</ele>
        <time>2021-06-26T13:22:33Z</time>
      </trkpt>
      <trkpt lat="45.98655" lon="4.54756">
        <ele>606.73</ele>
        <time>2021-06-26T13:23:17Z</time>
      </trkpt>
      <trkpt lat="45.98652" lon="4.54756">
        <ele>606.25</ele>
        <time>2021-06-26T13:23:56Z</time>
      </trkpt>
      <trkpt lat="45.9865" lon="4.54756">
        <ele>606.25</ele>
        <time>2021-06-26T13:24:36Z</time>
      </trkpt>
      <trkpt lat="45.98652" lon="4.54757">
        <ele>606.25</ele>
        <time>2021-06-26T13:25:14Z</time>
      </trkpt>
      <trkpt lat="45.98652" lon="4.54764">
        <ele>605.77</ele>
        <time>2021-06-26T13:25:53Z</time>
      </trkpt>
      <trkpt lat="45.98652" lon="4.54765">
        <ele>605.77</ele>
        <time>2021-06-26T13:26:35Z</time>
      </trkpt>
      <trkpt lat="45.98646" lon="4.54763">
        <ele>605.77</ele>
        <time>2021-06-26T13:27:15Z</time>
      </trkpt>
      <trkpt lat="45.98648" lon="4.54762">
        <ele>606.25</ele>
        <time>2021-06-26T13:27:51Z</time>
      </trkpt>
      <trkpt lat="45.98654" lon="4.54764">
        <ele>606.25</ele>
        <time>2021-06-26T13:28:20Z</time>
      </trkpt>
      <trkpt lat="45.98654" lon="4.54761">
        <ele>606.25</ele>
        <time>2021-06-26T13:28:33Z</time>
      </trkpt>
      <trkpt lat="45.98653" lon="4.54762">
        <ele>606.73</ele>
        <time>2021-06-26T13:28:50Z</time>
      </trkpt>
      <trkpt lat="45.98649" lon="4.54761">
        <ele>606.25</ele>
        <time>2021-06-26T13:29:11Z</time>
      </trkpt>
      <trkpt lat="45.98642" lon="4.54764">
        <ele>607.21</ele>
        <time>2021-06-26T13:29:27Z</time>
      </trkpt>
      <trkpt lat="45.98635" lon="4.54766">
        <ele>607.69</ele>
        <time>2021-06-26T13:29:46Z</time>
      </trkpt>
      <trkpt lat="45.98624" lon="4.54769">
        <ele>609.61</ele>
        <time>2021-06-26T13:30:02Z</time>
      </trkpt>
      <trkpt lat="45.98617" lon="4.54772">
        <ele>610.57</ele>
        <time>2021-06-26T13:30:17Z</time>
      </trkpt>
      <trkpt lat="45.9861" lon="4.54778">
        <ele>612.02</ele>
        <time>2021-06-26T13:30:32Z</time>
      </trkpt>
      <trkpt lat="45.98602" lon="4.54787">
        <ele>612.98</ele>
        <time>2021-06-26T13:30:47Z</time>
      </trkpt>
      <trkpt lat="45.98589" lon="4.54793">
        <ele>613.94</ele>
        <time>2021-06-26T13:31:02Z</time>
      </trkpt>
      <trkpt lat="45.98577" lon="4.54794">
        <ele>614.9</ele>
        <time>2021-06-26T13:31:16Z</time>
      </trkpt>
      <trkpt lat="45.98563" lon="4.54795">
        <ele>614.9</ele>
        <time>2021-06-26T13:31:31Z</time>
      </trkpt>
      <trkpt lat="45.98551" lon="4.54795">
        <ele>615.38</ele>
        <time>2021-06-26T13:31:45Z</time>
      </trkpt>
      <trkpt lat="45.98536" lon="4.54793">
        <ele>615.86</ele>
        <time>2021-06-26T13:32:00Z</time>
      </trkpt>
      <trkpt lat="45.98523" lon="4.54793">
        <ele>616.82</ele>
        <time>2021-06-26T13:32:12Z</time>
      </trkpt>
      <trkpt lat="45.98509" lon="4.54791">
        <ele>616.82</ele>
        <time>2021-06-26T13:32:25Z</time>
      </trkpt>
      <trkpt lat="45.98493" lon="4.54784">
        <ele>616.82</ele>
        <time>2021-06-26T13:32:42Z</time>
      </trkpt>
      <trkpt lat="45.98479" lon="4.54778">
        <ele>615.86</ele>
        <time>2021-06-26T13:32:56Z</time>
      </trkpt>
      <trkpt lat="45.98467" lon="4.54768">
        <ele>615.38</ele>
        <time>2021-06-26T13:33:11Z</time>
      </trkpt>
      <trkpt lat="45.98456" lon="4.54753">
        <ele>615.38</ele>
        <time>2021-06-26T13:33:25Z</time>
      </trkpt>
      <trkpt lat="45.98446" lon="4.54741">
        <ele>615.86</ele>
        <time>2021-06-26T13:33:37Z</time>
      </trkpt>
      <trkpt lat="45.98435" lon="4.54724">
        <ele>616.34</ele>
        <time>2021-06-26T13:33:54Z</time>
      </trkpt>
      <trkpt lat="45.98427" lon="4.54711">
        <ele>617.78</ele>
        <time>2021-06-26T13:34:09Z</time>
      </trkpt>
      <trkpt lat="45.98426" lon="4.54701">
        <ele>617.78</ele>
        <time>2021-06-26T13:34:23Z</time>
      </trkpt>
      <trkpt lat="45.98437" lon="4.54702">
        <ele>618.75</ele>
        <time>2021-06-26T13:34:37Z</time>
      </trkpt>
      <trkpt lat="45.98446" lon="4.54714">
        <ele>618.75</ele>
        <time>2021-06-26T13:34:55Z</time>
      </trkpt>
      <trkpt lat="45.98453" lon="4.54724">
        <ele>618.75</ele>
        <time>2021-06-26T13:35:12Z</time>
      </trkpt>
      <trkpt lat="45.98463" lon="4.54735">
        <ele>619.23</ele>
        <time>2021-06-26T13:35:29Z</time>
      </trkpt>
      <trkpt lat="45.98471" lon="4.54741">
        <ele>620.19</ele>
        <time>2021-06-26T13:35:45Z</time>
      </trkpt>
      <trkpt lat="45.98479" lon="4.54744">
        <ele>621.15</ele>
        <time>2021-06-26T13:36:01Z</time>
      </trkpt>
      <trkpt lat="45.98488" lon="4.54748">
        <ele>622.59</ele>
        <time>2021-06-26T13:36:15Z</time>
      </trkpt>
      <trkpt lat="45.98497" lon="4.54752">
        <ele>624.03</ele>
        <time>2021-06-26T13:36:30Z</time>
      </trkpt>
      <trkpt lat="45.98506" lon="4.54751">
        <ele>625.47</ele>
        <time>2021-06-26T13:36:45Z</time>
      </trkpt>
      <trkpt lat="45.9852" lon="4.54746">
        <ele>626.92</ele>
        <time>2021-06-26T13:37:04Z</time>
      </trkpt>
      <trkpt lat="45.98534" lon="4.54742">
        <ele>628.36</ele>
        <time>2021-06-26T13:37:22Z</time>
      </trkpt>
      <trkpt lat="45.98547" lon="4.54733">
        <ele>630.28</ele>
        <time>2021-06-26T13:37:40Z</time>
      </trkpt>
      <trkpt lat="45.98561" lon="4.54725">
        <ele>631.72</ele>
        <time>2021-06-26T13:37:57Z</time>
      </trkpt>
      <trkpt lat="45.98571" lon="4.54716">
        <ele>633.65</ele>
        <time>2021-06-26T13:38:13Z</time>
      </trkpt>
      <trkpt lat="45.9858" lon="4.54707">
        <ele>635.09</ele>
        <time>2021-06-26T13:38:28Z</time>
      </trkpt>
      <trkpt lat="45.98589" lon="4.54695">
        <ele>636.53</ele>
        <time>2021-06-26T13:38:45Z</time>
      </trkpt>
      <trkpt lat="45.98602" lon="4.54685">
        <ele>638.45</ele>
        <time>2021-06-26T13:39:04Z</time>
      </trkpt>
      <trkpt lat="45.9861" lon="4.5468">
        <ele>639.89</ele>
        <time>2021-06-26T13:39:19Z</time>
      </trkpt>
      <trkpt lat="45.98619" lon="4.54666">
        <ele>641.34</ele>
        <time>2021-06-26T13:39:35Z</time>
      </trkpt>
      <trkpt lat="45.98627" lon="4.54654">
        <ele>642.78</ele>
        <time>2021-06-26T13:39:51Z</time>
      </trkpt>
      <trkpt lat="45.98635" lon="4.54641">
        <ele>644.22</ele>
        <time>2021-06-26T13:40:06Z</time>
      </trkpt>
      <trkpt lat="45.98644" lon="4.54629">
        <ele>645.66</ele>
        <time>2021-06-26T13:40:22Z</time>
      </trkpt>
      <trkpt lat="45.98652" lon="4.54623">
        <ele>646.62</ele>
        <time>2021-06-26T13:40:36Z</time>
      </trkpt>
      <trkpt lat="45.98661" lon="4.54616">
        <ele>648.07</ele>
        <time>2021-06-26T13:40:51Z</time>
      </trkpt>
      <trkpt lat="45.98662" lon="4.54615">
        <ele>648.55</ele>
        <time>2021-06-26T13:40:53Z</time>
      </trkpt>
      <trkpt lat="45.98672" lon="4.54611">
        <ele>649.51</ele>
        <time>2021-06-26T13:41:08Z</time>
      </trkpt>
      <trkpt lat="45.98679" lon="4.54607">
        <ele>651.43</ele>
        <time>2021-06-26T13:41:25Z</time>
      </trkpt>
      <trkpt lat="45.98685" lon="4.54598">
        <ele>652.87</ele>
        <time>2021-06-26T13:41:42Z</time>
      </trkpt>
      <trkpt lat="45.98699" lon="4.54592">
        <ele>654.31</ele>
        <time>2021-06-26T13:41:59Z</time>
      </trkpt>
      <trkpt lat="45.98712" lon="4.54587">
        <ele>655.76</ele>
        <time>2021-06-26T13:42:16Z</time>
      </trkpt>
      <trkpt lat="45.98723" lon="4.54584">
        <ele>657.2</ele>
        <time>2021-06-26T13:42:32Z</time>
      </trkpt>
      <trkpt lat="45.98739" lon="4.54577">
        <ele>659.12</ele>
        <time>2021-06-26T13:42:49Z</time>
      </trkpt>
      <trkpt lat="45.98748" lon="4.54572">
        <ele>660.08</ele>
        <time>2021-06-26T13:43:03Z</time>
      </trkpt>
      <trkpt lat="45.98765" lon="4.54568">
        <ele>661.52</ele>
        <time>2021-06-26T13:43:19Z</time>
      </trkpt>
      <trkpt lat="45.98771" lon="4.5458">
        <ele>661.52</ele>
        <time>2021-06-26T13:43:44Z</time>
      </trkpt>
      <trkpt lat="45.98782" lon="4.54566">
        <ele>662.97</ele>
        <time>2021-06-26T13:44:01Z</time>
      </trkpt>
      <trkpt lat="45.9879" lon="4.54555">
        <ele>663.93</ele>
        <time>2021-06-26T13:44:17Z</time>
      </trkpt>
      <trkpt lat="45.98803" lon="4.54552">
        <ele>665.37</ele>
        <time>2021-06-26T13:44:35Z</time>
      </trkpt>
      <trkpt lat="45.98816" lon="4.54544">
        <ele>666.81</ele>
        <time>2021-06-26T13:44:51Z</time>
      </trkpt>
      <trkpt lat="45.98824" lon="4.54538">
        <ele>667.29</ele>
        <time>2021-06-26T13:45:06Z</time>
      </trkpt>
      <trkpt lat="45.9883" lon="4.54533">
        <ele>668.73</ele>
        <time>2021-06-26T13:45:21Z</time>
      </trkpt>
      <trkpt lat="45.98843" lon="4.54524">
        <ele>670.18</ele>
        <time>2021-06-26T13:45:39Z</time>
      </trkpt>
      <trkpt lat="45.98853" lon="4.54517">
        <ele>671.62</ele>
        <time>2021-06-26T13:45:54Z</time>
      </trkpt>
      <trkpt lat="45.98863" lon="4.54509">
        <ele>673.54</ele>
        <time>2021-06-26T13:46:10Z</time>
      </trkpt>
      <trkpt lat="45.98877" lon="4.54502">
        <ele>675.46</ele>
        <time>2021-06-26T13:46:29Z</time>
      </trkpt>
      <trkpt lat="45.98888" lon="4.54497">
        <ele>677.39</ele>
        <time>2021-06-26T13:46:45Z</time>
      </trkpt>
      <trkpt lat="45.98901" lon="4.54493">
        <ele>679.31</ele>
        <time>2021-06-26T13:47:03Z</time>
      </trkpt>
      <trkpt lat="45.98909" lon="4.5448">
        <ele>681.23</ele>
        <time>2021-06-26T13:47:21Z</time>
      </trkpt>
      <trkpt lat="45.98918" lon="4.54473">
        <ele>682.67</ele>
        <time>2021-06-26T13:47:36Z</time>
      </trkpt>
      <trkpt lat="45.9893" lon="4.54466">
        <ele>683.63</ele>
        <time>2021-06-26T13:47:52Z</time>
      </trkpt>
      <trkpt lat="45.98941" lon="4.54459">
        <ele>685.08</ele>
        <time>2021-06-26T13:48:08Z</time>
      </trkpt>
      <trkpt lat="45.98954" lon="4.54452">
        <ele>687</ele>
        <time>2021-06-26T13:48:25Z</time>
      </trkpt>
      <trkpt lat="45.98967" lon="4.54444">
        <ele>687.96</ele>
        <time>2021-06-26T13:48:41Z</time>
      </trkpt>
      <trkpt lat="45.98975" lon="4.54434">
        <ele>688.92</ele>
        <time>2021-06-26T13:48:54Z</time>
      </trkpt>
      <trkpt lat="45.98985" lon="4.54426">
        <ele>689.4</ele>
        <time>2021-06-26T13:49:12Z</time>
      </trkpt>
      <trkpt lat="45.98994" lon="4.5441">
        <ele>689.4</ele>
        <time>2021-06-26T13:49:28Z</time>
      </trkpt>
      <trkpt lat="45.99" lon="4.54398">
        <ele>689.88</ele>
        <time>2021-06-26T13:49:42Z</time>
      </trkpt>
      <trkpt lat="45.99002" lon="4.54391">
        <ele>689.88</ele>
        <time>2021-06-26T13:49:48Z</time>
      </trkpt>
      <trkpt lat="45.99006" lon="4.54385">
        <ele>689.88</ele>
        <time>2021-06-26T13:50:01Z</time>
      </trkpt>
      <trkpt lat="45.99007" lon="4.54382">
        <ele>689.88</ele>
        <time>2021-06-26T13:50:04Z</time>
      </trkpt>
      <trkpt lat="45.99008" lon="4.54377">
        <ele>689.88</ele>
        <time>2021-06-26T13:50:08Z</time>
      </trkpt>
      <trkpt lat="45.99007" lon="4.5436">
        <ele>689.88</ele>
        <time>2021-06-26T13:50:21Z</time>
      </trkpt>
      <trkpt lat="45.99009" lon="4.54357">
        <ele>689.88</ele>
        <time>2021-06-26T13:50:25Z</time>
      </trkpt>
      <trkpt lat="45.99013" lon="4.54348">
        <ele>689.88</ele>
        <time>2021-06-26T13:50:40Z</time>
      </trkpt>
      <trkpt lat="45.99013" lon="4.54346">
        <ele>689.88</ele>
        <time>2021-06-26T13:50:42Z</time>
      </trkpt>
      <trkpt lat="45.99015" lon="4.54331">
        <ele>688.92</ele>
        <time>2021-06-26T13:50:57Z</time>
      </trkpt>
      <trkpt lat="45.99015" lon="4.54315">
        <ele>687.48</ele>
        <time>2021-06-26T13:51:11Z</time>
      </trkpt>
      <trkpt lat="45.99015" lon="4.54313">
        <ele>687.48</ele>
        <time>2021-06-26T13:51:13Z</time>
      </trkpt>
      <trkpt lat="45.99021" lon="4.54297">
        <ele>685.56</ele>
        <time>2021-06-26T13:51:28Z</time>
      </trkpt>
      <trkpt lat="45.99026" lon="4.54285">
        <ele>684.12</ele>
        <time>2021-06-26T13:51:42Z</time>
      </trkpt>
      <trkpt lat="45.99029" lon="4.54275">
        <ele>682.19</ele>
        <time>2021-06-26T13:51:59Z</time>
      </trkpt>
      <trkpt lat="45.99028" lon="4.54275">
        <ele>680.27</ele>
        <time>2021-06-26T13:52:12Z</time>
      </trkpt>
      <trkpt lat="45.99026" lon="4.54275">
        <ele>679.31</ele>
        <time>2021-06-26T13:52:26Z</time>
      </trkpt>
      <trkpt lat="45.99021" lon="4.54272">
        <ele>677.87</ele>
        <time>2021-06-26T13:52:39Z</time>
      </trkpt>
      <trkpt lat="45.99016" lon="4.5427">
        <ele>675.94</ele>
        <time>2021-06-26T13:52:52Z</time>
      </trkpt>
      <trkpt lat="45.99007" lon="4.54269">
        <ele>674.98</ele>
        <time>2021-06-26T13:53:07Z</time>
      </trkpt>
      <trkpt lat="45.99" lon="4.54267">
        <ele>673.54</ele>
        <time>2021-06-26T13:53:19Z</time>
      </trkpt>
      <trkpt lat="45.98993" lon="4.54268">
        <ele>671.62</ele>
        <time>2021-06-26T13:53:34Z</time>
      </trkpt>
      <trkpt lat="45.98983" lon="4.54269">
        <ele>669.7</ele>
        <time>2021-06-26T13:53:49Z</time>
      </trkpt>
      <trkpt lat="45.98975" lon="4.54272">
        <ele>668.25</ele>
        <time>2021-06-26T13:54:03Z</time>
      </trkpt>
      <trkpt lat="45.98963" lon="4.54271">
        <ele>666.33</ele>
        <time>2021-06-26T13:54:19Z</time>
      </trkpt>
      <trkpt lat="45.98952" lon="4.54263">
        <ele>664.89</ele>
        <time>2021-06-26T13:54:35Z</time>
      </trkpt>
      <trkpt lat="45.98942" lon="4.54255">
        <ele>662.97</ele>
        <time>2021-06-26T13:54:51Z</time>
      </trkpt>
      <trkpt lat="45.98937" lon="4.54246">
        <ele>661.52</ele>
        <time>2021-06-26T13:55:07Z</time>
      </trkpt>
      <trkpt lat="45.98931" lon="4.54233">
        <ele>659.6</ele>
        <time>2021-06-26T13:55:24Z</time>
      </trkpt>
      <trkpt lat="45.98922" lon="4.54219">
        <ele>658.16</ele>
        <time>2021-06-26T13:55:39Z</time>
      </trkpt>
      <trkpt lat="45.9891" lon="4.54203">
        <ele>658.16</ele>
        <time>2021-06-26T13:55:54Z</time>
      </trkpt>
      <trkpt lat="45.98909" lon="4.54194">
        <ele>656.72</ele>
        <time>2021-06-26T13:56:12Z</time>
      </trkpt>
      <trkpt lat="45.98908" lon="4.54192">
        <ele>656.24</ele>
        <time>2021-06-26T13:56:16Z</time>
      </trkpt>
      <trkpt lat="45.989" lon="4.54177">
        <ele>654.31</ele>
        <time>2021-06-26T13:56:32Z</time>
      </trkpt>
      <trkpt lat="45.98889" lon="4.54163">
        <ele>653.35</ele>
        <time>2021-06-26T13:56:49Z</time>
      </trkpt>
      <trkpt lat="45.98877" lon="4.54154">
        <ele>652.39</ele>
        <time>2021-06-26T13:57:04Z</time>
      </trkpt>
      <trkpt lat="45.98862" lon="4.54149">
        <ele>651.91</ele>
        <time>2021-06-26T13:57:21Z</time>
      </trkpt>
      <trkpt lat="45.98849" lon="4.54146">
        <ele>651.43</ele>
        <time>2021-06-26T13:57:37Z</time>
      </trkpt>
      <trkpt lat="45.98836" lon="4.54147">
        <ele>650.95</ele>
        <time>2021-06-26T13:57:52Z</time>
      </trkpt>
      <trkpt lat="45.98822" lon="4.54145">
        <ele>650.47</ele>
        <time>2021-06-26T13:58:06Z</time>
      </trkpt>
      <trkpt lat="45.98809" lon="4.54143">
        <ele>649.03</ele>
        <time>2021-06-26T13:58:21Z</time>
      </trkpt>
      <trkpt lat="45.98794" lon="4.54135">
        <ele>647.1</ele>
        <time>2021-06-26T13:58:37Z</time>
      </trkpt>
      <trkpt lat="45.98782" lon="4.54127">
        <ele>644.7</ele>
        <time>2021-06-26T13:58:52Z</time>
      </trkpt>
      <trkpt lat="45.9877" lon="4.54115">
        <ele>642.3</ele>
        <time>2021-06-26T13:59:09Z</time>
      </trkpt>
      <trkpt lat="45.98762" lon="4.54108">
        <ele>639.89</ele>
        <time>2021-06-26T13:59:23Z</time>
      </trkpt>
      <trkpt lat="45.98752" lon="4.54103">
        <ele>637.97</ele>
        <time>2021-06-26T13:59:37Z</time>
      </trkpt>
      <trkpt lat="45.98743" lon="4.54096">
        <ele>636.05</ele>
        <time>2021-06-26T13:59:53Z</time>
      </trkpt>
      <trkpt lat="45.98734" lon="4.54085">
        <ele>633.65</ele>
        <time>2021-06-26T14:00:10Z</time>
      </trkpt>
      <trkpt lat="45.98724" lon="4.54079">
        <ele>631.72</ele>
        <time>2021-06-26T14:00:24Z</time>
      </trkpt>
      <trkpt lat="45.98716" lon="4.54072">
        <ele>630.76</ele>
        <time>2021-06-26T14:00:42Z</time>
      </trkpt>
      <trkpt lat="45.98712" lon="4.54069">
        <ele>630.28</ele>
        <time>2021-06-26T14:01:08Z</time>
      </trkpt>
      <trkpt lat="45.98698" lon="4.54058">
        <ele>627.88</ele>
        <time>2021-06-26T14:01:27Z</time>
      </trkpt>
      <trkpt lat="45.98686" lon="4.54052">
        <ele>625.96</ele>
        <time>2021-06-26T14:01:43Z</time>
      </trkpt>
      <trkpt lat="45.98675" lon="4.54044">
        <ele>623.55</ele>
        <time>2021-06-26T14:01:58Z</time>
      </trkpt>
      <trkpt lat="45.98667" lon="4.54039">
        <ele>621.15</ele>
        <time>2021-06-26T14:02:14Z</time>
      </trkpt>
      <trkpt lat="45.98653" lon="4.54033">
        <ele>618.75</ele>
        <time>2021-06-26T14:02:30Z</time>
      </trkpt>
      <trkpt lat="45.98639" lon="4.54022">
        <ele>616.34</ele>
        <time>2021-06-26T14:02:47Z</time>
      </trkpt>
      <trkpt lat="45.98626" lon="4.54018">
        <ele>614.9</ele>
        <time>2021-06-26T14:03:03Z</time>
      </trkpt>
      <trkpt lat="45.98607" lon="4.54006">
        <ele>614.9</ele>
        <time>2021-06-26T14:03:29Z</time>
      </trkpt>
      <trkpt lat="45.98598" lon="4.54002">
        <ele>614.9</ele>
        <time>2021-06-26T14:03:58Z</time>
      </trkpt>
      <trkpt lat="45.986" lon="4.53996">
        <ele>614.42</ele>
        <time>2021-06-26T14:04:17Z</time>
      </trkpt>
      <trkpt lat="45.98608" lon="4.53998">
        <ele>612.98</ele>
        <time>2021-06-26T14:04:33Z</time>
      </trkpt>
      <trkpt lat="45.98609" lon="4.53993">
        <ele>613.46</ele>
        <time>2021-06-26T14:04:47Z</time>
      </trkpt>
      <trkpt lat="45.98605" lon="4.53984">
        <ele>614.42</ele>
        <time>2021-06-26T14:05:03Z</time>
      </trkpt>
      <trkpt lat="45.98597" lon="4.53962">
        <ele>614.42</ele>
        <time>2021-06-26T14:05:18Z</time>
      </trkpt>
      <trkpt lat="45.98587" lon="4.53953">
        <ele>612.98</ele>
        <time>2021-06-26T14:05:33Z</time>
      </trkpt>
      <trkpt lat="45.98574" lon="4.53944">
        <ele>612.5</ele>
        <time>2021-06-26T14:05:49Z</time>
      </trkpt>
      <trkpt lat="45.9856" lon="4.53933">
        <ele>611.54</ele>
        <time>2021-06-26T14:06:05Z</time>
      </trkpt>
      <trkpt lat="45.98546" lon="4.5392">
        <ele>610.57</ele>
        <time>2021-06-26T14:06:23Z</time>
      </trkpt>
      <trkpt lat="45.98532" lon="4.53906">
        <ele>609.61</ele>
        <time>2021-06-26T14:06:40Z</time>
      </trkpt>
      <trkpt lat="45.98522" lon="4.53893">
        <ele>608.17</ele>
        <time>2021-06-26T14:06:54Z</time>
      </trkpt>
      <trkpt lat="45.9851" lon="4.53874">
        <ele>607.21</ele>
        <time>2021-06-26T14:07:12Z</time>
      </trkpt>
      <trkpt lat="45.98501" lon="4.53861">
        <ele>606.25</ele>
        <time>2021-06-26T14:07:26Z</time>
      </trkpt>
      <trkpt lat="45.9849" lon="4.53843">
        <ele>605.77</ele>
        <time>2021-06-26T14:07:41Z</time>
      </trkpt>
      <trkpt lat="45.98479" lon="4.53819">
        <ele>605.29</ele>
        <time>2021-06-26T14:07:58Z</time>
      </trkpt>
      <trkpt lat="45.98472" lon="4.53801">
        <ele>604.81</ele>
        <time>2021-06-26T14:08:12Z</time>
      </trkpt>
      <trkpt lat="45.98461" lon="4.53784">
        <ele>605.29</ele>
        <time>2021-06-26T14:08:28Z</time>
      </trkpt>
      <trkpt lat="45.9845" lon="4.53774">
        <ele>603.85</ele>
        <time>2021-06-26T14:08:43Z</time>
      </trkpt>
      <trkpt lat="45.98448" lon="4.53772">
        <ele>603.36</ele>
        <time>2021-06-26T14:08:46Z</time>
      </trkpt>
      <trkpt lat="45.98437" lon="4.53764">
        <ele>601.44</ele>
        <time>2021-06-26T14:09:00Z</time>
      </trkpt>
      <trkpt lat="45.98426" lon="4.53757">
        <ele>599.52</ele>
        <time>2021-06-26T14:09:17Z</time>
      </trkpt>
      <trkpt lat="45.9842" lon="4.53743">
        <ele>599.04</ele>
        <time>2021-06-26T14:09:28Z</time>
      </trkpt>
      <trkpt lat="45.9842" lon="4.53738">
        <ele>599.52</ele>
        <time>2021-06-26T14:09:36Z</time>
      </trkpt>
      <trkpt lat="45.98416" lon="4.53741">
        <ele>598.56</ele>
        <time>2021-06-26T14:09:43Z</time>
      </trkpt>
      <trkpt lat="45.98404" lon="4.53742">
        <ele>596.15</ele>
        <time>2021-06-26T14:09:59Z</time>
      </trkpt>
      <trkpt lat="45.98392" lon="4.53744">
        <ele>594.71</ele>
        <time>2021-06-26T14:10:13Z</time>
      </trkpt>
      <trkpt lat="45.98383" lon="4.53751">
        <ele>592.79</ele>
        <time>2021-06-26T14:10:27Z</time>
      </trkpt>
      <trkpt lat="45.98373" lon="4.53763">
        <ele>591.35</ele>
        <time>2021-06-26T14:10:44Z</time>
      </trkpt>
      <trkpt lat="45.98369" lon="4.53772">
        <ele>589.43</ele>
        <time>2021-06-26T14:10:57Z</time>
      </trkpt>
      <trkpt lat="45.98365" lon="4.53779">
        <ele>587.5</ele>
        <time>2021-06-26T14:11:08Z</time>
      </trkpt>
      <trkpt lat="45.98359" lon="4.53786">
        <ele>586.06</ele>
        <time>2021-06-26T14:11:23Z</time>
      </trkpt>
      <trkpt lat="45.98355" lon="4.538">
        <ele>585.58</ele>
        <time>2021-06-26T14:11:38Z</time>
      </trkpt>
      <trkpt lat="45.98352" lon="4.53806">
        <ele>584.62</ele>
        <time>2021-06-26T14:11:50Z</time>
      </trkpt>
      <trkpt lat="45.98343" lon="4.53824">
        <ele>583.18</ele>
        <time>2021-06-26T14:12:05Z</time>
      </trkpt>
      <trkpt lat="45.98331" lon="4.53837">
        <ele>582.22</ele>
        <time>2021-06-26T14:12:22Z</time>
      </trkpt>
      <trkpt lat="45.98322" lon="4.53849">
        <ele>581.25</ele>
        <time>2021-06-26T14:12:36Z</time>
      </trkpt>
      <trkpt lat="45.98316" lon="4.53852">
        <ele>581.25</ele>
        <time>2021-06-26T14:12:42Z</time>
      </trkpt>
      <trkpt lat="45.98303" lon="4.53851">
        <ele>581.25</ele>
        <time>2021-06-26T14:12:58Z</time>
      </trkpt>
      <trkpt lat="45.98296" lon="4.53853">
        <ele>580.77</ele>
        <time>2021-06-26T14:13:16Z</time>
      </trkpt>
      <trkpt lat="45.9829" lon="4.53849">
        <ele>580.77</ele>
        <time>2021-06-26T14:13:36Z</time>
      </trkpt>
      <trkpt lat="45.98292" lon="4.53847">
        <ele>580.77</ele>
        <time>2021-06-26T14:14:00Z</time>
      </trkpt>
      <trkpt lat="45.98299" lon="4.53851">
        <ele>580.29</ele>
        <time>2021-06-26T14:14:26Z</time>
      </trkpt>
      <trkpt lat="45.98292" lon="4.53856">
        <ele>581.73</ele>
        <time>2021-06-26T14:14:44Z</time>
      </trkpt>
      <trkpt lat="45.98282" lon="4.53867">
        <ele>582.7</ele>
        <time>2021-06-26T14:15:02Z</time>
      </trkpt>
      <trkpt lat="45.98269" lon="4.53866">
        <ele>583.18</ele>
        <time>2021-06-26T14:15:19Z</time>
      </trkpt>
      <trkpt lat="45.98257" lon="4.53867">
        <ele>584.62</ele>
        <time>2021-06-26T14:15:39Z</time>
      </trkpt>
      <trkpt lat="45.98247" lon="4.53869">
        <ele>585.58</ele>
        <time>2021-06-26T14:15:55Z</time>
      </trkpt>
      <trkpt lat="45.98233" lon="4.53871">
        <ele>586.54</ele>
        <time>2021-06-26T14:16:12Z</time>
      </trkpt>
      <trkpt lat="45.98218" lon="4.53872">
        <ele>587.98</ele>
        <time>2021-06-26T14:16:33Z</time>
      </trkpt>
      <trkpt lat="45.98205" lon="4.53873">
        <ele>588.46</ele>
        <time>2021-06-26T14:16:54Z</time>
      </trkpt>
      <trkpt lat="45.98194" lon="4.53876">
        <ele>589.43</ele>
        <time>2021-06-26T14:17:12Z</time>
      </trkpt>
      <trkpt lat="45.98183" lon="4.53878">
        <ele>589.91</ele>
        <time>2021-06-26T14:17:29Z</time>
      </trkpt>
      <trkpt lat="45.98173" lon="4.53878">
        <ele>590.87</ele>
        <time>2021-06-26T14:17:45Z</time>
      </trkpt>
      <trkpt lat="45.98158" lon="4.53876">
        <ele>591.83</ele>
        <time>2021-06-26T14:18:01Z</time>
      </trkpt>
      <trkpt lat="45.98145" lon="4.53878">
        <ele>592.79</ele>
        <time>2021-06-26T14:18:16Z</time>
      </trkpt>
      <trkpt lat="45.98131" lon="4.53881">
        <ele>593.27</ele>
        <time>2021-06-26T14:18:33Z</time>
      </trkpt>
      <trkpt lat="45.9812" lon="4.53887">
        <ele>593.27</ele>
        <time>2021-06-26T14:18:47Z</time>
      </trkpt>
      <trkpt lat="45.98109" lon="4.53893">
        <ele>594.23</ele>
        <time>2021-06-26T14:19:04Z</time>
      </trkpt>
      <trkpt lat="45.98107" lon="4.53894">
        <ele>593.75</ele>
        <time>2021-06-26T14:19:15Z</time>
      </trkpt>
      <trkpt lat="45.98104" lon="4.53905">
        <ele>595.19</ele>
        <time>2021-06-26T14:19:30Z</time>
      </trkpt>
      <trkpt lat="45.98092" lon="4.53922">
        <ele>594.71</ele>
        <time>2021-06-26T14:19:49Z</time>
      </trkpt>
      <trkpt lat="45.98082" lon="4.53938">
        <ele>594.23</ele>
        <time>2021-06-26T14:20:09Z</time>
      </trkpt>
      <trkpt lat="45.98075" lon="4.53949">
        <ele>592.79</ele>
        <time>2021-06-26T14:20:25Z</time>
      </trkpt>
      <trkpt lat="45.98072" lon="4.53951">
        <ele>592.79</ele>
        <time>2021-06-26T14:20:37Z</time>
      </trkpt>
      <trkpt lat="45.98067" lon="4.5397">
        <ele>592.31</ele>
        <time>2021-06-26T14:20:55Z</time>
      </trkpt>
      <trkpt lat="45.98065" lon="4.53986">
        <ele>594.23</ele>
        <time>2021-06-26T14:21:13Z</time>
      </trkpt>
      <trkpt lat="45.98062" lon="4.54002">
        <ele>595.19</ele>
        <time>2021-06-26T14:21:30Z</time>
      </trkpt>
      <trkpt lat="45.98057" lon="4.54018">
        <ele>596.15</ele>
        <time>2021-06-26T14:21:45Z</time>
      </trkpt>
      <trkpt lat="45.98056" lon="4.54034">
        <ele>596.64</ele>
        <time>2021-06-26T14:22:01Z</time>
      </trkpt>
      <trkpt lat="45.98055" lon="4.54036">
        <ele>596.15</ele>
        <time>2021-06-26T14:22:03Z</time>
      </trkpt>
      <trkpt lat="45.98052" lon="4.5404">
        <ele>596.15</ele>
        <time>2021-06-26T14:22:09Z</time>
      </trkpt>
      <trkpt lat="45.98049" lon="4.54051">
        <ele>596.15</ele>
        <time>2021-06-26T14:22:27Z</time>
      </trkpt>
      <trkpt lat="45.98041" lon="4.54065">
        <ele>596.15</ele>
        <time>2021-06-26T14:22:45Z</time>
      </trkpt>
      <trkpt lat="45.98032" lon="4.54077">
        <ele>596.64</ele>
        <time>2021-06-26T14:23:00Z</time>
      </trkpt>
      <trkpt lat="45.98025" lon="4.54092">
        <ele>597.12</ele>
        <time>2021-06-26T14:23:15Z</time>
      </trkpt>
      <trkpt lat="45.98018" lon="4.54111">
        <ele>597.12</ele>
        <time>2021-06-26T14:23:31Z</time>
      </trkpt>
      <trkpt lat="45.98011" lon="4.54121">
        <ele>597.12</ele>
        <time>2021-06-26T14:23:42Z</time>
      </trkpt>
      <trkpt lat="45.98001" lon="4.54136">
        <ele>597.12</ele>
        <time>2021-06-26T14:23:58Z</time>
      </trkpt>
      <trkpt lat="45.97993" lon="4.54148">
        <ele>597.12</ele>
        <time>2021-06-26T14:24:13Z</time>
      </trkpt>
      <trkpt lat="45.97982" lon="4.54163">
        <ele>597.12</ele>
        <time>2021-06-26T14:24:30Z</time>
      </trkpt>
      <trkpt lat="45.97969" lon="4.54176">
        <ele>596.64</ele>
        <time>2021-06-26T14:24:48Z</time>
      </trkpt>
      <trkpt lat="45.97957" lon="4.54193">
        <ele>596.64</ele>
        <time>2021-06-26T14:25:06Z</time>
      </trkpt>
      <trkpt lat="45.97946" lon="4.54205">
        <ele>596.64</ele>
        <time>2021-06-26T14:25:22Z</time>
      </trkpt>
      <trkpt lat="45.97933" lon="4.5422">
        <ele>596.15</ele>
        <time>2021-06-26T14:25:40Z</time>
      </trkpt>
      <trkpt lat="45.9792" lon="4.54233">
        <ele>595.67</ele>
        <time>2021-06-26T14:25:58Z</time>
      </trkpt>
      <trkpt lat="45.97912" lon="4.54241">
        <ele>594.23</ele>
        <time>2021-06-26T14:26:12Z</time>
      </trkpt>
      <trkpt lat="45.97901" lon="4.54245">
        <ele>592.79</ele>
        <time>2021-06-26T14:26:26Z</time>
      </trkpt>
      <trkpt lat="45.97891" lon="4.54247">
        <ele>592.79</ele>
        <time>2021-06-26T14:26:52Z</time>
      </trkpt>
      <trkpt lat="45.97888" lon="4.54254">
        <ele>593.27</ele>
        <time>2021-06-26T14:27:07Z</time>
      </trkpt>
      <trkpt lat="45.97882" lon="4.54267">
        <ele>593.75</ele>
        <time>2021-06-26T14:27:24Z</time>
      </trkpt>
      <trkpt lat="45.97875" lon="4.5428">
        <ele>594.23</ele>
        <time>2021-06-26T14:27:37Z</time>
      </trkpt>
      <trkpt lat="45.97868" lon="4.54297">
        <ele>594.71</ele>
        <time>2021-06-26T14:27:52Z</time>
      </trkpt>
      <trkpt lat="45.97858" lon="4.54314">
        <ele>595.67</ele>
        <time>2021-06-26T14:28:09Z</time>
      </trkpt>
      <trkpt lat="45.97853" lon="4.54321">
        <ele>595.67</ele>
        <time>2021-06-26T14:28:33Z</time>
      </trkpt>
      <trkpt lat="45.9785" lon="4.54333">
        <ele>596.15</ele>
        <time>2021-06-26T14:28:47Z</time>
      </trkpt>
      <trkpt lat="45.97841" lon="4.54347">
        <ele>596.15</ele>
        <time>2021-06-26T14:29:02Z</time>
      </trkpt>
      <trkpt lat="45.97839" lon="4.54367">
        <ele>596.64</ele>
        <time>2021-06-26T14:29:17Z</time>
      </trkpt>
      <trkpt lat="45.97834" lon="4.5439">
        <ele>597.6</ele>
        <time>2021-06-26T14:29:36Z</time>
      </trkpt>
      <trkpt lat="45.97824" lon="4.54404">
        <ele>596.64</ele>
        <time>2021-06-26T14:29:51Z</time>
      </trkpt>
      <trkpt lat="45.97816" lon="4.54411">
        <ele>596.64</ele>
        <time>2021-06-26T14:30:05Z</time>
      </trkpt>
      <trkpt lat="45.97812" lon="4.54423">
        <ele>597.12</ele>
        <time>2021-06-26T14:30:20Z</time>
      </trkpt>
      <trkpt lat="45.97809" lon="4.54431">
        <ele>597.12</ele>
        <time>2021-06-26T14:30:40Z</time>
      </trkpt>
      <trkpt lat="45.97809" lon="4.5443">
        <ele>596.64</ele>
        <time>2021-06-26T14:30:55Z</time>
      </trkpt>
      <trkpt lat="45.97803" lon="4.54447">
        <ele>597.6</ele>
        <time>2021-06-26T14:31:11Z</time>
      </trkpt>
      <trkpt lat="45.97795" lon="4.54466">
        <ele>597.12</ele>
        <time>2021-06-26T14:31:29Z</time>
      </trkpt>
      <trkpt lat="45.97786" lon="4.54482">
        <ele>597.12</ele>
        <time>2021-06-26T14:31:45Z</time>
      </trkpt>
      <trkpt lat="45.97779" lon="4.54493">
        <ele>597.12</ele>
        <time>2021-06-26T14:31:58Z</time>
      </trkpt>
      <trkpt lat="45.97772" lon="4.54501">
        <ele>598.08</ele>
        <time>2021-06-26T14:32:12Z</time>
      </trkpt>
      <trkpt lat="45.97769" lon="4.5451">
        <ele>598.08</ele>
        <time>2021-06-26T14:32:25Z</time>
      </trkpt>
      <trkpt lat="45.97759" lon="4.54517">
        <ele>596.64</ele>
        <time>2021-06-26T14:32:39Z</time>
      </trkpt>
      <trkpt lat="45.97745" lon="4.54514">
        <ele>595.19</ele>
        <time>2021-06-26T14:32:55Z</time>
      </trkpt>
      <trkpt lat="45.97734" lon="4.54511">
        <ele>594.23</ele>
        <time>2021-06-26T14:33:11Z</time>
      </trkpt>
      <trkpt lat="45.97718" lon="4.5451">
        <ele>593.27</ele>
        <time>2021-06-26T14:33:29Z</time>
      </trkpt>
      <trkpt lat="45.97704" lon="4.54505">
        <ele>591.83</ele>
        <time>2021-06-26T14:33:45Z</time>
      </trkpt>
      <trkpt lat="45.97692" lon="4.545">
        <ele>590.87</ele>
        <time>2021-06-26T14:34:00Z</time>
      </trkpt>
      <trkpt lat="45.9768" lon="4.54494">
        <ele>589.43</ele>
        <time>2021-06-26T14:34:14Z</time>
      </trkpt>
      <trkpt lat="45.97671" lon="4.54489">
        <ele>588.46</ele>
        <time>2021-06-26T14:34:31Z</time>
      </trkpt>
      <trkpt lat="45.97664" lon="4.54489">
        <ele>588.46</ele>
        <time>2021-06-26T14:34:50Z</time>
      </trkpt>
      <trkpt lat="45.97659" lon="4.54486">
        <ele>587.98</ele>
        <time>2021-06-26T14:35:04Z</time>
      </trkpt>
      <trkpt lat="45.97646" lon="4.54485">
        <ele>587.02</ele>
        <time>2021-06-26T14:35:21Z</time>
      </trkpt>
      <trkpt lat="45.9763" lon="4.54482">
        <ele>586.06</ele>
        <time>2021-06-26T14:35:39Z</time>
      </trkpt>
      <trkpt lat="45.97616" lon="4.54482">
        <ele>584.14</ele>
        <time>2021-06-26T14:35:56Z</time>
      </trkpt>
      <trkpt lat="45.97607" lon="4.54484">
        <ele>583.66</ele>
        <time>2021-06-26T14:36:04Z</time>
      </trkpt>
      <trkpt lat="45.97588" lon="4.54488">
        <ele>582.7</ele>
        <time>2021-06-26T14:36:23Z</time>
      </trkpt>
      <trkpt lat="45.9758" lon="4.54492">
        <ele>581.73</ele>
        <time>2021-06-26T14:36:37Z</time>
      </trkpt>
      <trkpt lat="45.97564" lon="4.54503">
        <ele>581.73</ele>
        <time>2021-06-26T14:36:55Z</time>
      </trkpt>
      <trkpt lat="45.97549" lon="4.54518">
        <ele>581.73</ele>
        <time>2021-06-26T14:37:14Z</time>
      </trkpt>
      <trkpt lat="45.97535" lon="4.54534">
        <ele>581.73</ele>
        <time>2021-06-26T14:37:33Z</time>
      </trkpt>
      <trkpt lat="45.97523" lon="4.54548">
        <ele>581.25</ele>
        <time>2021-06-26T14:37:50Z</time>
      </trkpt>
      <trkpt lat="45.97518" lon="4.54555">
        <ele>581.25</ele>
        <time>2021-06-26T14:38:07Z</time>
      </trkpt>
      <trkpt lat="45.97508" lon="4.54568">
        <ele>580.77</ele>
        <time>2021-06-26T14:38:23Z</time>
      </trkpt>
      <trkpt lat="45.975" lon="4.54583">
        <ele>580.29</ele>
        <time>2021-06-26T14:38:39Z</time>
      </trkpt>
      <trkpt lat="45.97501" lon="4.54584">
        <ele>580.29</ele>
        <time>2021-06-26T14:38:59Z</time>
      </trkpt>
      <trkpt lat="45.97496" lon="4.54586">
        <ele>579.81</ele>
        <time>2021-06-26T14:39:19Z</time>
      </trkpt>
      <trkpt lat="45.97492" lon="4.54596">
        <ele>579.81</ele>
        <time>2021-06-26T14:39:33Z</time>
      </trkpt>
      <trkpt lat="45.97484" lon="4.54614">
        <ele>579.33</ele>
        <time>2021-06-26T14:39:50Z</time>
      </trkpt>
      <trkpt lat="45.97477" lon="4.54637">
        <ele>579.33</ele>
        <time>2021-06-26T14:40:09Z</time>
      </trkpt>
      <trkpt lat="45.97471" lon="4.54657">
        <ele>578.85</ele>
        <time>2021-06-26T14:40:25Z</time>
      </trkpt>
      <trkpt lat="45.97469" lon="4.54683">
        <ele>578.37</ele>
        <time>2021-06-26T14:40:44Z</time>
      </trkpt>
      <trkpt lat="45.97467" lon="4.54701">
        <ele>578.37</ele>
        <time>2021-06-26T14:41:00Z</time>
      </trkpt>
      <trkpt lat="45.97465" lon="4.54719">
        <ele>577.89</ele>
        <time>2021-06-26T14:41:16Z</time>
      </trkpt>
      <trkpt lat="45.97463" lon="4.5474">
        <ele>576.93</ele>
        <time>2021-06-26T14:41:33Z</time>
      </trkpt>
      <trkpt lat="45.97462" lon="4.54758">
        <ele>576.45</ele>
        <time>2021-06-26T14:41:49Z</time>
      </trkpt>
      <trkpt lat="45.97461" lon="4.54773">
        <ele>575.49</ele>
        <time>2021-06-26T14:42:16Z</time>
      </trkpt>
      <trkpt lat="45.97463" lon="4.54773">
        <ele>575.01</ele>
        <time>2021-06-26T14:42:31Z</time>
      </trkpt>
      <trkpt lat="45.97468" lon="4.54781">
        <ele>573.56</ele>
        <time>2021-06-26T14:42:44Z</time>
      </trkpt>
      <trkpt lat="45.97471" lon="4.54785">
        <ele>572.6</ele>
        <time>2021-06-26T14:42:51Z</time>
      </trkpt>
      <trkpt lat="45.97478" lon="4.548">
        <ele>571.64</ele>
        <time>2021-06-26T14:43:06Z</time>
      </trkpt>
      <trkpt lat="45.97488" lon="4.54812">
        <ele>570.68</ele>
        <time>2021-06-26T14:43:21Z</time>
      </trkpt>
      <trkpt lat="45.97495" lon="4.54817">
        <ele>570.2</ele>
        <time>2021-06-26T14:43:39Z</time>
      </trkpt>
      <trkpt lat="45.97505" lon="4.54828">
        <ele>569.72</ele>
        <time>2021-06-26T14:43:53Z</time>
      </trkpt>
      <trkpt lat="45.97516" lon="4.54836">
        <ele>568.76</ele>
        <time>2021-06-26T14:44:09Z</time>
      </trkpt>
      <trkpt lat="45.97526" lon="4.54841">
        <ele>568.28</ele>
        <time>2021-06-26T14:44:24Z</time>
      </trkpt>
      <trkpt lat="45.97536" lon="4.54845">
        <ele>568.28</ele>
        <time>2021-06-26T14:44:37Z</time>
      </trkpt>
      <trkpt lat="45.97548" lon="4.54856">
        <ele>568.28</ele>
        <time>2021-06-26T14:44:52Z</time>
      </trkpt>
      <trkpt lat="45.97559" lon="4.54865">
        <ele>567.32</ele>
        <time>2021-06-26T14:45:07Z</time>
      </trkpt>
      <trkpt lat="45.97573" lon="4.54878">
        <ele>567.32</ele>
        <time>2021-06-26T14:45:22Z</time>
      </trkpt>
      <trkpt lat="45.97581" lon="4.54884">
        <ele>567.32</ele>
        <time>2021-06-26T14:45:35Z</time>
      </trkpt>
      <trkpt lat="45.97596" lon="4.54882">
        <ele>566.83</ele>
        <time>2021-06-26T14:45:50Z</time>
      </trkpt>
      <trkpt lat="45.97607" lon="4.54882">
        <ele>566.83</ele>
        <time>2021-06-26T14:46:04Z</time>
      </trkpt>
      <trkpt lat="45.97619" lon="4.54884">
        <ele>566.83</ele>
        <time>2021-06-26T14:46:20Z</time>
      </trkpt>
      <trkpt lat="45.97633" lon="4.54891">
        <ele>567.32</ele>
        <time>2021-06-26T14:46:34Z</time>
      </trkpt>
      <trkpt lat="45.97645" lon="4.54897">
        <ele>567.8</ele>
        <time>2021-06-26T14:46:48Z</time>
      </trkpt>
      <trkpt lat="45.97658" lon="4.54898">
        <ele>568.76</ele>
        <time>2021-06-26T14:47:03Z</time>
      </trkpt>
      <trkpt lat="45.9767" lon="4.54903">
        <ele>569.24</ele>
        <time>2021-06-26T14:47:18Z</time>
      </trkpt>
      <trkpt lat="45.9768" lon="4.54909">
        <ele>570.2</ele>
        <time>2021-06-26T14:47:34Z</time>
      </trkpt>
      <trkpt lat="45.97695" lon="4.54916">
        <ele>570.68</ele>
        <time>2021-06-26T14:47:50Z</time>
      </trkpt>
      <trkpt lat="45.977" lon="4.54919">
        <ele>571.16</ele>
        <time>2021-06-26T14:48:04Z</time>
      </trkpt>
      <trkpt lat="45.97707" lon="4.54924">
        <ele>571.64</ele>
        <time>2021-06-26T14:48:20Z</time>
      </trkpt>
      <trkpt lat="45.97718" lon="4.5493">
        <ele>572.12</ele>
        <time>2021-06-26T14:48:35Z</time>
      </trkpt>
      <trkpt lat="45.97728" lon="4.54941">
        <ele>572.6</ele>
        <time>2021-06-26T14:48:47Z</time>
      </trkpt>
      <trkpt lat="45.97741" lon="4.54955">
        <ele>573.56</ele>
        <time>2021-06-26T14:49:02Z</time>
      </trkpt>
      <trkpt lat="45.97746" lon="4.54959">
        <ele>573.56</ele>
        <time>2021-06-26T14:49:08Z</time>
      </trkpt>
      <trkpt lat="45.9776" lon="4.54966">
        <ele>573.56</ele>
        <time>2021-06-26T14:49:23Z</time>
      </trkpt>
      <trkpt lat="45.9777" lon="4.5497">
        <ele>573.56</ele>
        <time>2021-06-26T14:49:37Z</time>
      </trkpt>
      <trkpt lat="45.97778" lon="4.54973">
        <ele>573.08</ele>
        <time>2021-06-26T14:49:50Z</time>
      </trkpt>
      <trkpt lat="45.97794" lon="4.54976">
        <ele>571.64</ele>
        <time>2021-06-26T14:50:06Z</time>
      </trkpt>
      <trkpt lat="45.97804" lon="4.54976">
        <ele>571.64</ele>
        <time>2021-06-26T14:50:21Z</time>
      </trkpt>
      <trkpt lat="45.97814" lon="4.54977">
        <ele>571.16</ele>
        <time>2021-06-26T14:50:34Z</time>
      </trkpt>
      <trkpt lat="45.97823" lon="4.54971">
        <ele>570.68</ele>
        <time>2021-06-26T14:50:47Z</time>
      </trkpt>
      <trkpt lat="45.97837" lon="4.54968">
        <ele>570.68</ele>
        <time>2021-06-26T14:51:00Z</time>
      </trkpt>
      <trkpt lat="45.97853" lon="4.54974">
        <ele>570.68</ele>
        <time>2021-06-26T14:51:08Z</time>
      </trkpt>
      <trkpt lat="45.97869" lon="4.54975">
        <ele>569.24</ele>
        <time>2021-06-26T14:51:24Z</time>
      </trkpt>
      <trkpt lat="45.9788" lon="4.54961">
        <ele>567.32</ele>
        <time>2021-06-26T14:51:40Z</time>
      </trkpt>
      <trkpt lat="45.97888" lon="4.54954">
        <ele>565.39</ele>
        <time>2021-06-26T14:51:54Z</time>
      </trkpt>
      <trkpt lat="45.97894" lon="4.54946">
        <ele>564.43</ele>
        <time>2021-06-26T14:52:06Z</time>
      </trkpt>
      <trkpt lat="45.97901" lon="4.54939">
        <ele>562.99</ele>
        <time>2021-06-26T14:52:19Z</time>
      </trkpt>
      <trkpt lat="45.97909" lon="4.54935">
        <ele>561.07</ele>
        <time>2021-06-26T14:52:33Z</time>
      </trkpt>
      <trkpt lat="45.97921" lon="4.54937">
        <ele>560.11</ele>
        <time>2021-06-26T14:52:46Z</time>
      </trkpt>
      <trkpt lat="45.9793" lon="4.54925">
        <ele>557.7</ele>
        <time>2021-06-26T14:53:02Z</time>
      </trkpt>
      <trkpt lat="45.9794" lon="4.54917">
        <ele>555.78</ele>
        <time>2021-06-26T14:53:18Z</time>
      </trkpt>
      <trkpt lat="45.97951" lon="4.54912">
        <ele>553.38</ele>
        <time>2021-06-26T14:53:34Z</time>
      </trkpt>
      <trkpt lat="45.97961" lon="4.54904">
        <ele>550.97</ele>
        <time>2021-06-26T14:53:50Z</time>
      </trkpt>
      <trkpt lat="45.97969" lon="4.54903">
        <ele>548.57</ele>
        <time>2021-06-26T14:54:05Z</time>
      </trkpt>
      <trkpt lat="45.97975" lon="4.54905">
        <ele>546.65</ele>
        <time>2021-06-26T14:54:18Z</time>
      </trkpt>
      <trkpt lat="45.97985" lon="4.54908">
        <ele>545.2</ele>
        <time>2021-06-26T14:54:32Z</time>
      </trkpt>
      <trkpt lat="45.97993" lon="4.54908">
        <ele>543.76</ele>
        <time>2021-06-26T14:54:46Z</time>
      </trkpt>
      <trkpt lat="45.97995" lon="4.54909">
        <ele>543.28</ele>
        <time>2021-06-26T14:54:49Z</time>
      </trkpt>
      <trkpt lat="45.98003" lon="4.54917">
        <ele>541.84</ele>
        <time>2021-06-26T14:55:03Z</time>
      </trkpt>
      <trkpt lat="45.98011" lon="4.54924">
        <ele>541.36</ele>
        <time>2021-06-26T14:55:16Z</time>
      </trkpt>
      <trkpt lat="45.98019" lon="4.54936">
        <ele>540.88</ele>
        <time>2021-06-26T14:55:31Z</time>
      </trkpt>
      <trkpt lat="45.98027" lon="4.54954">
        <ele>539.92</ele>
        <time>2021-06-26T14:55:47Z</time>
      </trkpt>
      <trkpt lat="45.98034" lon="4.54973">
        <ele>540.4</ele>
        <time>2021-06-26T14:56:01Z</time>
      </trkpt>
      <trkpt lat="45.98038" lon="4.5499">
        <ele>540.4</ele>
        <time>2021-06-26T14:56:17Z</time>
      </trkpt>
      <trkpt lat="45.98043" lon="4.55013">
        <ele>540.4</ele>
        <time>2021-06-26T14:56:32Z</time>
      </trkpt>
      <trkpt lat="45.98046" lon="4.55033">
        <ele>540.4</ele>
        <time>2021-06-26T14:56:46Z</time>
      </trkpt>
      <trkpt lat="45.98045" lon="4.55048">
        <ele>539.92</ele>
        <time>2021-06-26T14:56:59Z</time>
      </trkpt>
      <trkpt lat="45.98051" lon="4.55055">
        <ele>539.92</ele>
        <time>2021-06-26T14:57:11Z</time>
      </trkpt>
      <trkpt lat="45.98058" lon="4.55067">
        <ele>539.44</ele>
        <time>2021-06-26T14:57:26Z</time>
      </trkpt>
      <trkpt lat="45.9806" lon="4.55079">
        <ele>538.96</ele>
        <time>2021-06-26T14:57:41Z</time>
      </trkpt>
      <trkpt lat="45.98068" lon="4.55092">
        <ele>537.99</ele>
        <time>2021-06-26T14:57:55Z</time>
      </trkpt>
      <trkpt lat="45.98076" lon="4.55102">
        <ele>537.51</ele>
        <time>2021-06-26T14:58:07Z</time>
      </trkpt>
      <trkpt lat="45.98082" lon="4.55113">
        <ele>537.03</ele>
        <time>2021-06-26T14:58:15Z</time>
      </trkpt>
      <trkpt lat="45.9809" lon="4.55125">
        <ele>535.11</ele>
        <time>2021-06-26T14:58:28Z</time>
      </trkpt>
      <trkpt lat="45.981" lon="4.55142">
        <ele>534.15</ele>
        <time>2021-06-26T14:58:42Z</time>
      </trkpt>
      <trkpt lat="45.98103" lon="4.55148">
        <ele>533.67</ele>
        <time>2021-06-26T14:58:47Z</time>
      </trkpt>
      <trkpt lat="45.98111" lon="4.55163">
        <ele>532.23</ele>
        <time>2021-06-26T14:59:02Z</time>
      </trkpt>
      <trkpt lat="45.98119" lon="4.55174">
        <ele>531.27</ele>
        <time>2021-06-26T14:59:17Z</time>
      </trkpt>
      <trkpt lat="45.98132" lon="4.55182">
        <ele>530.3</ele>
        <time>2021-06-26T14:59:33Z</time>
      </trkpt>
      <trkpt lat="45.98141" lon="4.55183">
        <ele>529.34</ele>
        <time>2021-06-26T14:59:45Z</time>
      </trkpt>
      <trkpt lat="45.98155" lon="4.55181">
        <ele>527.9</ele>
        <time>2021-06-26T14:59:59Z</time>
      </trkpt>
      <trkpt lat="45.98168" lon="4.55177">
        <ele>525.02</ele>
        <time>2021-06-26T15:00:15Z</time>
      </trkpt>
      <trkpt lat="45.9818" lon="4.55174">
        <ele>522.61</ele>
        <time>2021-06-26T15:00:29Z</time>
      </trkpt>
      <trkpt lat="45.98195" lon="4.55173">
        <ele>519.73</ele>
        <time>2021-06-26T15:00:44Z</time>
      </trkpt>
      <trkpt lat="45.98205" lon="4.55171">
        <ele>517.81</ele>
        <time>2021-06-26T15:00:57Z</time>
      </trkpt>
      <trkpt lat="45.98213" lon="4.55172">
        <ele>515.4</ele>
        <time>2021-06-26T15:01:10Z</time>
      </trkpt>
      <trkpt lat="45.98221" lon="4.55173">
        <ele>513.96</ele>
        <time>2021-06-26T15:01:21Z</time>
      </trkpt>
      <trkpt lat="45.98232" lon="4.55173">
        <ele>511.56</ele>
        <time>2021-06-26T15:01:37Z</time>
      </trkpt>
      <trkpt lat="45.98245" lon="4.55178">
        <ele>508.67</ele>
        <time>2021-06-26T15:01:53Z</time>
      </trkpt>
      <trkpt lat="45.98252" lon="4.55176">
        <ele>507.23</ele>
        <time>2021-06-26T15:02:06Z</time>
      </trkpt>
      <trkpt lat="45.98263" lon="4.55185">
        <ele>507.71</ele>
        <time>2021-06-26T15:02:22Z</time>
      </trkpt>
      <trkpt lat="45.98269" lon="4.5518">
        <ele>505.31</ele>
        <time>2021-06-26T15:02:40Z</time>
      </trkpt>
      <trkpt lat="45.98276" lon="4.55172">
        <ele>502.91</ele>
        <time>2021-06-26T15:02:55Z</time>
      </trkpt>
      <trkpt lat="45.98283" lon="4.55171">
        <ele>502.43</ele>
        <time>2021-06-26T15:03:12Z</time>
      </trkpt>
      <trkpt lat="45.98292" lon="4.5517">
        <ele>500.5</ele>
        <time>2021-06-26T15:03:25Z</time>
      </trkpt>
      <trkpt lat="45.98299" lon="4.55172">
        <ele>499.06</ele>
        <time>2021-06-26T15:03:37Z</time>
      </trkpt>
      <trkpt lat="45.98309" lon="4.55165">
        <ele>497.14</ele>
        <time>2021-06-26T15:03:51Z</time>
      </trkpt>
      <trkpt lat="45.98321" lon="4.5516">
        <ele>495.7</ele>
        <time>2021-06-26T15:04:06Z</time>
      </trkpt>
      <trkpt lat="45.98329" lon="4.55154">
        <ele>493.77</ele>
        <time>2021-06-26T15:04:21Z</time>
      </trkpt>
      <trkpt lat="45.98336" lon="4.55147">
        <ele>491.85</ele>
        <time>2021-06-26T15:04:36Z</time>
      </trkpt>
      <trkpt lat="45.98345" lon="4.55155">
        <ele>489.93</ele>
        <time>2021-06-26T15:04:53Z</time>
      </trkpt>
      <trkpt lat="45.98343" lon="4.55152">
        <ele>488.01</ele>
        <time>2021-06-26T15:05:05Z</time>
      </trkpt>
      <trkpt lat="45.98342" lon="4.55151">
        <ele>488.01</ele>
        <time>2021-06-26T15:05:24Z</time>
      </trkpt>
      <trkpt lat="45.98338" lon="4.55151">
        <ele>488.01</ele>
        <time>2021-06-26T15:05:57Z</time>
      </trkpt>
      <trkpt lat="45.9834" lon="4.55153">
        <ele>488.01</ele>
        <time>2021-06-26T15:06:14Z</time>
      </trkpt>
      <trkpt lat="45.98341" lon="4.55163">
        <ele>488.01</ele>
        <time>2021-06-26T15:06:35Z</time>
      </trkpt>
      <trkpt lat="45.9834" lon="4.55166">
        <ele>487.05</ele>
        <time>2021-06-26T15:06:49Z</time>
      </trkpt>
      <trkpt lat="45.98335" lon="4.55178">
        <ele>486.08</ele>
        <time>2021-06-26T15:07:02Z</time>
      </trkpt>
      <trkpt lat="45.98332" lon="4.55189">
        <ele>485.6</ele>
        <time>2021-06-26T15:07:17Z</time>
      </trkpt>
      <trkpt lat="45.98331" lon="4.55194">
        <ele>485.6</ele>
        <time>2021-06-26T15:07:20Z</time>
      </trkpt>
      <trkpt lat="45.98323" lon="4.55202">
        <ele>484.64</ele>
        <time>2021-06-26T15:07:34Z</time>
      </trkpt>
      <trkpt lat="45.98316" lon="4.55205">
        <ele>484.16</ele>
        <time>2021-06-26T15:07:46Z</time>
      </trkpt>
      <trkpt lat="45.98308" lon="4.55207">
        <ele>484.16</ele>
        <time>2021-06-26T15:08:03Z</time>
      </trkpt>
      <trkpt lat="45.98301" lon="4.55212">
        <ele>483.68</ele>
        <time>2021-06-26T15:08:12Z</time>
      </trkpt>
      <trkpt lat="45.98295" lon="4.55214">
        <ele>482.72</ele>
        <time>2021-06-26T15:08:16Z</time>
      </trkpt>
      <trkpt lat="45.98284" lon="4.55221">
        <ele>481.76</ele>
        <time>2021-06-26T15:08:33Z</time>
      </trkpt>
      <trkpt lat="45.98285" lon="4.55246">
        <ele>481.76</ele>
        <time>2021-06-26T15:08:46Z</time>
      </trkpt>
      <trkpt lat="45.9828" lon="4.55248">
        <ele>482.24</ele>
        <time>2021-06-26T15:09:12Z</time>
      </trkpt>
      <trkpt lat="45.98282" lon="4.55251">
        <ele>482.72</ele>
        <time>2021-06-26T15:09:43Z</time>
      </trkpt>
      <trkpt lat="45.98277" lon="4.55244">
        <ele>483.2</ele>
        <time>2021-06-26T15:10:14Z</time>
      </trkpt>
      <trkpt lat="45.98268" lon="4.55242">
        <ele>482.72</ele>
        <time>2021-06-26T15:10:27Z</time>
      </trkpt>
      <trkpt lat="45.98266" lon="4.55255">
        <ele>483.2</ele>
        <time>2021-06-26T15:10:43Z</time>
      </trkpt>
      <trkpt lat="45.98256" lon="4.55257">
        <ele>482.72</ele>
        <time>2021-06-26T15:10:57Z</time>
      </trkpt>
      <trkpt lat="45.98248" lon="4.55256">
        <ele>482.24</ele>
        <time>2021-06-26T15:11:09Z</time>
      </trkpt>
      <trkpt lat="45.98235" lon="4.55264">
        <ele>481.76</ele>
        <time>2021-06-26T15:11:23Z</time>
      </trkpt>
      <trkpt lat="45.98226" lon="4.55273">
        <ele>481.28</ele>
        <time>2021-06-26T15:11:36Z</time>
      </trkpt>
      <trkpt lat="45.98215" lon="4.55283">
        <ele>480.8</ele>
        <time>2021-06-26T15:11:49Z</time>
      </trkpt>
      <trkpt lat="45.98206" lon="4.55286">
        <ele>480.32</ele>
        <time>2021-06-26T15:12:02Z</time>
      </trkpt>
      <trkpt lat="45.982" lon="4.55304">
        <ele>480.32</ele>
        <time>2021-06-26T15:12:14Z</time>
      </trkpt>
      <trkpt lat="45.98187" lon="4.55311">
        <ele>479.84</ele>
        <time>2021-06-26T15:12:27Z</time>
      </trkpt>
      <trkpt lat="45.9818" lon="4.55316">
        <ele>479.84</ele>
        <time>2021-06-26T15:12:37Z</time>
      </trkpt>
      <trkpt lat="45.98168" lon="4.55326">
        <ele>479.84</ele>
        <time>2021-06-26T15:12:51Z</time>
      </trkpt>
      <trkpt lat="45.98158" lon="4.55335">
        <ele>478.87</ele>
        <time>2021-06-26T15:13:03Z</time>
      </trkpt>
      <trkpt lat="45.98152" lon="4.55339">
        <ele>478.39</ele>
        <time>2021-06-26T15:13:16Z</time>
      </trkpt>
      <trkpt lat="45.98146" lon="4.55341">
        <ele>478.39</ele>
        <time>2021-06-26T15:13:27Z</time>
      </trkpt>
      <trkpt lat="45.98136" lon="4.5535">
        <ele>478.39</ele>
        <time>2021-06-26T15:13:39Z</time>
      </trkpt>
      <trkpt lat="45.98127" lon="4.55366">
        <ele>478.39</ele>
        <time>2021-06-26T15:13:53Z</time>
      </trkpt>
      <trkpt lat="45.98113" lon="4.55368">
        <ele>477.43</ele>
        <time>2021-06-26T15:14:07Z</time>
      </trkpt>
      <trkpt lat="45.98106" lon="4.55363">
        <ele>477.43</ele>
        <time>2021-06-26T15:14:18Z</time>
      </trkpt>
      <trkpt lat="45.98097" lon="4.55362">
        <ele>477.91</ele>
        <time>2021-06-26T15:14:30Z</time>
      </trkpt>
      <trkpt lat="45.98078" lon="4.55367">
        <ele>478.39</ele>
        <time>2021-06-26T15:14:45Z</time>
      </trkpt>
      <trkpt lat="45.98069" lon="4.55371">
        <ele>479.35</ele>
        <time>2021-06-26T15:14:56Z</time>
      </trkpt>
      <trkpt lat="45.98061" lon="4.55374">
        <ele>479.35</ele>
        <time>2021-06-26T15:15:08Z</time>
      </trkpt>
      <trkpt lat="45.98052" lon="4.55373">
        <ele>479.35</ele>
        <time>2021-06-26T15:15:21Z</time>
      </trkpt>
      <trkpt lat="45.98036" lon="4.55372">
        <ele>479.84</ele>
        <time>2021-06-26T15:15:34Z</time>
      </trkpt>
      <trkpt lat="45.98025" lon="4.55381">
        <ele>480.32</ele>
        <time>2021-06-26T15:15:49Z</time>
      </trkpt>
      <trkpt lat="45.9801" lon="4.55389">
        <ele>480.32</ele>
        <time>2021-06-26T15:16:02Z</time>
      </trkpt>
      <trkpt lat="45.97995" lon="4.55393">
        <ele>480.32</ele>
        <time>2021-06-26T15:16:16Z</time>
      </trkpt>
      <trkpt lat="45.97979" lon="4.55393">
        <ele>480.32</ele>
        <time>2021-06-26T15:16:31Z</time>
      </trkpt>
      <trkpt lat="45.97979" lon="4.55394">
        <ele>480.32</ele>
        <time>2021-06-26T15:16:32Z</time>
      </trkpt>
      <trkpt lat="45.9797" lon="4.55398">
        <ele>480.8</ele>
        <time>2021-06-26T15:16:46Z</time>
      </trkpt>
      <trkpt lat="45.9796" lon="4.55403">
        <ele>481.28</ele>
        <time>2021-06-26T15:17:01Z</time>
      </trkpt>
      <trkpt lat="45.97948" lon="4.55408">
        <ele>481.28</ele>
        <time>2021-06-26T15:17:16Z</time>
      </trkpt>
      <trkpt lat="45.9794" lon="4.55414">
        <ele>480.8</ele>
        <time>2021-06-26T15:17:27Z</time>
      </trkpt>
      <trkpt lat="45.97932" lon="4.55418">
        <ele>481.28</ele>
        <time>2021-06-26T15:17:40Z</time>
      </trkpt>
      <trkpt lat="45.97923" lon="4.55416">
        <ele>481.28</ele>
        <time>2021-06-26T15:17:54Z</time>
      </trkpt>
      <trkpt lat="45.97915" lon="4.55418">
        <ele>481.76</ele>
        <time>2021-06-26T15:18:07Z</time>
      </trkpt>
      <trkpt lat="45.97904" lon="4.55416">
        <ele>482.24</ele>
        <time>2021-06-26T15:18:19Z</time>
      </trkpt>
      <trkpt lat="45.97893" lon="4.5541">
        <ele>482.72</ele>
        <time>2021-06-26T15:18:34Z</time>
      </trkpt>
      <trkpt lat="45.97883" lon="4.55408">
        <ele>483.2</ele>
        <time>2021-06-26T15:18:47Z</time>
      </trkpt>
      <trkpt lat="45.9787" lon="4.55408">
        <ele>483.68</ele>
        <time>2021-06-26T15:19:04Z</time>
      </trkpt>
      <trkpt lat="45.97865" lon="4.55411">
        <ele>484.16</ele>
        <time>2021-06-26T15:19:18Z</time>
      </trkpt>
      <trkpt lat="45.97856" lon="4.55412">
        <ele>485.6</ele>
        <time>2021-06-26T15:19:30Z</time>
      </trkpt>
      <trkpt lat="45.9784" lon="4.55414">
        <ele>487.53</ele>
        <time>2021-06-26T15:19:51Z</time>
      </trkpt>
      <trkpt lat="45.97816" lon="4.5541">
        <ele>488.01</ele>
        <time>2021-06-26T15:20:05Z</time>
      </trkpt>
      <trkpt lat="45.97804" lon="4.55424">
        <ele>488.01</ele>
        <time>2021-06-26T15:20:25Z</time>
      </trkpt>
      <trkpt lat="45.97799" lon="4.5543">
        <ele>488.97</ele>
        <time>2021-06-26T15:20:39Z</time>
      </trkpt>
      <trkpt lat="45.97796" lon="4.55428">
        <ele>488.49</ele>
        <time>2021-06-26T15:20:52Z</time>
      </trkpt>
      <trkpt lat="45.97794" lon="4.55422">
        <ele>488.49</ele>
        <time>2021-06-26T15:21:04Z</time>
      </trkpt>
      <trkpt lat="45.97793" lon="4.55414">
        <ele>488.01</ele>
        <time>2021-06-26T15:21:16Z</time>
      </trkpt>
      <trkpt lat="45.97791" lon="4.55404">
        <ele>486.56</ele>
        <time>2021-06-26T15:21:31Z</time>
      </trkpt>
      <trkpt lat="45.97784" lon="4.55397">
        <ele>486.08</ele>
        <time>2021-06-26T15:21:44Z</time>
      </trkpt>
      <trkpt lat="45.97774" lon="4.55389">
        <ele>486.08</ele>
        <time>2021-06-26T15:21:56Z</time>
      </trkpt>
      <trkpt lat="45.97766" lon="4.5537">
        <ele>486.08</ele>
        <time>2021-06-26T15:22:10Z</time>
      </trkpt>
      <trkpt lat="45.97756" lon="4.55367">
        <ele>486.08</ele>
        <time>2021-06-26T15:22:24Z</time>
      </trkpt>
      <trkpt lat="45.97752" lon="4.55364">
        <ele>486.08</ele>
        <time>2021-06-26T15:22:29Z</time>
      </trkpt>
      <trkpt lat="45.97737" lon="4.55361">
        <ele>485.12</ele>
        <time>2021-06-26T15:22:42Z</time>
      </trkpt>
      <trkpt lat="45.97725" lon="4.55358">
        <ele>484.16</ele>
        <time>2021-06-26T15:22:57Z</time>
      </trkpt>
      <trkpt lat="45.97724" lon="4.55358">
        <ele>484.16</ele>
        <time>2021-06-26T15:22:58Z</time>
      </trkpt>
      <trkpt lat="45.97718" lon="4.55357">
        <ele>483.68</ele>
        <time>2021-06-26T15:23:12Z</time>
      </trkpt>
      <trkpt lat="45.97713" lon="4.55359">
        <ele>483.2</ele>
        <time>2021-06-26T15:23:23Z</time>
      </trkpt>
      <trkpt lat="45.97699" lon="4.55359">
        <ele>482.72</ele>
        <time>2021-06-26T15:23:38Z</time>
      </trkpt>
      <trkpt lat="45.97688" lon="4.55357">
        <ele>481.76</ele>
        <time>2021-06-26T15:23:50Z</time>
      </trkpt>
      <trkpt lat="45.9768" lon="4.55362">
        <ele>481.28</ele>
        <time>2021-06-26T15:24:02Z</time>
      </trkpt>
      <trkpt lat="45.97672" lon="4.55362">
        <ele>480.8</ele>
        <time>2021-06-26T15:24:14Z</time>
      </trkpt>
      <trkpt lat="45.97671" lon="4.55364">
        <ele>480.32</ele>
        <time>2021-06-26T15:24:15Z</time>
      </trkpt>
      <trkpt lat="45.97665" lon="4.55368">
        <ele>480.32</ele>
        <time>2021-06-26T15:24:22Z</time>
      </trkpt>
      <trkpt lat="45.97656" lon="4.55359">
        <ele>479.84</ele>
        <time>2021-06-26T15:24:34Z</time>
      </trkpt>
      <trkpt lat="45.97646" lon="4.55369">
        <ele>479.35</ele>
        <time>2021-06-26T15:24:49Z</time>
      </trkpt>
      <trkpt lat="45.97643" lon="4.55388">
        <ele>478.39</ele>
        <time>2021-06-26T15:25:03Z</time>
      </trkpt>
      <trkpt lat="45.97636" lon="4.55401">
        <ele>476.47</ele>
        <time>2021-06-26T15:25:14Z</time>
      </trkpt>
      <trkpt lat="45.97619" lon="4.55411">
        <ele>476.95</ele>
        <time>2021-06-26T15:25:30Z</time>
      </trkpt>
      <trkpt lat="45.9762" lon="4.55411">
        <ele>476.47</ele>
        <time>2021-06-26T15:25:31Z</time>
      </trkpt>
      <trkpt lat="45.9758" lon="4.55422">
        <ele>475.03</ele>
        <time>2021-06-26T15:25:48Z</time>
      </trkpt>
      <trkpt lat="45.97571" lon="4.55429">
        <ele>475.51</ele>
        <time>2021-06-26T15:26:04Z</time>
      </trkpt>
      <trkpt lat="45.97571" lon="4.5543">
        <ele>474.55</ele>
        <time>2021-06-26T15:26:20Z</time>
      </trkpt>
      <trkpt lat="45.97563" lon="4.55439">
        <ele>473.11</ele>
        <time>2021-06-26T15:26:35Z</time>
      </trkpt>
      <trkpt lat="45.97553" lon="4.55447">
        <ele>472.14</ele>
        <time>2021-06-26T15:26:51Z</time>
      </trkpt>
      <trkpt lat="45.97541" lon="4.55452">
        <ele>471.18</ele>
        <time>2021-06-26T15:27:07Z</time>
      </trkpt>
      <trkpt lat="45.97536" lon="4.55453">
        <ele>470.22</ele>
        <time>2021-06-26T15:27:21Z</time>
      </trkpt>
      <trkpt lat="45.97528" lon="4.55452">
        <ele>468.78</ele>
        <time>2021-06-26T15:27:35Z</time>
      </trkpt>
      <trkpt lat="45.9752" lon="4.55448">
        <ele>467.34</ele>
        <time>2021-06-26T15:27:49Z</time>
      </trkpt>
      <trkpt lat="45.97521" lon="4.55445">
        <ele>466.38</ele>
        <time>2021-06-26T15:28:02Z</time>
      </trkpt>
      <trkpt lat="45.97516" lon="4.55435">
        <ele>465.9</ele>
        <time>2021-06-26T15:28:19Z</time>
      </trkpt>
      <trkpt lat="45.97515" lon="4.55429">
        <ele>464.93</ele>
        <time>2021-06-26T15:28:31Z</time>
      </trkpt>
      <trkpt lat="45.97516" lon="4.55421">
        <ele>464.45</ele>
        <time>2021-06-26T15:28:45Z</time>
      </trkpt>
      <trkpt lat="45.97509" lon="4.55417">
        <ele>463.97</ele>
        <time>2021-06-26T15:29:00Z</time>
      </trkpt>
      <trkpt lat="45.97509" lon="4.55415">
        <ele>463.49</ele>
        <time>2021-06-26T15:29:13Z</time>
      </trkpt>
      <trkpt lat="45.97501" lon="4.55407">
        <ele>463.97</ele>
        <time>2021-06-26T15:29:28Z</time>
      </trkpt>
      <trkpt lat="45.97498" lon="4.55402">
        <ele>463.49</ele>
        <time>2021-06-26T15:29:42Z</time>
      </trkpt>
      <trkpt lat="45.97498" lon="4.55396">
        <ele>463.97</ele>
        <time>2021-06-26T15:29:58Z</time>
      </trkpt>
      <trkpt lat="45.97494" lon="4.55381">
        <ele>464.45</ele>
        <time>2021-06-26T15:30:14Z</time>
      </trkpt>
      <trkpt lat="45.97491" lon="4.55366">
        <ele>464.45</ele>
        <time>2021-06-26T15:30:29Z</time>
      </trkpt>
      <trkpt lat="45.97459" lon="4.5535">
        <ele>465.42</ele>
        <time>2021-06-26T15:30:47Z</time>
      </trkpt>
      <trkpt lat="45.9746" lon="4.55333">
        <ele>465.42</ele>
        <time>2021-06-26T15:31:01Z</time>
      </trkpt>
      <trkpt lat="45.97455" lon="4.55323">
        <ele>465.42</ele>
        <time>2021-06-26T15:31:11Z</time>
      </trkpt>
      <trkpt lat="45.97448" lon="4.5531">
        <ele>465.9</ele>
        <time>2021-06-26T15:31:24Z</time>
      </trkpt>
      <trkpt lat="45.97446" lon="4.55302">
        <ele>465.42</ele>
        <time>2021-06-26T15:31:30Z</time>
      </trkpt>
      <trkpt lat="45.9744" lon="4.5529">
        <ele>465.42</ele>
        <time>2021-06-26T15:31:43Z</time>
      </trkpt>
      <trkpt lat="45.97427" lon="4.55278">
        <ele>465.42</ele>
        <time>2021-06-26T15:31:57Z</time>
      </trkpt>
      <trkpt lat="45.97414" lon="4.5526">
        <ele>465.42</ele>
        <time>2021-06-26T15:32:10Z</time>
      </trkpt>
      <trkpt lat="45.97393" lon="4.55249">
        <ele>465.9</ele>
        <time>2021-06-26T15:32:25Z</time>
      </trkpt>
      <trkpt lat="45.97389" lon="4.55246">
        <ele>465.9</ele>
        <time>2021-06-26T15:32:30Z</time>
      </trkpt>
      <trkpt lat="45.97378" lon="4.55244">
        <ele>465.9</ele>
        <time>2021-06-26T15:32:38Z</time>
      </trkpt>
      <trkpt lat="45.97361" lon="4.55232">
        <ele>464.93</ele>
        <time>2021-06-26T15:32:52Z</time>
      </trkpt>
      <trkpt lat="45.97355" lon="4.55225">
        <ele>463.97</ele>
        <time>2021-06-26T15:33:05Z</time>
      </trkpt>
      <trkpt lat="45.97348" lon="4.5522">
        <ele>463.49</ele>
        <time>2021-06-26T15:33:19Z</time>
      </trkpt>
      <trkpt lat="45.97343" lon="4.55218">
        <ele>462.53</ele>
        <time>2021-06-26T15:33:30Z</time>
      </trkpt>
      <trkpt lat="45.9734" lon="4.55211">
        <ele>461.09</ele>
        <time>2021-06-26T15:33:43Z</time>
      </trkpt>
      <trkpt lat="45.97333" lon="4.55205">
        <ele>460.61</ele>
        <time>2021-06-26T15:33:55Z</time>
      </trkpt>
      <trkpt lat="45.97327" lon="4.55199">
        <ele>459.17</ele>
        <time>2021-06-26T15:34:10Z</time>
      </trkpt>
      <trkpt lat="45.97322" lon="4.55199">
        <ele>459.17</ele>
        <time>2021-06-26T15:34:26Z</time>
      </trkpt>
      <trkpt lat="45.97283" lon="4.55201">
        <ele>458.69</ele>
        <time>2021-06-26T15:34:59Z</time>
      </trkpt>
      <trkpt lat="45.97279" lon="4.55186">
        <ele>457.24</ele>
        <time>2021-06-26T15:35:10Z</time>
      </trkpt>
      <trkpt lat="45.97271" lon="4.55176">
        <ele>455.8</ele>
        <time>2021-06-26T15:35:24Z</time>
      </trkpt>
      <trkpt lat="45.9726" lon="4.55158">
        <ele>454.84</ele>
        <time>2021-06-26T15:35:41Z</time>
      </trkpt>
      <trkpt lat="45.97256" lon="4.55146">
        <ele>453.88</ele>
        <time>2021-06-26T15:35:55Z</time>
      </trkpt>
      <trkpt lat="45.97251" lon="4.55137">
        <ele>451.96</ele>
        <time>2021-06-26T15:36:10Z</time>
      </trkpt>
      <trkpt lat="45.97247" lon="4.55127">
        <ele>451</ele>
        <time>2021-06-26T15:36:24Z</time>
      </trkpt>
      <trkpt lat="45.97242" lon="4.55124">
        <ele>450.03</ele>
        <time>2021-06-26T15:36:37Z</time>
      </trkpt>
      <trkpt lat="45.97237" lon="4.55113">
        <ele>449.55</ele>
        <time>2021-06-26T15:36:50Z</time>
      </trkpt>
      <trkpt lat="45.9723" lon="4.55106">
        <ele>449.55</ele>
        <time>2021-06-26T15:37:02Z</time>
      </trkpt>
      <trkpt lat="45.9722" lon="4.55099">
        <ele>449.07</ele>
        <time>2021-06-26T15:37:18Z</time>
      </trkpt>
      <trkpt lat="45.9721" lon="4.55094">
        <ele>448.59</ele>
        <time>2021-06-26T15:37:30Z</time>
      </trkpt>
      <trkpt lat="45.97181" lon="4.55065">
        <ele>447.63</ele>
        <time>2021-06-26T15:37:48Z</time>
      </trkpt>
      <trkpt lat="45.97186" lon="4.55065">
        <ele>447.15</ele>
        <time>2021-06-26T15:38:04Z</time>
      </trkpt>
      <trkpt lat="45.97186" lon="4.55066">
        <ele>446.19</ele>
        <time>2021-06-26T15:38:21Z</time>
      </trkpt>
      <trkpt lat="45.97178" lon="4.55073">
        <ele>445.23</ele>
        <time>2021-06-26T15:38:35Z</time>
      </trkpt>
      <trkpt lat="45.97171" lon="4.55067">
        <ele>444.27</ele>
        <time>2021-06-26T15:38:50Z</time>
      </trkpt>
      <trkpt lat="45.97166" lon="4.5506">
        <ele>443.31</ele>
        <time>2021-06-26T15:39:04Z</time>
      </trkpt>
      <trkpt lat="45.97162" lon="4.55056">
        <ele>443.31</ele>
        <time>2021-06-26T15:39:17Z</time>
      </trkpt>
      <trkpt lat="45.97154" lon="4.55047">
        <ele>442.82</ele>
        <time>2021-06-26T15:39:30Z</time>
      </trkpt>
      <trkpt lat="45.97148" lon="4.55047">
        <ele>441.86</ele>
        <time>2021-06-26T15:39:43Z</time>
      </trkpt>
      <trkpt lat="45.97147" lon="4.55045">
        <ele>442.34</ele>
        <time>2021-06-26T15:40:04Z</time>
      </trkpt>
      <trkpt lat="45.9714" lon="4.55037">
        <ele>442.82</ele>
        <time>2021-06-26T15:40:20Z</time>
      </trkpt>
      <trkpt lat="45.97125" lon="4.55035">
        <ele>443.31</ele>
        <time>2021-06-26T15:40:34Z</time>
      </trkpt>
      <trkpt lat="45.97109" lon="4.55028">
        <ele>443.79</ele>
        <time>2021-06-26T15:40:52Z</time>
      </trkpt>
      <trkpt lat="45.97101" lon="4.55028">
        <ele>443.79</ele>
        <time>2021-06-26T15:41:06Z</time>
      </trkpt>
      <trkpt lat="45.97092" lon="4.55032">
        <ele>444.27</ele>
        <time>2021-06-26T15:41:22Z</time>
      </trkpt>
      <trkpt lat="45.97082" lon="4.55039">
        <ele>445.71</ele>
        <time>2021-06-26T15:41:38Z</time>
      </trkpt>
      <trkpt lat="45.97076" lon="4.55043">
        <ele>447.15</ele>
        <time>2021-06-26T15:41:52Z</time>
      </trkpt>
      <trkpt lat="45.9707" lon="4.55046">
        <ele>448.11</ele>
        <time>2021-06-26T15:42:07Z</time>
      </trkpt>
      <trkpt lat="45.97061" lon="4.55054">
        <ele>449.07</ele>
        <time>2021-06-26T15:42:22Z</time>
      </trkpt>
      <trkpt lat="45.97052" lon="4.55063">
        <ele>450.52</ele>
        <time>2021-06-26T15:42:36Z</time>
      </trkpt>
      <trkpt lat="45.97045" lon="4.55069">
        <ele>451</ele>
        <time>2021-06-26T15:42:50Z</time>
      </trkpt>
      <trkpt lat="45.97035" lon="4.55073">
        <ele>451.96</ele>
        <time>2021-06-26T15:43:05Z</time>
      </trkpt>
      <trkpt lat="45.97026" lon="4.55081">
        <ele>452.92</ele>
        <time>2021-06-26T15:43:22Z</time>
      </trkpt>
      <trkpt lat="45.9702" lon="4.55086">
        <ele>454.36</ele>
        <time>2021-06-26T15:43:36Z</time>
      </trkpt>
      <trkpt lat="45.97016" lon="4.55093">
        <ele>455.32</ele>
        <time>2021-06-26T15:43:52Z</time>
      </trkpt>
      <trkpt lat="45.97012" lon="4.55098">
        <ele>456.76</ele>
        <time>2021-06-26T15:44:05Z</time>
      </trkpt>
      <trkpt lat="45.97006" lon="4.55104">
        <ele>457.72</ele>
        <time>2021-06-26T15:44:19Z</time>
      </trkpt>
      <trkpt lat="45.96999" lon="4.55109">
        <ele>458.69</ele>
        <time>2021-06-26T15:44:34Z</time>
      </trkpt>
      <trkpt lat="45.96994" lon="4.55113">
        <ele>459.65</ele>
        <time>2021-06-26T15:44:48Z</time>
      </trkpt>
      <trkpt lat="45.96983" lon="4.55121">
        <ele>460.61</ele>
        <time>2021-06-26T15:45:04Z</time>
      </trkpt>
      <trkpt lat="45.96976" lon="4.55131">
        <ele>462.05</ele>
        <time>2021-06-26T15:45:20Z</time>
      </trkpt>
      <trkpt lat="45.96971" lon="4.55142">
        <ele>462.53</ele>
        <time>2021-06-26T15:45:37Z</time>
      </trkpt>
      <trkpt lat="45.96965" lon="4.55145">
        <ele>463.49</ele>
        <time>2021-06-26T15:45:50Z</time>
      </trkpt>
      <trkpt lat="45.96958" lon="4.55152">
        <ele>463.97</ele>
        <time>2021-06-26T15:46:04Z</time>
      </trkpt>
      <trkpt lat="45.9695" lon="4.55158">
        <ele>465.42</ele>
        <time>2021-06-26T15:46:20Z</time>
      </trkpt>
      <trkpt lat="45.96943" lon="4.55168">
        <ele>466.38</ele>
        <time>2021-06-26T15:46:36Z</time>
      </trkpt>
      <trkpt lat="45.96937" lon="4.55177">
        <ele>467.82</ele>
        <time>2021-06-26T15:46:52Z</time>
      </trkpt>
      <trkpt lat="45.96931" lon="4.55185">
        <ele>468.78</ele>
        <time>2021-06-26T15:47:06Z</time>
      </trkpt>
      <trkpt lat="45.96926" lon="4.55196">
        <ele>469.74</ele>
        <time>2021-06-26T15:47:21Z</time>
      </trkpt>
      <trkpt lat="45.96921" lon="4.55205">
        <ele>471.18</ele>
        <time>2021-06-26T15:47:36Z</time>
      </trkpt>
      <trkpt lat="45.96916" lon="4.55211">
        <ele>472.63</ele>
        <time>2021-06-26T15:47:53Z</time>
      </trkpt>
      <trkpt lat="45.9691" lon="4.55218">
        <ele>473.11</ele>
        <time>2021-06-26T15:48:07Z</time>
      </trkpt>
      <trkpt lat="45.96908" lon="4.55225">
        <ele>474.55</ele>
        <time>2021-06-26T15:48:21Z</time>
      </trkpt>
      <trkpt lat="45.96904" lon="4.55231">
        <ele>475.51</ele>
        <time>2021-06-26T15:48:37Z</time>
      </trkpt>
      <trkpt lat="45.96903" lon="4.55236">
        <ele>476.47</ele>
        <time>2021-06-26T15:48:53Z</time>
      </trkpt>
      <trkpt lat="45.96899" lon="4.5524">
        <ele>477.91</ele>
        <time>2021-06-26T15:49:05Z</time>
      </trkpt>
      <trkpt lat="45.96894" lon="4.55247">
        <ele>479.35</ele>
        <time>2021-06-26T15:49:22Z</time>
      </trkpt>
      <trkpt lat="45.96889" lon="4.55258">
        <ele>481.28</ele>
        <time>2021-06-26T15:49:40Z</time>
      </trkpt>
      <trkpt lat="45.96883" lon="4.55265">
        <ele>482.72</ele>
        <time>2021-06-26T15:49:56Z</time>
      </trkpt>
      <trkpt lat="45.96876" lon="4.55273">
        <ele>484.16</ele>
        <time>2021-06-26T15:50:14Z</time>
      </trkpt>
      <trkpt lat="45.96867" lon="4.5528">
        <ele>485.6</ele>
        <time>2021-06-26T15:50:31Z</time>
      </trkpt>
      <trkpt lat="45.96862" lon="4.55283">
        <ele>486.56</ele>
        <time>2021-06-26T15:50:47Z</time>
      </trkpt>
      <trkpt lat="45.96855" lon="4.55288">
        <ele>487.53</ele>
        <time>2021-06-26T15:51:03Z</time>
      </trkpt>
      <trkpt lat="45.96848" lon="4.55292">
        <ele>488.49</ele>
        <time>2021-06-26T15:51:16Z</time>
      </trkpt>
      <trkpt lat="45.9684" lon="4.55297">
        <ele>489.93</ele>
        <time>2021-06-26T15:51:34Z</time>
      </trkpt>
      <trkpt lat="45.96833" lon="4.553">
        <ele>490.89</ele>
        <time>2021-06-26T15:51:47Z</time>
      </trkpt>
      <trkpt lat="45.96824" lon="4.55302">
        <ele>491.85</ele>
        <time>2021-06-26T15:52:01Z</time>
      </trkpt>
      <trkpt lat="45.96817" lon="4.55309">
        <ele>492.81</ele>
        <time>2021-06-26T15:52:18Z</time>
      </trkpt>
      <trkpt lat="45.96809" lon="4.55314">
        <ele>493.77</ele>
        <time>2021-06-26T15:52:34Z</time>
      </trkpt>
      <trkpt lat="45.96803" lon="4.55321">
        <ele>494.74</ele>
        <time>2021-06-26T15:52:49Z</time>
      </trkpt>
      <trkpt lat="45.96796" lon="4.55327">
        <ele>495.7</ele>
        <time>2021-06-26T15:53:06Z</time>
      </trkpt>
      <trkpt lat="45.96786" lon="4.55337">
        <ele>496.18</ele>
        <time>2021-06-26T15:53:26Z</time>
      </trkpt>
      <trkpt lat="45.96785" lon="4.55342">
        <ele>497.14</ele>
        <time>2021-06-26T15:53:39Z</time>
      </trkpt>
      <trkpt lat="45.96782" lon="4.55354">
        <ele>498.58</ele>
        <time>2021-06-26T15:53:55Z</time>
      </trkpt>
      <trkpt lat="45.96779" lon="4.55362">
        <ele>499.54</ele>
        <time>2021-06-26T15:54:08Z</time>
      </trkpt>
      <trkpt lat="45.96779" lon="4.55366">
        <ele>499.54</ele>
        <time>2021-06-26T15:54:27Z</time>
      </trkpt>
      <trkpt lat="45.96773" lon="4.55373">
        <ele>500.02</ele>
        <time>2021-06-26T15:54:44Z</time>
      </trkpt>
      <trkpt lat="45.9677" lon="4.5538">
        <ele>500.5</ele>
        <time>2021-06-26T15:55:01Z</time>
      </trkpt>
      <trkpt lat="45.96765" lon="4.55394">
        <ele>501.46</ele>
        <time>2021-06-26T15:55:18Z</time>
      </trkpt>
      <trkpt lat="45.96761" lon="4.55404">
        <ele>502.43</ele>
        <time>2021-06-26T15:55:31Z</time>
      </trkpt>
      <trkpt lat="45.96757" lon="4.55414">
        <ele>503.39</ele>
        <time>2021-06-26T15:55:45Z</time>
      </trkpt>
      <trkpt lat="45.96755" lon="4.55422">
        <ele>503.87</ele>
        <time>2021-06-26T15:55:58Z</time>
      </trkpt>
      <trkpt lat="45.96754" lon="4.55432">
        <ele>504.83</ele>
        <time>2021-06-26T15:56:11Z</time>
      </trkpt>
      <trkpt lat="45.96753" lon="4.55444">
        <ele>505.79</ele>
        <time>2021-06-26T15:56:25Z</time>
      </trkpt>
      <trkpt lat="45.96751" lon="4.55457">
        <ele>506.27</ele>
        <time>2021-06-26T15:56:39Z</time>
      </trkpt>
      <trkpt lat="45.9675" lon="4.55458">
        <ele>506.75</ele>
        <time>2021-06-26T15:56:41Z</time>
      </trkpt>
      <trkpt lat="45.96744" lon="4.55459">
        <ele>506.27</ele>
        <time>2021-06-26T15:56:56Z</time>
      </trkpt>
      <trkpt lat="45.96744" lon="4.55465">
        <ele>506.75</ele>
        <time>2021-06-26T15:57:09Z</time>
      </trkpt>
      <trkpt lat="45.96745" lon="4.55484">
        <ele>506.75</ele>
        <time>2021-06-26T15:57:26Z</time>
      </trkpt>
      <trkpt lat="45.96743" lon="4.55495">
        <ele>507.23</ele>
        <time>2021-06-26T15:57:39Z</time>
      </trkpt>
      <trkpt lat="45.96739" lon="4.55512">
        <ele>507.71</ele>
        <time>2021-06-26T15:57:55Z</time>
      </trkpt>
      <trkpt lat="45.96733" lon="4.55525">
        <ele>508.19</ele>
        <time>2021-06-26T15:58:12Z</time>
      </trkpt>
      <trkpt lat="45.96727" lon="4.5554">
        <ele>508.67</ele>
        <time>2021-06-26T15:58:27Z</time>
      </trkpt>
      <trkpt lat="45.96724" lon="4.55543">
        <ele>508.67</ele>
        <time>2021-06-26T15:58:42Z</time>
      </trkpt>
      <trkpt lat="45.96722" lon="4.55545">
        <ele>508.19</ele>
        <time>2021-06-26T15:59:07Z</time>
      </trkpt>
      <trkpt lat="45.96716" lon="4.55557">
        <ele>508.67</ele>
        <time>2021-06-26T15:59:25Z</time>
      </trkpt>
      <trkpt lat="45.96714" lon="4.55569">
        <ele>509.64</ele>
        <time>2021-06-26T15:59:40Z</time>
      </trkpt>
      <trkpt lat="45.96711" lon="4.55583">
        <ele>510.6</ele>
        <time>2021-06-26T15:59:54Z</time>
      </trkpt>
      <trkpt lat="45.96704" lon="4.55595">
        <ele>510.6</ele>
        <time>2021-06-26T16:00:09Z</time>
      </trkpt>
      <trkpt lat="45.96692" lon="4.55594">
        <ele>511.56</ele>
        <time>2021-06-26T16:00:23Z</time>
      </trkpt>
      <trkpt lat="45.96682" lon="4.55588">
        <ele>512.04</ele>
        <time>2021-06-26T16:00:38Z</time>
      </trkpt>
      <trkpt lat="45.96677" lon="4.55585">
        <ele>511.56</ele>
        <time>2021-06-26T16:00:58Z</time>
      </trkpt>
      <trkpt lat="45.96671" lon="4.55581">
        <ele>512.04</ele>
        <time>2021-06-26T16:01:15Z</time>
      </trkpt>
      <trkpt lat="45.96663" lon="4.55582">
        <ele>512.52</ele>
        <time>2021-06-26T16:01:30Z</time>
      </trkpt>
      <trkpt lat="45.96659" lon="4.55586">
        <ele>513</ele>
        <time>2021-06-26T16:01:50Z</time>
      </trkpt>
      <trkpt lat="45.9665" lon="4.55591">
        <ele>513.48</ele>
        <time>2021-06-26T16:02:05Z</time>
      </trkpt>
      <trkpt lat="45.96648" lon="4.55592">
        <ele>513</ele>
        <time>2021-06-26T16:02:35Z</time>
      </trkpt>
      <trkpt lat="45.96642" lon="4.55595">
        <ele>513.48</ele>
        <time>2021-06-26T16:02:49Z</time>
      </trkpt>
      <trkpt lat="45.96631" lon="4.55601">
        <ele>513.96</ele>
        <time>2021-06-26T16:03:04Z</time>
      </trkpt>
      <trkpt lat="45.96623" lon="4.55606">
        <ele>513.48</ele>
        <time>2021-06-26T16:03:17Z</time>
      </trkpt>
      <trkpt lat="45.96619" lon="4.55607">
        <ele>513</ele>
        <time>2021-06-26T16:03:30Z</time>
      </trkpt>
      <trkpt lat="45.96606" lon="4.5561">
        <ele>513</ele>
        <time>2021-06-26T16:03:48Z</time>
      </trkpt>
      <trkpt lat="45.96603" lon="4.55603">
        <ele>513.48</ele>
        <time>2021-06-26T16:04:01Z</time>
      </trkpt>
      <trkpt lat="45.96596" lon="4.55604">
        <ele>513.48</ele>
        <time>2021-06-26T16:04:13Z</time>
      </trkpt>
      <trkpt lat="45.96589" lon="4.55601">
        <ele>513.48</ele>
        <time>2021-06-26T16:04:27Z</time>
      </trkpt>
      <trkpt lat="45.96576" lon="4.55595">
        <ele>514.44</ele>
        <time>2021-06-26T16:04:44Z</time>
      </trkpt>
      <trkpt lat="45.96559" lon="4.5559">
        <ele>515.88</ele>
        <time>2021-06-26T16:05:01Z</time>
      </trkpt>
      <trkpt lat="45.96547" lon="4.5559">
        <ele>516.85</ele>
        <time>2021-06-26T16:05:17Z</time>
      </trkpt>
      <trkpt lat="45.96545" lon="4.5559">
        <ele>516.85</ele>
        <time>2021-06-26T16:05:20Z</time>
      </trkpt>
      <trkpt lat="45.9653" lon="4.55589">
        <ele>518.29</ele>
        <time>2021-06-26T16:05:35Z</time>
      </trkpt>
      <trkpt lat="45.96519" lon="4.55591">
        <ele>519.25</ele>
        <time>2021-06-26T16:05:52Z</time>
      </trkpt>
      <trkpt lat="45.96509" lon="4.55585">
        <ele>520.69</ele>
        <time>2021-06-26T16:06:08Z</time>
      </trkpt>
      <trkpt lat="45.96497" lon="4.55575">
        <ele>521.65</ele>
        <time>2021-06-26T16:06:24Z</time>
      </trkpt>
      <trkpt lat="45.96482" lon="4.55566">
        <ele>523.09</ele>
        <time>2021-06-26T16:06:40Z</time>
      </trkpt>
      <trkpt lat="45.96475" lon="4.55554">
        <ele>524.06</ele>
        <time>2021-06-26T16:06:59Z</time>
      </trkpt>
      <trkpt lat="45.96466" lon="4.55549">
        <ele>524.54</ele>
        <time>2021-06-26T16:07:22Z</time>
      </trkpt>
      <trkpt lat="45.9646" lon="4.55551">
        <ele>526.46</ele>
        <time>2021-06-26T16:07:38Z</time>
      </trkpt>
      <trkpt lat="45.96453" lon="4.55554">
        <ele>527.42</ele>
        <time>2021-06-26T16:07:53Z</time>
      </trkpt>
      <trkpt lat="45.96442" lon="4.55559">
        <ele>528.86</ele>
        <time>2021-06-26T16:08:10Z</time>
      </trkpt>
      <trkpt lat="45.96434" lon="4.55564">
        <ele>529.82</ele>
        <time>2021-06-26T16:08:29Z</time>
      </trkpt>
      <trkpt lat="45.96424" lon="4.55569">
        <ele>531.27</ele>
        <time>2021-06-26T16:08:45Z</time>
      </trkpt>
      <trkpt lat="45.96414" lon="4.55575">
        <ele>531.75</ele>
        <time>2021-06-26T16:09:00Z</time>
      </trkpt>
      <trkpt lat="45.96402" lon="4.5558">
        <ele>532.23</ele>
        <time>2021-06-26T16:09:13Z</time>
      </trkpt>
      <trkpt lat="45.96396" lon="4.55581">
        <ele>532.23</ele>
        <time>2021-06-26T16:09:19Z</time>
      </trkpt>
      <trkpt lat="45.96383" lon="4.5558">
        <ele>531.75</ele>
        <time>2021-06-26T16:09:34Z</time>
      </trkpt>
      <trkpt lat="45.96373" lon="4.55578">
        <ele>530.79</ele>
        <time>2021-06-26T16:09:49Z</time>
      </trkpt>
      <trkpt lat="45.96371" lon="4.5558">
        <ele>530.3</ele>
        <time>2021-06-26T16:09:57Z</time>
      </trkpt>
      <trkpt lat="45.96359" lon="4.5559">
        <ele>529.34</ele>
        <time>2021-06-26T16:10:14Z</time>
      </trkpt>
      <trkpt lat="45.9635" lon="4.55607">
        <ele>528.38</ele>
        <time>2021-06-26T16:10:30Z</time>
      </trkpt>
      <trkpt lat="45.96343" lon="4.55617">
        <ele>527.9</ele>
        <time>2021-06-26T16:10:45Z</time>
      </trkpt>
      <trkpt lat="45.96339" lon="4.55628">
        <ele>527.9</ele>
        <time>2021-06-26T16:11:01Z</time>
      </trkpt>
      <trkpt lat="45.96337" lon="4.55637">
        <ele>527.42</ele>
        <time>2021-06-26T16:11:23Z</time>
      </trkpt>
      <trkpt lat="45.96331" lon="4.55658">
        <ele>526.94</ele>
        <time>2021-06-26T16:11:39Z</time>
      </trkpt>
      <trkpt lat="45.96327" lon="4.55677">
        <ele>525.98</ele>
        <time>2021-06-26T16:11:54Z</time>
      </trkpt>
      <trkpt lat="45.96324" lon="4.55695">
        <ele>525.02</ele>
        <time>2021-06-26T16:12:10Z</time>
      </trkpt>
      <trkpt lat="45.96321" lon="4.55716">
        <ele>524.06</ele>
        <time>2021-06-26T16:12:27Z</time>
      </trkpt>
      <trkpt lat="45.9632" lon="4.55717">
        <ele>524.06</ele>
        <time>2021-06-26T16:12:28Z</time>
      </trkpt>
      <trkpt lat="45.96319" lon="4.55725">
        <ele>523.58</ele>
        <time>2021-06-26T16:12:44Z</time>
      </trkpt>
      <trkpt lat="45.96318" lon="4.55739">
        <ele>523.09</ele>
        <time>2021-06-26T16:12:54Z</time>
      </trkpt>
      <trkpt lat="45.9632" lon="4.55764">
        <ele>522.13</ele>
        <time>2021-06-26T16:13:12Z</time>
      </trkpt>
      <trkpt lat="45.9632" lon="4.55779">
        <ele>522.13</ele>
        <time>2021-06-26T16:13:23Z</time>
      </trkpt>
      <trkpt lat="45.96315" lon="4.55799">
        <ele>521.17</ele>
        <time>2021-06-26T16:13:39Z</time>
      </trkpt>
      <trkpt lat="45.96298" lon="4.55808">
        <ele>521.65</ele>
        <time>2021-06-26T16:13:59Z</time>
      </trkpt>
      <trkpt lat="45.96292" lon="4.55808">
        <ele>521.17</ele>
        <time>2021-06-26T16:14:06Z</time>
      </trkpt>
      <trkpt lat="45.96285" lon="4.55806">
        <ele>521.65</ele>
        <time>2021-06-26T16:14:14Z</time>
      </trkpt>
      <trkpt lat="45.96267" lon="4.55809">
        <ele>522.61</ele>
        <time>2021-06-26T16:14:32Z</time>
      </trkpt>
      <trkpt lat="45.96254" lon="4.55813">
        <ele>523.58</ele>
        <time>2021-06-26T16:14:48Z</time>
      </trkpt>
      <trkpt lat="45.96245" lon="4.55815">
        <ele>524.06</ele>
        <time>2021-06-26T16:15:01Z</time>
      </trkpt>
      <trkpt lat="45.96233" lon="4.55821">
        <ele>525.02</ele>
        <time>2021-06-26T16:15:18Z</time>
      </trkpt>
      <trkpt lat="45.96221" lon="4.55827">
        <ele>525.98</ele>
        <time>2021-06-26T16:15:34Z</time>
      </trkpt>
      <trkpt lat="45.9621" lon="4.55837">
        <ele>527.42</ele>
        <time>2021-06-26T16:15:50Z</time>
      </trkpt>
      <trkpt lat="45.96198" lon="4.55845">
        <ele>527.9</ele>
        <time>2021-06-26T16:16:05Z</time>
      </trkpt>
      <trkpt lat="45.96185" lon="4.55856">
        <ele>528.38</ele>
        <time>2021-06-26T16:16:23Z</time>
      </trkpt>
      <trkpt lat="45.96174" lon="4.55869">
        <ele>528.86</ele>
        <time>2021-06-26T16:16:39Z</time>
      </trkpt>
      <trkpt lat="45.96163" lon="4.55886">
        <ele>529.34</ele>
        <time>2021-06-26T16:16:58Z</time>
      </trkpt>
      <trkpt lat="45.9615" lon="4.55903">
        <ele>528.86</ele>
        <time>2021-06-26T16:17:16Z</time>
      </trkpt>
      <trkpt lat="45.96144" lon="4.55914">
        <ele>529.34</ele>
        <time>2021-06-26T16:17:36Z</time>
      </trkpt>
      <trkpt lat="45.96134" lon="4.5593">
        <ele>529.34</ele>
        <time>2021-06-26T16:17:52Z</time>
      </trkpt>
      <trkpt lat="45.96127" lon="4.55944">
        <ele>529.34</ele>
        <time>2021-06-26T16:18:06Z</time>
      </trkpt>
      <trkpt lat="45.96117" lon="4.55964">
        <ele>528.86</ele>
        <time>2021-06-26T16:18:25Z</time>
      </trkpt>
      <trkpt lat="45.96115" lon="4.55969">
        <ele>528.86</ele>
        <time>2021-06-26T16:18:42Z</time>
      </trkpt>
      <trkpt lat="45.96119" lon="4.55975">
        <ele>529.34</ele>
        <time>2021-06-26T16:18:57Z</time>
      </trkpt>
      <trkpt lat="45.96123" lon="4.55977">
        <ele>529.82</ele>
        <time>2021-06-26T16:19:11Z</time>
      </trkpt>
      <trkpt lat="45.96121" lon="4.55976">
        <ele>529.34</ele>
        <time>2021-06-26T16:19:40Z</time>
      </trkpt>
      <trkpt lat="45.96123" lon="4.55975">
        <ele>529.34</ele>
        <time>2021-06-26T16:20:05Z</time>
      </trkpt>
      <trkpt lat="45.96124" lon="4.55975">
        <ele>528.86</ele>
        <time>2021-06-26T16:20:29Z</time>
      </trkpt>
      <trkpt lat="45.96125" lon="4.55973">
        <ele>528.38</ele>
        <time>2021-06-26T16:20:52Z</time>
      </trkpt>
      <trkpt lat="45.96134" lon="4.55972">
        <ele>529.82</ele>
        <time>2021-06-26T16:21:07Z</time>
      </trkpt>
      <trkpt lat="45.96146" lon="4.55969">
        <ele>531.27</ele>
        <time>2021-06-26T16:21:23Z</time>
      </trkpt>
      <trkpt lat="45.96157" lon="4.55967">
        <ele>532.71</ele>
        <time>2021-06-26T16:21:38Z</time>
      </trkpt>
      <trkpt lat="45.96169" lon="4.55969">
        <ele>533.67</ele>
        <time>2021-06-26T16:21:54Z</time>
      </trkpt>
      <trkpt lat="45.96176" lon="4.55972">
        <ele>534.15</ele>
        <time>2021-06-26T16:22:08Z</time>
      </trkpt>
      <trkpt lat="45.96181" lon="4.55979">
        <ele>535.11</ele>
        <time>2021-06-26T16:22:22Z</time>
      </trkpt>
      <trkpt lat="45.96186" lon="4.55987">
        <ele>536.07</ele>
        <time>2021-06-26T16:22:34Z</time>
      </trkpt>
      <trkpt lat="45.96194" lon="4.55997">
        <ele>537.51</ele>
        <time>2021-06-26T16:22:51Z</time>
      </trkpt>
      <trkpt lat="45.96202" lon="4.56007">
        <ele>539.44</ele>
        <time>2021-06-26T16:23:07Z</time>
      </trkpt>
      <trkpt lat="45.96207" lon="4.56024">
        <ele>540.4</ele>
        <time>2021-06-26T16:23:22Z</time>
      </trkpt>
      <trkpt lat="45.96209" lon="4.56033">
        <ele>541.36</ele>
        <time>2021-06-26T16:23:34Z</time>
      </trkpt>
      <trkpt lat="45.96213" lon="4.56047">
        <ele>542.32</ele>
        <time>2021-06-26T16:23:49Z</time>
      </trkpt>
      <trkpt lat="45.96217" lon="4.56063">
        <ele>543.28</ele>
        <time>2021-06-26T16:24:05Z</time>
      </trkpt>
      <trkpt lat="45.96219" lon="4.56077">
        <ele>544.72</ele>
        <time>2021-06-26T16:24:20Z</time>
      </trkpt>
      <trkpt lat="45.96221" lon="4.56088">
        <ele>545.2</ele>
        <time>2021-06-26T16:24:35Z</time>
      </trkpt>
      <trkpt lat="45.96223" lon="4.56105">
        <ele>547.13</ele>
        <time>2021-06-26T16:24:52Z</time>
      </trkpt>
      <trkpt lat="45.96223" lon="4.56113">
        <ele>547.61</ele>
        <time>2021-06-26T16:24:59Z</time>
      </trkpt>
      <trkpt lat="45.96225" lon="4.56137">
        <ele>548.09</ele>
        <time>2021-06-26T16:25:18Z</time>
      </trkpt>
      <trkpt lat="45.9623" lon="4.56157">
        <ele>547.61</ele>
        <time>2021-06-26T16:25:35Z</time>
      </trkpt>
      <trkpt lat="45.96231" lon="4.56159">
        <ele>547.61</ele>
        <time>2021-06-26T16:25:37Z</time>
      </trkpt>
      <trkpt lat="45.96239" lon="4.56178">
        <ele>548.09</ele>
        <time>2021-06-26T16:25:54Z</time>
      </trkpt>
      <trkpt lat="45.96247" lon="4.56197">
        <ele>548.09</ele>
        <time>2021-06-26T16:26:10Z</time>
      </trkpt>
      <trkpt lat="45.96253" lon="4.56216">
        <ele>548.09</ele>
        <time>2021-06-26T16:26:24Z</time>
      </trkpt>
      <trkpt lat="45.96255" lon="4.56236">
        <ele>548.57</ele>
        <time>2021-06-26T16:26:41Z</time>
      </trkpt>
      <trkpt lat="45.96254" lon="4.56246">
        <ele>548.57</ele>
        <time>2021-06-26T16:26:48Z</time>
      </trkpt>
      <trkpt lat="45.96252" lon="4.56256">
        <ele>548.57</ele>
        <time>2021-06-26T16:27:05Z</time>
      </trkpt>
      <trkpt lat="45.96249" lon="4.56266">
        <ele>548.09</ele>
        <time>2021-06-26T16:27:12Z</time>
      </trkpt>
      <trkpt lat="45.96249" lon="4.56274">
        <ele>548.09</ele>
        <time>2021-06-26T16:27:19Z</time>
      </trkpt>
      <trkpt lat="45.96244" lon="4.56294">
        <ele>548.09</ele>
        <time>2021-06-26T16:27:37Z</time>
      </trkpt>
      <trkpt lat="45.96241" lon="4.56315">
        <ele>547.13</ele>
        <time>2021-06-26T16:27:54Z</time>
      </trkpt>
      <trkpt lat="45.96241" lon="4.56339">
        <ele>546.65</ele>
        <time>2021-06-26T16:28:12Z</time>
      </trkpt>
      <trkpt lat="45.9624" lon="4.56356">
        <ele>546.17</ele>
        <time>2021-06-26T16:28:25Z</time>
      </trkpt>
      <trkpt lat="45.96239" lon="4.56359">
        <ele>545.69</ele>
        <time>2021-06-26T16:28:28Z</time>
      </trkpt>
      <trkpt lat="45.96239" lon="4.56378">
        <ele>545.2</ele>
        <time>2021-06-26T16:28:41Z</time>
      </trkpt>
      <trkpt lat="45.96238" lon="4.56396">
        <ele>544.72</ele>
        <time>2021-06-26T16:28:54Z</time>
      </trkpt>
      <trkpt lat="45.96235" lon="4.56421">
        <ele>543.76</ele>
        <time>2021-06-26T16:29:10Z</time>
      </trkpt>
      <trkpt lat="45.96227" lon="4.5644">
        <ele>543.28</ele>
        <time>2021-06-26T16:29:26Z</time>
      </trkpt>
      <trkpt lat="45.96217" lon="4.56457">
        <ele>542.8</ele>
        <time>2021-06-26T16:29:44Z</time>
      </trkpt>
      <trkpt lat="45.96214" lon="4.56463">
        <ele>542.8</ele>
        <time>2021-06-26T16:29:49Z</time>
      </trkpt>
      <trkpt lat="45.9621" lon="4.56472">
        <ele>542.8</ele>
        <time>2021-06-26T16:29:56Z</time>
      </trkpt>
      <trkpt lat="45.962" lon="4.56485">
        <ele>541.84</ele>
        <time>2021-06-26T16:30:11Z</time>
      </trkpt>
      <trkpt lat="45.96193" lon="4.56495">
        <ele>540.88</ele>
        <time>2021-06-26T16:30:26Z</time>
      </trkpt>
      <trkpt lat="45.96182" lon="4.56497">
        <ele>539.44</ele>
        <time>2021-06-26T16:30:39Z</time>
      </trkpt>
      <trkpt lat="45.96164" lon="4.56504">
        <ele>538.48</ele>
        <time>2021-06-26T16:30:55Z</time>
      </trkpt>
      <trkpt lat="45.96158" lon="4.56506">
        <ele>537.99</ele>
        <time>2021-06-26T16:31:07Z</time>
      </trkpt>
      <trkpt lat="45.96152" lon="4.56515">
        <ele>536.55</ele>
        <time>2021-06-26T16:31:23Z</time>
      </trkpt>
      <trkpt lat="45.96144" lon="4.56523">
        <ele>535.59</ele>
        <time>2021-06-26T16:31:37Z</time>
      </trkpt>
      <trkpt lat="45.9613" lon="4.56525">
        <ele>534.63</ele>
        <time>2021-06-26T16:31:51Z</time>
      </trkpt>
      <trkpt lat="45.96115" lon="4.56531">
        <ele>534.15</ele>
        <time>2021-06-26T16:32:06Z</time>
      </trkpt>
      <trkpt lat="45.96108" lon="4.5654">
        <ele>533.19</ele>
        <time>2021-06-26T16:32:18Z</time>
      </trkpt>
      <trkpt lat="45.96101" lon="4.56548">
        <ele>532.71</ele>
        <time>2021-06-26T16:32:33Z</time>
      </trkpt>
      <trkpt lat="45.96085" lon="4.56552">
        <ele>532.23</ele>
        <time>2021-06-26T16:32:50Z</time>
      </trkpt>
      <trkpt lat="45.96075" lon="4.56553">
        <ele>532.23</ele>
        <time>2021-06-26T16:33:06Z</time>
      </trkpt>
      <trkpt lat="45.96074" lon="4.56555">
        <ele>531.75</ele>
        <time>2021-06-26T16:33:22Z</time>
      </trkpt>
      <trkpt lat="45.9607" lon="4.56568">
        <ele>531.75</ele>
        <time>2021-06-26T16:33:40Z</time>
      </trkpt>
      <trkpt lat="45.96053" lon="4.56573">
        <ele>530.79</ele>
        <time>2021-06-26T16:33:56Z</time>
      </trkpt>
      <trkpt lat="45.96038" lon="4.56588">
        <ele>531.27</ele>
        <time>2021-06-26T16:34:16Z</time>
      </trkpt>
      <trkpt lat="45.9603" lon="4.56601">
        <ele>530.79</ele>
        <time>2021-06-26T16:34:30Z</time>
      </trkpt>
      <trkpt lat="45.96017" lon="4.56622">
        <ele>529.82</ele>
        <time>2021-06-26T16:34:46Z</time>
      </trkpt>
      <trkpt lat="45.96008" lon="4.56633">
        <ele>529.82</ele>
        <time>2021-06-26T16:34:59Z</time>
      </trkpt>
      <trkpt lat="45.95998" lon="4.56644">
        <ele>529.34</ele>
        <time>2021-06-26T16:35:13Z</time>
      </trkpt>
      <trkpt lat="45.95986" lon="4.56657">
        <ele>528.86</ele>
        <time>2021-06-26T16:35:28Z</time>
      </trkpt>
      <trkpt lat="45.95974" lon="4.56659">
        <ele>527.9</ele>
        <time>2021-06-26T16:35:39Z</time>
      </trkpt>
      <trkpt lat="45.95967" lon="4.56658">
        <ele>528.38</ele>
        <time>2021-06-26T16:35:47Z</time>
      </trkpt>
      <trkpt lat="45.95958" lon="4.56662">
        <ele>527.9</ele>
        <time>2021-06-26T16:36:02Z</time>
      </trkpt>
    </trkseg>
  </trk>
</gpx>